<?xml version="1.0" encoding="UTF-8" standalone="no" ?>
<gpx xmlns="http://www.topografix.com/GPX/1/1" xmlns:xsi="http://www.w3.org/2001/XMLSchema-instance" xsi:schemaLocation="http://www.topografix.com/GPX/1/1 http://www.topografix.com/GPX/1/1/gpx.xsd" version="1.1" creator="VisuGPX - https://www.visugpx.com">
  <metadata>
    <name> Alboussieres 27km</name>
    <desc><![CDATA[J3 Batie de Crussol - les mégalithes - Au départ du gite Aux Cochons d'Avril]]></desc>
  </metadata>
  <wpt lat="44.95727" lon="4.71605">
    <ele>541.4</ele>
    <name><![CDATA[Les Cochons d'Avril]]></name>
    <desc><![CDATA[Avril Desplanches 06 85 65 50 26]]></desc>
    <type><![CDATA[hotel]]></type>
  </wpt>
  <wpt lat="45.05897" lon="3.98186">
    <ele>710.7</ele>
    <name><![CDATA[Gite]]></name>
    <desc><![CDATA[Le Moulin de Barette, 43700 Blavozy
 Hôtel
 04 71 03 00 88]]></desc>
    <type><![CDATA[hotel]]></type>
  </wpt>
  <wpt lat="45.04951" lon="4.03404">
    <ele>958.3</ele>
    <name><![CDATA[gites]]></name>
    <desc><![CDATA[Aupinhac, 43260 St-Pierre Eynac
 Gite
 06 82 52 40 46]]></desc>
    <type><![CDATA[hotel]]></type>
  </wpt>
  <trk>
    <name><![CDATA[ Alboussieres 27km_1]]></name>
    <desc><![CDATA[





]]></desc>
    <extensions>
      <line xmlns="http://www.topografix.com/GPX/gpx_style/0/2">
        <color>00ff1e</color>
        <width>4</width>
      </line>
    </extensions>
    <trkseg>
      <trkpt lat="44.98505" lon="4.74875">
        <ele>376.01</ele>
        <time>2024-05-11T08:31:18Z</time>
      </trkpt>
      <trkpt lat="44.985" lon="4.74875">
        <ele>376.01</ele>
        <time>2024-05-11T08:31:21Z</time>
        <extensions>
          <visugpx:TrkExtension xmlns:visugpx="https://www.visugpx.com/editgpx/">
            <visugpx:node>1</visugpx:node>
            </visugpx:TrkExtension>
        </extensions>
      </trkpt>
      <trkpt lat="44.98505" lon="4.74875">
        <ele>376.01</ele>
        <time>2024-05-11T08:31:18Z</time>
      </trkpt>
      <trkpt lat="44.98535" lon="4.74851">
        <ele>376.97</ele>
        <time>2024-05-11T08:30:57Z</time>
      </trkpt>
      <trkpt lat="44.98547" lon="4.74814">
        <ele>376.01</ele>
        <time>2024-05-11T08:30:39Z</time>
      </trkpt>
      <trkpt lat="44.98542" lon="4.74768">
        <ele>376.49</ele>
        <time>2024-05-11T08:30:19Z</time>
      </trkpt>
      <trkpt lat="44.98521" lon="4.7473">
        <ele>378.9</ele>
        <time>2024-05-11T08:29:59Z</time>
      </trkpt>
      <trkpt lat="44.98497" lon="4.74705">
        <ele>380.34</ele>
        <time>2024-05-11T08:29:42Z</time>
      </trkpt>
      <trkpt lat="44.98475" lon="4.7468">
        <ele>378.42</ele>
        <time>2024-05-11T08:29:25Z</time>
      </trkpt>
      <trkpt lat="44.98454" lon="4.74652">
        <ele>378.9</ele>
        <time>2024-05-11T08:29:07Z</time>
      </trkpt>
      <trkpt lat="44.9843" lon="4.74625">
        <ele>380.82</ele>
        <time>2024-05-11T08:28:48Z</time>
      </trkpt>
      <trkpt lat="44.98408" lon="4.74602">
        <ele>381.3</ele>
        <time>2024-05-11T08:28:30Z</time>
      </trkpt>
      <trkpt lat="44.98403" lon="4.74561">
        <ele>379.86</ele>
        <time>2024-05-11T08:28:10Z</time>
      </trkpt>
      <trkpt lat="44.98385" lon="4.74533">
        <ele>379.86</ele>
        <time>2024-05-11T08:27:55Z</time>
      </trkpt>
      <trkpt lat="44.98383" lon="4.74532">
        <ele>379.86</ele>
        <time>2024-05-11T08:27:54Z</time>
      </trkpt>
      <trkpt lat="44.9836" lon="4.74545">
        <ele>380.34</ele>
        <time>2024-05-11T08:27:37Z</time>
      </trkpt>
      <trkpt lat="44.98343" lon="4.74559">
        <ele>379.86</ele>
        <time>2024-05-11T08:27:24Z</time>
      </trkpt>
      <trkpt lat="44.98341" lon="4.74565">
        <ele>380.34</ele>
        <time>2024-05-11T08:27:18Z</time>
      </trkpt>
      <trkpt lat="44.98328" lon="4.74565">
        <ele>381.3</ele>
        <time>2024-05-11T08:27:04Z</time>
      </trkpt>
      <trkpt lat="44.98311" lon="4.7456">
        <ele>381.3</ele>
        <time>2024-05-11T08:26:51Z</time>
      </trkpt>
      <trkpt lat="44.98272" lon="4.74537">
        <ele>383.22</ele>
        <time>2024-05-11T08:26:27Z</time>
      </trkpt>
      <trkpt lat="44.98242" lon="4.74525">
        <ele>384.18</ele>
        <time>2024-05-11T08:26:08Z</time>
      </trkpt>
      <trkpt lat="44.98214" lon="4.74522">
        <ele>383.7</ele>
        <time>2024-05-11T08:25:51Z</time>
      </trkpt>
      <trkpt lat="44.98188" lon="4.74503">
        <ele>383.22</ele>
        <time>2024-05-11T08:25:34Z</time>
      </trkpt>
      <trkpt lat="44.98171" lon="4.74498">
        <ele>383.22</ele>
        <time>2024-05-11T08:25:22Z</time>
      </trkpt>
      <trkpt lat="44.98169" lon="4.74497">
        <ele>383.22</ele>
        <time>2024-05-11T08:25:21Z</time>
      </trkpt>
      <trkpt lat="44.98167" lon="4.74496">
        <ele>383.7</ele>
        <time>2024-05-11T08:25:20Z</time>
      </trkpt>
      <trkpt lat="44.98166" lon="4.74494">
        <ele>383.7</ele>
        <time>2024-05-11T08:25:19Z</time>
      </trkpt>
      <trkpt lat="44.98164" lon="4.7449">
        <ele>384.18</ele>
        <time>2024-05-11T08:25:18Z</time>
      </trkpt>
      <trkpt lat="44.98161" lon="4.74467">
        <ele>387.07</ele>
        <time>2024-05-11T08:25:08Z</time>
      </trkpt>
      <trkpt lat="44.98161" lon="4.74465">
        <ele>387.55</ele>
        <time>2024-05-11T08:25:07Z</time>
      </trkpt>
      <trkpt lat="44.98143" lon="4.7444">
        <ele>393.32</ele>
        <time>2024-05-11T08:24:48Z</time>
      </trkpt>
      <trkpt lat="44.9812" lon="4.74414">
        <ele>397.64</ele>
        <time>2024-05-11T08:24:29Z</time>
      </trkpt>
      <trkpt lat="44.98119" lon="4.74412">
        <ele>398.12</ele>
        <time>2024-05-11T08:24:28Z</time>
      </trkpt>
      <trkpt lat="44.98118" lon="4.74411">
        <ele>398.12</ele>
        <time>2024-05-11T08:24:27Z</time>
      </trkpt>
      <trkpt lat="44.98117" lon="4.7441">
        <ele>398.6</ele>
        <time>2024-05-11T08:24:26Z</time>
      </trkpt>
      <trkpt lat="44.98115" lon="4.7441">
        <ele>398.6</ele>
        <time>2024-05-11T08:24:25Z</time>
      </trkpt>
      <trkpt lat="44.98114" lon="4.7441">
        <ele>399.08</ele>
        <time>2024-05-11T08:24:24Z</time>
      </trkpt>
      <trkpt lat="44.98113" lon="4.74411">
        <ele>399.08</ele>
        <time>2024-05-11T08:24:23Z</time>
      </trkpt>
      <trkpt lat="44.98112" lon="4.74412">
        <ele>399.57</ele>
        <time>2024-05-11T08:24:22Z</time>
      </trkpt>
      <trkpt lat="44.98128" lon="4.74451">
        <ele>405.81</ele>
        <time>2024-05-11T08:24:04Z</time>
      </trkpt>
      <trkpt lat="44.98136" lon="4.74478">
        <ele>408.7</ele>
        <time>2024-05-11T08:23:49Z</time>
      </trkpt>
      <trkpt lat="44.98135" lon="4.74482">
        <ele>409.18</ele>
        <time>2024-05-11T08:23:47Z</time>
      </trkpt>
      <trkpt lat="44.98117" lon="4.74506">
        <ele>413.5</ele>
        <time>2024-05-11T08:23:30Z</time>
      </trkpt>
      <trkpt lat="44.98116" lon="4.74507">
        <ele>413.5</ele>
        <time>2024-05-11T08:23:29Z</time>
      </trkpt>
      <trkpt lat="44.98115" lon="4.74508">
        <ele>413.5</ele>
        <time>2024-05-11T08:23:28Z</time>
      </trkpt>
      <trkpt lat="44.98114" lon="4.74509">
        <ele>413.98</ele>
        <time>2024-05-11T08:23:27Z</time>
      </trkpt>
      <trkpt lat="44.98112" lon="4.74509">
        <ele>413.98</ele>
        <time>2024-05-11T08:23:26Z</time>
      </trkpt>
      <trkpt lat="44.98108" lon="4.74507">
        <ele>415.43</ele>
        <time>2024-05-11T08:23:21Z</time>
      </trkpt>
      <trkpt lat="44.98091" lon="4.74491">
        <ele>417.35</ele>
        <time>2024-05-11T08:23:04Z</time>
      </trkpt>
      <trkpt lat="44.98067" lon="4.7448">
        <ele>419.27</ele>
        <time>2024-05-11T08:22:47Z</time>
      </trkpt>
      <trkpt lat="44.98042" lon="4.74468">
        <ele>421.68</ele>
        <time>2024-05-11T08:22:29Z</time>
      </trkpt>
      <trkpt lat="44.98017" lon="4.74453">
        <ele>425.52</ele>
        <time>2024-05-11T08:22:12Z</time>
      </trkpt>
      <trkpt lat="44.97989" lon="4.74449">
        <ele>428.89</ele>
        <time>2024-05-11T08:21:53Z</time>
      </trkpt>
      <trkpt lat="44.97961" lon="4.74441">
        <ele>432.25</ele>
        <time>2024-05-11T08:21:34Z</time>
      </trkpt>
      <trkpt lat="44.97933" lon="4.74421">
        <ele>435.61</ele>
        <time>2024-05-11T08:21:13Z</time>
      </trkpt>
      <trkpt lat="44.97911" lon="4.74403">
        <ele>438.98</ele>
        <time>2024-05-11T08:20:55Z</time>
      </trkpt>
      <trkpt lat="44.97899" lon="4.74395">
        <ele>439.94</ele>
        <time>2024-05-11T08:20:42Z</time>
      </trkpt>
      <trkpt lat="44.97878" lon="4.74382">
        <ele>442.82</ele>
        <time>2024-05-11T08:20:25Z</time>
      </trkpt>
      <trkpt lat="44.97857" lon="4.74368">
        <ele>447.63</ele>
        <time>2024-05-11T08:20:07Z</time>
      </trkpt>
      <trkpt lat="44.97829" lon="4.74356">
        <ele>451</ele>
        <time>2024-05-11T08:19:47Z</time>
      </trkpt>
      <trkpt lat="44.97828" lon="4.74356">
        <ele>451</ele>
        <time>2024-05-11T08:19:46Z</time>
      </trkpt>
      <trkpt lat="44.97826" lon="4.74356">
        <ele>451</ele>
        <time>2024-05-11T08:19:45Z</time>
      </trkpt>
      <trkpt lat="44.97823" lon="4.74361">
        <ele>450.03</ele>
        <time>2024-05-11T08:19:41Z</time>
      </trkpt>
      <trkpt lat="44.97806" lon="4.74379">
        <ele>447.63</ele>
        <time>2024-05-11T08:19:26Z</time>
      </trkpt>
      <trkpt lat="44.97778" lon="4.74394">
        <ele>445.71</ele>
        <time>2024-05-11T08:19:08Z</time>
      </trkpt>
      <trkpt lat="44.97753" lon="4.74408">
        <ele>443.31</ele>
        <time>2024-05-11T08:18:51Z</time>
      </trkpt>
      <trkpt lat="44.97741" lon="4.74444">
        <ele>441.86</ele>
        <time>2024-05-11T08:18:34Z</time>
      </trkpt>
      <trkpt lat="44.97729" lon="4.74482">
        <ele>439.46</ele>
        <time>2024-05-11T08:18:17Z</time>
      </trkpt>
      <trkpt lat="44.97728" lon="4.74485">
        <ele>439.46</ele>
        <time>2024-05-11T08:18:16Z</time>
      </trkpt>
      <trkpt lat="44.97727" lon="4.74489">
        <ele>440.42</ele>
        <time>2024-05-11T08:18:14Z</time>
      </trkpt>
      <trkpt lat="44.97715" lon="4.74507">
        <ele>441.38</ele>
        <time>2024-05-11T08:17:58Z</time>
      </trkpt>
      <trkpt lat="44.97698" lon="4.74532">
        <ele>440.42</ele>
        <time>2024-05-11T08:17:42Z</time>
      </trkpt>
      <trkpt lat="44.97693" lon="4.74558">
        <ele>439.94</ele>
        <time>2024-05-11T08:17:27Z</time>
      </trkpt>
      <trkpt lat="44.97693" lon="4.74581">
        <ele>439.94</ele>
        <time>2024-05-11T08:17:15Z</time>
      </trkpt>
      <trkpt lat="44.97694" lon="4.74583">
        <ele>439.94</ele>
        <time>2024-05-11T08:17:14Z</time>
      </trkpt>
      <trkpt lat="44.97694" lon="4.74585">
        <ele>439.94</ele>
        <time>2024-05-11T08:17:13Z</time>
      </trkpt>
      <trkpt lat="44.97694" lon="4.74587">
        <ele>439.94</ele>
        <time>2024-05-11T08:17:12Z</time>
      </trkpt>
      <trkpt lat="44.97693" lon="4.74589">
        <ele>439.94</ele>
        <time>2024-05-11T08:17:11Z</time>
      </trkpt>
      <trkpt lat="44.97693" lon="4.74591">
        <ele>439.94</ele>
        <time>2024-05-11T08:17:10Z</time>
      </trkpt>
      <trkpt lat="44.9768" lon="4.74598">
        <ele>441.38</ele>
        <time>2024-05-11T08:17:00Z</time>
      </trkpt>
      <trkpt lat="44.97679" lon="4.74607">
        <ele>442.34</ele>
        <time>2024-05-11T08:16:55Z</time>
      </trkpt>
      <trkpt lat="44.97679" lon="4.74609">
        <ele>442.34</ele>
        <time>2024-05-11T08:16:54Z</time>
      </trkpt>
      <trkpt lat="44.97678" lon="4.74611">
        <ele>442.34</ele>
        <time>2024-05-11T08:16:53Z</time>
      </trkpt>
      <trkpt lat="44.97678" lon="4.74614">
        <ele>442.82</ele>
        <time>2024-05-11T08:16:52Z</time>
      </trkpt>
      <trkpt lat="44.97678" lon="4.74616">
        <ele>442.82</ele>
        <time>2024-05-11T08:16:51Z</time>
      </trkpt>
      <trkpt lat="44.97677" lon="4.74617">
        <ele>442.82</ele>
        <time>2024-05-11T08:16:50Z</time>
      </trkpt>
      <trkpt lat="44.97667" lon="4.74619">
        <ele>444.27</ele>
        <time>2024-05-11T08:16:42Z</time>
      </trkpt>
      <trkpt lat="44.97646" lon="4.74614">
        <ele>447.15</ele>
        <time>2024-05-11T08:16:26Z</time>
      </trkpt>
      <trkpt lat="44.97622" lon="4.74589">
        <ele>448.11</ele>
        <time>2024-05-11T08:16:08Z</time>
      </trkpt>
      <trkpt lat="44.97609" lon="4.74582">
        <ele>448.59</ele>
        <time>2024-05-11T08:15:56Z</time>
      </trkpt>
      <trkpt lat="44.97588" lon="4.74576">
        <ele>450.03</ele>
        <time>2024-05-11T08:15:40Z</time>
      </trkpt>
      <trkpt lat="44.97567" lon="4.74564">
        <ele>451</ele>
        <time>2024-05-11T08:15:25Z</time>
      </trkpt>
      <trkpt lat="44.97548" lon="4.74547">
        <ele>454.36</ele>
        <time>2024-05-11T08:15:09Z</time>
      </trkpt>
      <trkpt lat="44.9753" lon="4.74532">
        <ele>458.69</ele>
        <time>2024-05-11T08:14:53Z</time>
      </trkpt>
      <trkpt lat="44.97522" lon="4.74509">
        <ele>463.01</ele>
        <time>2024-05-11T08:14:37Z</time>
      </trkpt>
      <trkpt lat="44.97527" lon="4.74483">
        <ele>468.3</ele>
        <time>2024-05-11T08:14:21Z</time>
      </trkpt>
      <trkpt lat="44.97531" lon="4.74462">
        <ele>471.18</ele>
        <time>2024-05-11T08:14:07Z</time>
      </trkpt>
      <trkpt lat="44.97527" lon="4.7443">
        <ele>472.63</ele>
        <time>2024-05-11T08:13:51Z</time>
      </trkpt>
      <trkpt lat="44.97544" lon="4.744">
        <ele>475.99</ele>
        <time>2024-05-11T08:13:35Z</time>
      </trkpt>
      <trkpt lat="44.97553" lon="4.74387">
        <ele>479.84</ele>
        <time>2024-05-11T08:13:24Z</time>
      </trkpt>
      <trkpt lat="44.97558" lon="4.7438">
        <ele>482.24</ele>
        <time>2024-05-11T08:13:19Z</time>
      </trkpt>
      <trkpt lat="44.9757" lon="4.74364">
        <ele>487.05</ele>
        <time>2024-05-11T08:13:05Z</time>
      </trkpt>
      <trkpt lat="44.97572" lon="4.74336">
        <ele>489.93</ele>
        <time>2024-05-11T08:12:51Z</time>
      </trkpt>
      <trkpt lat="44.97572" lon="4.74334">
        <ele>489.93</ele>
        <time>2024-05-11T08:12:50Z</time>
      </trkpt>
      <trkpt lat="44.97571" lon="4.74332">
        <ele>490.41</ele>
        <time>2024-05-11T08:12:49Z</time>
      </trkpt>
      <trkpt lat="44.97569" lon="4.74329">
        <ele>490.41</ele>
        <time>2024-05-11T08:12:47Z</time>
      </trkpt>
      <trkpt lat="44.97553" lon="4.74298">
        <ele>492.33</ele>
        <time>2024-05-11T08:12:30Z</time>
      </trkpt>
      <trkpt lat="44.97531" lon="4.74285">
        <ele>492.81</ele>
        <time>2024-05-11T08:12:15Z</time>
      </trkpt>
      <trkpt lat="44.97508" lon="4.74275">
        <ele>496.66</ele>
        <time>2024-05-11T08:11:57Z</time>
      </trkpt>
      <trkpt lat="44.97493" lon="4.74267">
        <ele>500.98</ele>
        <time>2024-05-11T08:11:41Z</time>
      </trkpt>
      <trkpt lat="44.97475" lon="4.74259">
        <ele>503.87</ele>
        <time>2024-05-11T08:11:26Z</time>
      </trkpt>
      <trkpt lat="44.9746" lon="4.74251">
        <ele>504.83</ele>
        <time>2024-05-11T08:11:12Z</time>
      </trkpt>
      <trkpt lat="44.97457" lon="4.74248">
        <ele>505.79</ele>
        <time>2024-05-11T08:10:34Z</time>
      </trkpt>
      <trkpt lat="44.97455" lon="4.74246">
        <ele>507.23</ele>
        <time>2024-05-11T08:10:16Z</time>
      </trkpt>
      <trkpt lat="44.9745" lon="4.74243">
        <ele>507.71</ele>
        <time>2024-05-11T08:09:58Z</time>
      </trkpt>
      <trkpt lat="44.97426" lon="4.74224">
        <ele>508.19</ele>
        <time>2024-05-11T08:09:38Z</time>
      </trkpt>
      <trkpt lat="44.97394" lon="4.74201">
        <ele>505.79</ele>
        <time>2024-05-11T08:09:16Z</time>
      </trkpt>
      <trkpt lat="44.97364" lon="4.7418">
        <ele>502.43</ele>
        <time>2024-05-11T08:08:55Z</time>
      </trkpt>
      <trkpt lat="44.97338" lon="4.74159">
        <ele>500.02</ele>
        <time>2024-05-11T08:08:37Z</time>
      </trkpt>
      <trkpt lat="44.97337" lon="4.74157">
        <ele>499.54</ele>
        <time>2024-05-11T08:08:36Z</time>
      </trkpt>
      <trkpt lat="44.97336" lon="4.74156">
        <ele>499.06</ele>
        <time>2024-05-11T08:08:35Z</time>
      </trkpt>
      <trkpt lat="44.97334" lon="4.74155">
        <ele>498.58</ele>
        <time>2024-05-11T08:08:34Z</time>
      </trkpt>
      <trkpt lat="44.97332" lon="4.74154">
        <ele>498.58</ele>
        <time>2024-05-11T08:08:33Z</time>
      </trkpt>
      <trkpt lat="44.97328" lon="4.74145">
        <ele>498.1</ele>
        <time>2024-05-11T08:08:28Z</time>
      </trkpt>
      <trkpt lat="44.97313" lon="4.74107">
        <ele>498.1</ele>
        <time>2024-05-11T08:08:09Z</time>
      </trkpt>
      <trkpt lat="44.973" lon="4.74079">
        <ele>496.66</ele>
        <time>2024-05-11T08:07:55Z</time>
      </trkpt>
      <trkpt lat="44.9732" lon="4.74061">
        <ele>494.26</ele>
        <time>2024-05-11T08:07:40Z</time>
      </trkpt>
      <trkpt lat="44.97342" lon="4.74044">
        <ele>494.26</ele>
        <time>2024-05-11T08:07:24Z</time>
      </trkpt>
      <trkpt lat="44.97359" lon="4.74002">
        <ele>494.74</ele>
        <time>2024-05-11T08:07:04Z</time>
      </trkpt>
      <trkpt lat="44.97361" lon="4.73959">
        <ele>494.26</ele>
        <time>2024-05-11T08:06:44Z</time>
      </trkpt>
      <trkpt lat="44.97361" lon="4.73917">
        <ele>488.49</ele>
        <time>2024-05-11T08:06:24Z</time>
      </trkpt>
      <trkpt lat="44.9736" lon="4.73915">
        <ele>488.01</ele>
        <time>2024-05-11T08:06:23Z</time>
      </trkpt>
      <trkpt lat="44.97362" lon="4.73909">
        <ele>487.53</ele>
        <time>2024-05-11T08:06:20Z</time>
      </trkpt>
      <trkpt lat="44.97373" lon="4.73874">
        <ele>485.6</ele>
        <time>2024-05-11T08:06:02Z</time>
      </trkpt>
      <trkpt lat="44.97383" lon="4.73832">
        <ele>483.68</ele>
        <time>2024-05-11T08:05:43Z</time>
      </trkpt>
      <trkpt lat="44.97383" lon="4.73799">
        <ele>479.84</ele>
        <time>2024-05-11T08:05:27Z</time>
      </trkpt>
      <trkpt lat="44.97382" lon="4.73785">
        <ele>477.91</ele>
        <time>2024-05-11T08:05:19Z</time>
      </trkpt>
      <trkpt lat="44.97382" lon="4.73776">
        <ele>477.43</ele>
        <time>2024-05-11T08:05:12Z</time>
      </trkpt>
      <trkpt lat="44.97387" lon="4.73748">
        <ele>477.43</ele>
        <time>2024-05-11T08:04:58Z</time>
      </trkpt>
      <trkpt lat="44.97386" lon="4.73748">
        <ele>477.43</ele>
        <time>2024-05-11T08:04:57Z</time>
      </trkpt>
      <trkpt lat="44.97386" lon="4.73736">
        <ele>478.39</ele>
        <time>2024-05-11T08:04:43Z</time>
      </trkpt>
      <trkpt lat="44.97387" lon="4.73697">
        <ele>475.51</ele>
        <time>2024-05-11T08:04:25Z</time>
      </trkpt>
      <trkpt lat="44.97377" lon="4.73665">
        <ele>474.55</ele>
        <time>2024-05-11T08:04:09Z</time>
      </trkpt>
      <trkpt lat="44.97361" lon="4.73638">
        <ele>474.55</ele>
        <time>2024-05-11T08:03:54Z</time>
      </trkpt>
      <trkpt lat="44.97346" lon="4.73612">
        <ele>476.95</ele>
        <time>2024-05-11T08:03:37Z</time>
      </trkpt>
      <trkpt lat="44.97338" lon="4.73601">
        <ele>479.84</ele>
        <time>2024-05-11T08:03:28Z</time>
      </trkpt>
      <trkpt lat="44.97318" lon="4.73585">
        <ele>482.72</ele>
        <time>2024-05-11T08:03:11Z</time>
      </trkpt>
      <trkpt lat="44.97313" lon="4.73581">
        <ele>482.24</ele>
        <time>2024-05-11T08:03:07Z</time>
      </trkpt>
      <trkpt lat="44.97293" lon="4.73563">
        <ele>484.64</ele>
        <time>2024-05-11T08:02:52Z</time>
      </trkpt>
      <trkpt lat="44.97283" lon="4.73531">
        <ele>484.16</ele>
        <time>2024-05-11T08:02:36Z</time>
      </trkpt>
      <trkpt lat="44.9728" lon="4.73501">
        <ele>478.87</ele>
        <time>2024-05-11T08:02:21Z</time>
      </trkpt>
      <trkpt lat="44.97281" lon="4.73481">
        <ele>475.51</ele>
        <time>2024-05-11T08:02:11Z</time>
      </trkpt>
      <trkpt lat="44.97281" lon="4.73441">
        <ele>471.18</ele>
        <time>2024-05-11T08:01:52Z</time>
      </trkpt>
      <trkpt lat="44.97281" lon="4.73404">
        <ele>465.42</ele>
        <time>2024-05-11T08:01:33Z</time>
      </trkpt>
      <trkpt lat="44.97266" lon="4.73373">
        <ele>459.17</ele>
        <time>2024-05-11T08:01:16Z</time>
      </trkpt>
      <trkpt lat="44.9726" lon="4.73362">
        <ele>458.21</ele>
        <time>2024-05-11T08:01:10Z</time>
      </trkpt>
      <trkpt lat="44.97234" lon="4.73347">
        <ele>452.44</ele>
        <time>2024-05-11T08:00:54Z</time>
      </trkpt>
      <trkpt lat="44.97213" lon="4.73341">
        <ele>450.52</ele>
        <time>2024-05-11T08:00:41Z</time>
      </trkpt>
      <trkpt lat="44.9719" lon="4.73325">
        <ele>443.31</ele>
        <time>2024-05-11T08:00:24Z</time>
      </trkpt>
      <trkpt lat="44.97184" lon="4.73321">
        <ele>440.42</ele>
        <time>2024-05-11T08:00:20Z</time>
      </trkpt>
      <trkpt lat="44.97172" lon="4.73312">
        <ele>440.9</ele>
        <time>2024-05-11T08:00:11Z</time>
      </trkpt>
      <trkpt lat="44.97143" lon="4.7328">
        <ele>444.27</ele>
        <time>2024-05-11T07:59:52Z</time>
      </trkpt>
      <trkpt lat="44.97142" lon="4.73279">
        <ele>444.27</ele>
        <time>2024-05-11T07:59:51Z</time>
      </trkpt>
      <trkpt lat="44.97118" lon="4.73285">
        <ele>450.03</ele>
        <time>2024-05-11T07:59:37Z</time>
      </trkpt>
      <trkpt lat="44.97096" lon="4.73291">
        <ele>455.32</ele>
        <time>2024-05-11T07:59:20Z</time>
      </trkpt>
      <trkpt lat="44.97086" lon="4.73298">
        <ele>459.17</ele>
        <time>2024-05-11T07:59:04Z</time>
      </trkpt>
      <trkpt lat="44.97068" lon="4.73308">
        <ele>463.01</ele>
        <time>2024-05-11T07:58:49Z</time>
      </trkpt>
      <trkpt lat="44.97047" lon="4.73318">
        <ele>467.34</ele>
        <time>2024-05-11T07:58:31Z</time>
      </trkpt>
      <trkpt lat="44.97031" lon="4.73334">
        <ele>470.7</ele>
        <time>2024-05-11T07:58:11Z</time>
      </trkpt>
      <trkpt lat="44.97011" lon="4.73343">
        <ele>474.55</ele>
        <time>2024-05-11T07:57:54Z</time>
      </trkpt>
      <trkpt lat="44.96991" lon="4.73355">
        <ele>476.47</ele>
        <time>2024-05-11T07:57:39Z</time>
      </trkpt>
      <trkpt lat="44.96967" lon="4.73375">
        <ele>480.8</ele>
        <time>2024-05-11T07:57:21Z</time>
      </trkpt>
      <trkpt lat="44.96946" lon="4.73382">
        <ele>483.68</ele>
        <time>2024-05-11T07:57:06Z</time>
      </trkpt>
      <trkpt lat="44.96926" lon="4.7339">
        <ele>486.56</ele>
        <time>2024-05-11T07:56:52Z</time>
      </trkpt>
      <trkpt lat="44.96906" lon="4.73401">
        <ele>483.68</ele>
        <time>2024-05-11T07:56:39Z</time>
      </trkpt>
      <trkpt lat="44.96899" lon="4.73407">
        <ele>480.8</ele>
        <time>2024-05-11T07:56:35Z</time>
      </trkpt>
      <trkpt lat="44.9689" lon="4.73426">
        <ele>480.32</ele>
        <time>2024-05-11T07:56:25Z</time>
      </trkpt>
      <trkpt lat="44.96866" lon="4.73438">
        <ele>483.2</ele>
        <time>2024-05-11T07:56:09Z</time>
      </trkpt>
      <trkpt lat="44.96838" lon="4.73453">
        <ele>489.45</ele>
        <time>2024-05-11T07:55:49Z</time>
      </trkpt>
      <trkpt lat="44.96837" lon="4.73454">
        <ele>489.45</ele>
        <time>2024-05-11T07:55:48Z</time>
      </trkpt>
      <trkpt lat="44.96815" lon="4.73428">
        <ele>490.89</ele>
        <time>2024-05-11T07:55:29Z</time>
      </trkpt>
      <trkpt lat="44.96795" lon="4.73412">
        <ele>493.29</ele>
        <time>2024-05-11T07:55:14Z</time>
      </trkpt>
      <trkpt lat="44.96784" lon="4.7341">
        <ele>494.74</ele>
        <time>2024-05-11T07:55:07Z</time>
      </trkpt>
      <trkpt lat="44.96771" lon="4.73408">
        <ele>495.7</ele>
        <time>2024-05-11T07:54:53Z</time>
      </trkpt>
      <trkpt lat="44.96764" lon="4.73406">
        <ele>496.18</ele>
        <time>2024-05-11T07:54:47Z</time>
      </trkpt>
      <trkpt lat="44.96762" lon="4.73406">
        <ele>496.18</ele>
        <time>2024-05-11T07:54:46Z</time>
      </trkpt>
      <trkpt lat="44.96734" lon="4.73407">
        <ele>496.18</ele>
        <time>2024-05-11T07:54:27Z</time>
      </trkpt>
      <trkpt lat="44.96729" lon="4.73405">
        <ele>496.18</ele>
        <time>2024-05-11T07:54:22Z</time>
      </trkpt>
      <trkpt lat="44.96731" lon="4.73396">
        <ele>496.66</ele>
        <time>2024-05-11T07:54:17Z</time>
      </trkpt>
      <trkpt lat="44.96732" lon="4.73394">
        <ele>496.66</ele>
        <time>2024-05-11T07:54:16Z</time>
      </trkpt>
      <trkpt lat="44.96733" lon="4.73393">
        <ele>497.14</ele>
        <time>2024-05-11T07:54:15Z</time>
      </trkpt>
      <trkpt lat="44.96734" lon="4.73392">
        <ele>497.14</ele>
        <time>2024-05-11T07:54:14Z</time>
      </trkpt>
      <trkpt lat="44.96735" lon="4.7339">
        <ele>497.14</ele>
        <time>2024-05-11T07:54:13Z</time>
      </trkpt>
      <trkpt lat="44.96737" lon="4.73389">
        <ele>496.66</ele>
        <time>2024-05-11T07:54:12Z</time>
      </trkpt>
      <trkpt lat="44.96738" lon="4.73388">
        <ele>496.66</ele>
        <time>2024-05-11T07:54:11Z</time>
      </trkpt>
      <trkpt lat="44.9674" lon="4.73389">
        <ele>496.66</ele>
        <time>2024-05-11T07:54:07Z</time>
      </trkpt>
      <trkpt lat="44.96728" lon="4.73399">
        <ele>497.62</ele>
        <time>2024-05-11T07:53:50Z</time>
      </trkpt>
      <trkpt lat="44.96728" lon="4.734">
        <ele>497.62</ele>
        <time>2024-05-11T07:53:49Z</time>
      </trkpt>
      <trkpt lat="44.96727" lon="4.73402">
        <ele>497.62</ele>
        <time>2024-05-11T07:53:48Z</time>
      </trkpt>
      <trkpt lat="44.96726" lon="4.73403">
        <ele>497.62</ele>
        <time>2024-05-11T07:53:47Z</time>
      </trkpt>
      <trkpt lat="44.96725" lon="4.73404">
        <ele>497.62</ele>
        <time>2024-05-11T07:53:46Z</time>
      </trkpt>
      <trkpt lat="44.96721" lon="4.73406">
        <ele>497.62</ele>
        <time>2024-05-11T07:53:37Z</time>
      </trkpt>
      <trkpt lat="44.96702" lon="4.73405">
        <ele>497.14</ele>
        <time>2024-05-11T07:53:20Z</time>
      </trkpt>
      <trkpt lat="44.96698" lon="4.73406">
        <ele>497.14</ele>
        <time>2024-05-11T07:53:00Z</time>
      </trkpt>
      <trkpt lat="44.96696" lon="4.73406">
        <ele>496.66</ele>
        <time>2024-05-11T07:52:43Z</time>
      </trkpt>
      <trkpt lat="44.96698" lon="4.73407">
        <ele>499.06</ele>
        <time>2024-05-11T07:52:20Z</time>
      </trkpt>
      <trkpt lat="44.96698" lon="4.7341">
        <ele>498.1</ele>
        <time>2024-05-11T07:51:53Z</time>
      </trkpt>
      <trkpt lat="44.96699" lon="4.73413">
        <ele>498.1</ele>
        <time>2024-05-11T07:51:33Z</time>
      </trkpt>
      <trkpt lat="44.96699" lon="4.73416">
        <ele>499.54</ele>
        <time>2024-05-11T07:51:10Z</time>
      </trkpt>
      <trkpt lat="44.96697" lon="4.73414">
        <ele>497.14</ele>
        <time>2024-05-11T07:50:47Z</time>
      </trkpt>
      <trkpt lat="44.96698" lon="4.73414">
        <ele>498.1</ele>
        <time>2024-05-11T07:50:23Z</time>
      </trkpt>
      <trkpt lat="44.96698" lon="4.73408">
        <ele>498.58</ele>
        <time>2024-05-11T07:50:00Z</time>
      </trkpt>
      <trkpt lat="44.96701" lon="4.7341">
        <ele>498.1</ele>
        <time>2024-05-11T07:49:39Z</time>
      </trkpt>
      <trkpt lat="44.96701" lon="4.73413">
        <ele>498.58</ele>
        <time>2024-05-11T07:49:21Z</time>
      </trkpt>
      <trkpt lat="44.96703" lon="4.73414">
        <ele>499.06</ele>
        <time>2024-05-11T07:49:02Z</time>
      </trkpt>
      <trkpt lat="44.96702" lon="4.73411">
        <ele>497.14</ele>
        <time>2024-05-11T07:48:48Z</time>
      </trkpt>
      <trkpt lat="44.96699" lon="4.73415">
        <ele>494.74</ele>
        <time>2024-05-11T07:48:32Z</time>
      </trkpt>
      <trkpt lat="44.96703" lon="4.73414">
        <ele>494.74</ele>
        <time>2024-05-11T07:48:06Z</time>
      </trkpt>
      <trkpt lat="44.96701" lon="4.73413">
        <ele>494.74</ele>
        <time>2024-05-11T07:47:48Z</time>
      </trkpt>
      <trkpt lat="44.96702" lon="4.73412">
        <ele>493.77</ele>
        <time>2024-05-11T07:47:26Z</time>
      </trkpt>
      <trkpt lat="44.96701" lon="4.73414">
        <ele>493.77</ele>
        <time>2024-05-11T07:47:00Z</time>
      </trkpt>
      <trkpt lat="44.967" lon="4.7341">
        <ele>494.74</ele>
        <time>2024-05-11T07:46:46Z</time>
      </trkpt>
      <trkpt lat="44.967" lon="4.73408">
        <ele>494.74</ele>
        <time>2024-05-11T07:46:45Z</time>
      </trkpt>
      <trkpt lat="44.96687" lon="4.7341">
        <ele>495.7</ele>
        <time>2024-05-11T07:46:33Z</time>
      </trkpt>
      <trkpt lat="44.96661" lon="4.73403">
        <ele>495.7</ele>
        <time>2024-05-11T07:46:14Z</time>
      </trkpt>
      <trkpt lat="44.96638" lon="4.73376">
        <ele>496.66</ele>
        <time>2024-05-11T07:45:56Z</time>
      </trkpt>
      <trkpt lat="44.96637" lon="4.73374">
        <ele>497.14</ele>
        <time>2024-05-11T07:45:55Z</time>
      </trkpt>
      <trkpt lat="44.96636" lon="4.73372">
        <ele>497.14</ele>
        <time>2024-05-11T07:45:54Z</time>
      </trkpt>
      <trkpt lat="44.96629" lon="4.73367">
        <ele>498.1</ele>
        <time>2024-05-11T07:45:48Z</time>
      </trkpt>
      <trkpt lat="44.96601" lon="4.73357">
        <ele>500.5</ele>
        <time>2024-05-11T07:45:30Z</time>
      </trkpt>
      <trkpt lat="44.96579" lon="4.7335">
        <ele>500.5</ele>
        <time>2024-05-11T07:45:18Z</time>
      </trkpt>
      <trkpt lat="44.9656" lon="4.7334">
        <ele>499.54</ele>
        <time>2024-05-11T07:45:03Z</time>
      </trkpt>
      <trkpt lat="44.96559" lon="4.73339">
        <ele>499.54</ele>
        <time>2024-05-11T07:45:02Z</time>
      </trkpt>
      <trkpt lat="44.96557" lon="4.73339">
        <ele>499.54</ele>
        <time>2024-05-11T07:45:01Z</time>
      </trkpt>
      <trkpt lat="44.96556" lon="4.73338">
        <ele>499.54</ele>
        <time>2024-05-11T07:45:00Z</time>
      </trkpt>
      <trkpt lat="44.96555" lon="4.73337">
        <ele>499.06</ele>
        <time>2024-05-11T07:44:59Z</time>
      </trkpt>
      <trkpt lat="44.96554" lon="4.73336">
        <ele>499.54</ele>
        <time>2024-05-11T07:44:58Z</time>
      </trkpt>
      <trkpt lat="44.96552" lon="4.73336">
        <ele>499.06</ele>
        <time>2024-05-11T07:44:57Z</time>
      </trkpt>
      <trkpt lat="44.96545" lon="4.7334">
        <ele>498.58</ele>
        <time>2024-05-11T07:44:53Z</time>
      </trkpt>
      <trkpt lat="44.96544" lon="4.7334">
        <ele>498.58</ele>
        <time>2024-05-11T07:44:52Z</time>
      </trkpt>
      <trkpt lat="44.96538" lon="4.7334">
        <ele>496.66</ele>
        <time>2024-05-11T07:44:46Z</time>
      </trkpt>
      <trkpt lat="44.96524" lon="4.73324">
        <ele>491.37</ele>
        <time>2024-05-11T07:44:35Z</time>
      </trkpt>
      <trkpt lat="44.96508" lon="4.73312">
        <ele>489.45</ele>
        <time>2024-05-11T07:44:23Z</time>
      </trkpt>
      <trkpt lat="44.96493" lon="4.73294">
        <ele>488.01</ele>
        <time>2024-05-11T07:44:08Z</time>
      </trkpt>
      <trkpt lat="44.96492" lon="4.73293">
        <ele>488.01</ele>
        <time>2024-05-11T07:44:07Z</time>
      </trkpt>
      <trkpt lat="44.96491" lon="4.73291">
        <ele>487.53</ele>
        <time>2024-05-11T07:44:06Z</time>
      </trkpt>
      <trkpt lat="44.9649" lon="4.7329">
        <ele>487.53</ele>
        <time>2024-05-11T07:44:05Z</time>
      </trkpt>
      <trkpt lat="44.96491" lon="4.73265">
        <ele>488.01</ele>
        <time>2024-05-11T07:43:52Z</time>
      </trkpt>
      <trkpt lat="44.96491" lon="4.73263">
        <ele>488.49</ele>
        <time>2024-05-11T07:43:51Z</time>
      </trkpt>
      <trkpt lat="44.9649" lon="4.73261">
        <ele>488.49</ele>
        <time>2024-05-11T07:43:50Z</time>
      </trkpt>
      <trkpt lat="44.96491" lon="4.73259">
        <ele>488.49</ele>
        <time>2024-05-11T07:43:49Z</time>
      </trkpt>
      <trkpt lat="44.96491" lon="4.73257">
        <ele>488.01</ele>
        <time>2024-05-11T07:43:48Z</time>
      </trkpt>
      <trkpt lat="44.96494" lon="4.73249">
        <ele>488.01</ele>
        <time>2024-05-11T07:43:43Z</time>
      </trkpt>
      <trkpt lat="44.96506" lon="4.73224">
        <ele>488.97</ele>
        <time>2024-05-11T07:43:30Z</time>
      </trkpt>
      <trkpt lat="44.96507" lon="4.73222">
        <ele>488.97</ele>
        <time>2024-05-11T07:43:29Z</time>
      </trkpt>
      <trkpt lat="44.96508" lon="4.7322">
        <ele>488.97</ele>
        <time>2024-05-11T07:43:28Z</time>
      </trkpt>
      <trkpt lat="44.96509" lon="4.73218">
        <ele>489.45</ele>
        <time>2024-05-11T07:43:27Z</time>
      </trkpt>
      <trkpt lat="44.96509" lon="4.73217">
        <ele>489.45</ele>
        <time>2024-05-11T07:43:26Z</time>
      </trkpt>
      <trkpt lat="44.9651" lon="4.73215">
        <ele>489.93</ele>
        <time>2024-05-11T07:43:22Z</time>
      </trkpt>
      <trkpt lat="44.96517" lon="4.73205">
        <ele>490.89</ele>
        <time>2024-05-11T07:43:08Z</time>
      </trkpt>
      <trkpt lat="44.96528" lon="4.73172">
        <ele>491.85</ele>
        <time>2024-05-11T07:42:51Z</time>
      </trkpt>
      <trkpt lat="44.96528" lon="4.73135">
        <ele>491.37</ele>
        <time>2024-05-11T07:42:34Z</time>
      </trkpt>
      <trkpt lat="44.96515" lon="4.73104">
        <ele>490.89</ele>
        <time>2024-05-11T07:42:16Z</time>
      </trkpt>
      <trkpt lat="44.9649" lon="4.73082">
        <ele>488.49</ele>
        <time>2024-05-11T07:41:58Z</time>
      </trkpt>
      <trkpt lat="44.96489" lon="4.73081">
        <ele>488.49</ele>
        <time>2024-05-11T07:41:57Z</time>
      </trkpt>
      <trkpt lat="44.96488" lon="4.73079">
        <ele>488.01</ele>
        <time>2024-05-11T07:41:56Z</time>
      </trkpt>
      <trkpt lat="44.96487" lon="4.73078">
        <ele>488.01</ele>
        <time>2024-05-11T07:41:55Z</time>
      </trkpt>
      <trkpt lat="44.96486" lon="4.73076">
        <ele>487.53</ele>
        <time>2024-05-11T07:41:54Z</time>
      </trkpt>
      <trkpt lat="44.96485" lon="4.73074">
        <ele>487.05</ele>
        <time>2024-05-11T07:41:53Z</time>
      </trkpt>
      <trkpt lat="44.96485" lon="4.73071">
        <ele>486.08</ele>
        <time>2024-05-11T07:41:52Z</time>
      </trkpt>
      <trkpt lat="44.96484" lon="4.73068">
        <ele>484.64</ele>
        <time>2024-05-11T07:41:51Z</time>
      </trkpt>
      <trkpt lat="44.96484" lon="4.73065">
        <ele>484.16</ele>
        <time>2024-05-11T07:41:50Z</time>
      </trkpt>
      <trkpt lat="44.96497" lon="4.73043">
        <ele>478.87</ele>
        <time>2024-05-11T07:41:41Z</time>
      </trkpt>
      <trkpt lat="44.96516" lon="4.73035">
        <ele>479.35</ele>
        <time>2024-05-11T07:41:25Z</time>
      </trkpt>
      <trkpt lat="44.96545" lon="4.73027">
        <ele>486.08</ele>
        <time>2024-05-11T07:41:06Z</time>
      </trkpt>
      <trkpt lat="44.96576" lon="4.73013">
        <ele>490.89</ele>
        <time>2024-05-11T07:40:46Z</time>
      </trkpt>
      <trkpt lat="44.96602" lon="4.72991">
        <ele>493.29</ele>
        <time>2024-05-11T07:40:29Z</time>
      </trkpt>
      <trkpt lat="44.96612" lon="4.72977">
        <ele>491.37</ele>
        <time>2024-05-11T07:40:20Z</time>
      </trkpt>
      <trkpt lat="44.96634" lon="4.72968">
        <ele>496.66</ele>
        <time>2024-05-11T07:40:04Z</time>
      </trkpt>
      <trkpt lat="44.96656" lon="4.7297">
        <ele>502.91</ele>
        <time>2024-05-11T07:39:48Z</time>
      </trkpt>
      <trkpt lat="44.96658" lon="4.7297">
        <ele>503.39</ele>
        <time>2024-05-11T07:39:47Z</time>
      </trkpt>
      <trkpt lat="44.9666" lon="4.72969">
        <ele>504.35</ele>
        <time>2024-05-11T07:39:46Z</time>
      </trkpt>
      <trkpt lat="44.96663" lon="4.72968">
        <ele>504.35</ele>
        <time>2024-05-11T07:39:45Z</time>
      </trkpt>
      <trkpt lat="44.96691" lon="4.72959">
        <ele>508.67</ele>
        <time>2024-05-11T07:39:29Z</time>
      </trkpt>
      <trkpt lat="44.96716" lon="4.72941">
        <ele>511.56</ele>
        <time>2024-05-11T07:39:13Z</time>
      </trkpt>
      <trkpt lat="44.96717" lon="4.7294">
        <ele>512.04</ele>
        <time>2024-05-11T07:39:12Z</time>
      </trkpt>
      <trkpt lat="44.96725" lon="4.72917">
        <ele>515.88</ele>
        <time>2024-05-11T07:38:56Z</time>
      </trkpt>
      <trkpt lat="44.96732" lon="4.72874">
        <ele>520.69</ele>
        <time>2024-05-11T07:38:34Z</time>
      </trkpt>
      <trkpt lat="44.96728" lon="4.72844">
        <ele>522.61</ele>
        <time>2024-05-11T07:38:18Z</time>
      </trkpt>
      <trkpt lat="44.96725" lon="4.72809">
        <ele>525.5</ele>
        <time>2024-05-11T07:38:03Z</time>
      </trkpt>
      <trkpt lat="44.96734" lon="4.72774">
        <ele>527.9</ele>
        <time>2024-05-11T07:37:47Z</time>
      </trkpt>
      <trkpt lat="44.96735" lon="4.72771">
        <ele>528.38</ele>
        <time>2024-05-11T07:37:46Z</time>
      </trkpt>
      <trkpt lat="44.96731" lon="4.72751">
        <ele>527.42</ele>
        <time>2024-05-11T07:37:37Z</time>
      </trkpt>
      <trkpt lat="44.96721" lon="4.72746">
        <ele>527.42</ele>
        <time>2024-05-11T07:37:30Z</time>
      </trkpt>
      <trkpt lat="44.96715" lon="4.72746">
        <ele>526.94</ele>
        <time>2024-05-11T07:37:26Z</time>
      </trkpt>
      <trkpt lat="44.96709" lon="4.72749">
        <ele>525.02</ele>
        <time>2024-05-11T07:37:21Z</time>
      </trkpt>
      <trkpt lat="44.96711" lon="4.72739">
        <ele>521.17</ele>
        <time>2024-05-11T07:37:10Z</time>
      </trkpt>
      <trkpt lat="44.96715" lon="4.72736">
        <ele>520.21</ele>
        <time>2024-05-11T07:37:06Z</time>
      </trkpt>
      <trkpt lat="44.96712" lon="4.72722">
        <ele>519.25</ele>
        <time>2024-05-11T07:36:58Z</time>
      </trkpt>
      <trkpt lat="44.96707" lon="4.72708">
        <ele>519.25</ele>
        <time>2024-05-11T07:36:50Z</time>
      </trkpt>
      <trkpt lat="44.96692" lon="4.72683">
        <ele>522.13</ele>
        <time>2024-05-11T07:36:33Z</time>
      </trkpt>
      <trkpt lat="44.96671" lon="4.72654">
        <ele>527.9</ele>
        <time>2024-05-11T07:36:15Z</time>
      </trkpt>
      <trkpt lat="44.96654" lon="4.7263">
        <ele>531.75</ele>
        <time>2024-05-11T07:36:00Z</time>
      </trkpt>
      <trkpt lat="44.96644" lon="4.72612">
        <ele>536.55</ele>
        <time>2024-05-11T07:35:44Z</time>
      </trkpt>
      <trkpt lat="44.96632" lon="4.72595">
        <ele>542.32</ele>
        <time>2024-05-11T07:35:29Z</time>
      </trkpt>
      <trkpt lat="44.96613" lon="4.72585">
        <ele>547.13</ele>
        <time>2024-05-11T07:35:13Z</time>
      </trkpt>
      <trkpt lat="44.96604" lon="4.72589">
        <ele>547.61</ele>
        <time>2024-05-11T07:35:04Z</time>
      </trkpt>
      <trkpt lat="44.966" lon="4.72611">
        <ele>548.57</ele>
        <time>2024-05-11T07:34:51Z</time>
      </trkpt>
      <trkpt lat="44.96584" lon="4.72642">
        <ele>540.88</ele>
        <time>2024-05-11T07:34:33Z</time>
      </trkpt>
      <trkpt lat="44.96574" lon="4.72672">
        <ele>542.8</ele>
        <time>2024-05-11T07:34:17Z</time>
      </trkpt>
      <trkpt lat="44.96558" lon="4.72681">
        <ele>543.76</ele>
        <time>2024-05-11T07:34:07Z</time>
      </trkpt>
      <trkpt lat="44.96545" lon="4.72683">
        <ele>547.13</ele>
        <time>2024-05-11T07:33:58Z</time>
      </trkpt>
      <trkpt lat="44.96518" lon="4.7268">
        <ele>554.82</ele>
        <time>2024-05-11T07:33:37Z</time>
      </trkpt>
      <trkpt lat="44.96493" lon="4.72669">
        <ele>558.66</ele>
        <time>2024-05-11T07:33:19Z</time>
      </trkpt>
      <trkpt lat="44.96469" lon="4.72656">
        <ele>565.39</ele>
        <time>2024-05-11T07:33:00Z</time>
      </trkpt>
      <trkpt lat="44.96445" lon="4.72651">
        <ele>571.64</ele>
        <time>2024-05-11T07:32:42Z</time>
      </trkpt>
      <trkpt lat="44.96422" lon="4.72648">
        <ele>579.33</ele>
        <time>2024-05-11T07:32:24Z</time>
      </trkpt>
      <trkpt lat="44.96399" lon="4.72647">
        <ele>586.06</ele>
        <time>2024-05-11T07:32:05Z</time>
      </trkpt>
      <trkpt lat="44.96381" lon="4.72649">
        <ele>591.83</ele>
        <time>2024-05-11T07:31:48Z</time>
      </trkpt>
      <trkpt lat="44.96361" lon="4.72651">
        <ele>593.75</ele>
        <time>2024-05-11T07:31:31Z</time>
      </trkpt>
      <trkpt lat="44.9636" lon="4.72651">
        <ele>593.75</ele>
        <time>2024-05-11T07:31:30Z</time>
      </trkpt>
      <trkpt lat="44.96354" lon="4.72651">
        <ele>593.75</ele>
        <time>2024-05-11T07:31:25Z</time>
      </trkpt>
      <trkpt lat="44.96333" lon="4.7265">
        <ele>595.19</ele>
        <time>2024-05-11T07:31:11Z</time>
      </trkpt>
      <trkpt lat="44.96314" lon="4.72649">
        <ele>597.6</ele>
        <time>2024-05-11T07:30:57Z</time>
      </trkpt>
      <trkpt lat="44.96293" lon="4.72651">
        <ele>601.44</ele>
        <time>2024-05-11T07:30:42Z</time>
      </trkpt>
      <trkpt lat="44.96271" lon="4.72653">
        <ele>606.25</ele>
        <time>2024-05-11T07:30:25Z</time>
      </trkpt>
      <trkpt lat="44.96247" lon="4.72659">
        <ele>608.17</ele>
        <time>2024-05-11T07:30:07Z</time>
      </trkpt>
      <trkpt lat="44.96224" lon="4.72665">
        <ele>610.57</ele>
        <time>2024-05-11T07:29:51Z</time>
      </trkpt>
      <trkpt lat="44.96199" lon="4.72656">
        <ele>613.46</ele>
        <time>2024-05-11T07:29:33Z</time>
      </trkpt>
      <trkpt lat="44.96197" lon="4.72655">
        <ele>613.46</ele>
        <time>2024-05-11T07:29:32Z</time>
      </trkpt>
      <trkpt lat="44.96196" lon="4.72655">
        <ele>613.46</ele>
        <time>2024-05-11T07:29:31Z</time>
      </trkpt>
      <trkpt lat="44.96172" lon="4.72648">
        <ele>614.9</ele>
        <time>2024-05-11T07:29:15Z</time>
      </trkpt>
      <trkpt lat="44.96146" lon="4.72645">
        <ele>614.9</ele>
        <time>2024-05-11T07:28:58Z</time>
      </trkpt>
      <trkpt lat="44.9612" lon="4.72643">
        <ele>614.42</ele>
        <time>2024-05-11T07:28:41Z</time>
      </trkpt>
      <trkpt lat="44.96095" lon="4.72658">
        <ele>614.42</ele>
        <time>2024-05-11T07:28:25Z</time>
      </trkpt>
      <trkpt lat="44.96077" lon="4.72674">
        <ele>613.94</ele>
        <time>2024-05-11T07:28:10Z</time>
      </trkpt>
      <trkpt lat="44.96056" lon="4.72691">
        <ele>612.5</ele>
        <time>2024-05-11T07:27:55Z</time>
      </trkpt>
      <trkpt lat="44.9603" lon="4.7271">
        <ele>612.5</ele>
        <time>2024-05-11T07:27:37Z</time>
      </trkpt>
      <trkpt lat="44.96008" lon="4.72731">
        <ele>612.5</ele>
        <time>2024-05-11T07:27:22Z</time>
      </trkpt>
      <trkpt lat="44.95983" lon="4.7276">
        <ele>614.42</ele>
        <time>2024-05-11T07:27:01Z</time>
      </trkpt>
      <trkpt lat="44.95987" lon="4.72798">
        <ele>613.94</ele>
        <time>2024-05-11T07:26:43Z</time>
      </trkpt>
      <trkpt lat="44.95992" lon="4.72844">
        <ele>613.46</ele>
        <time>2024-05-11T07:26:23Z</time>
      </trkpt>
      <trkpt lat="44.95989" lon="4.72883">
        <ele>613.46</ele>
        <time>2024-05-11T07:26:06Z</time>
      </trkpt>
      <trkpt lat="44.95981" lon="4.72925">
        <ele>612.5</ele>
        <time>2024-05-11T07:25:46Z</time>
      </trkpt>
      <trkpt lat="44.95981" lon="4.72927">
        <ele>612.5</ele>
        <time>2024-05-11T07:25:45Z</time>
      </trkpt>
      <trkpt lat="44.95981" lon="4.72929">
        <ele>612.5</ele>
        <time>2024-05-11T07:25:44Z</time>
      </trkpt>
      <trkpt lat="44.95981" lon="4.72931">
        <ele>612.02</ele>
        <time>2024-05-11T07:25:43Z</time>
      </trkpt>
      <trkpt lat="44.95981" lon="4.72933">
        <ele>612.02</ele>
        <time>2024-05-11T07:25:42Z</time>
      </trkpt>
      <trkpt lat="44.95982" lon="4.72935">
        <ele>612.02</ele>
        <time>2024-05-11T07:25:41Z</time>
      </trkpt>
      <trkpt lat="44.95979" lon="4.72971">
        <ele>609.61</ele>
        <time>2024-05-11T07:25:24Z</time>
      </trkpt>
      <trkpt lat="44.95975" lon="4.7302">
        <ele>606.25</ele>
        <time>2024-05-11T07:25:00Z</time>
      </trkpt>
      <trkpt lat="44.95965" lon="4.73065">
        <ele>604.33</ele>
        <time>2024-05-11T07:24:38Z</time>
      </trkpt>
      <trkpt lat="44.9595" lon="4.7311">
        <ele>604.81</ele>
        <time>2024-05-11T07:24:15Z</time>
      </trkpt>
      <trkpt lat="44.95934" lon="4.73156">
        <ele>605.77</ele>
        <time>2024-05-11T07:23:52Z</time>
      </trkpt>
      <trkpt lat="44.95918" lon="4.73203">
        <ele>605.29</ele>
        <time>2024-05-11T07:23:28Z</time>
      </trkpt>
      <trkpt lat="44.95897" lon="4.73224">
        <ele>603.85</ele>
        <time>2024-05-11T07:23:10Z</time>
      </trkpt>
      <trkpt lat="44.95895" lon="4.73225">
        <ele>603.85</ele>
        <time>2024-05-11T07:23:09Z</time>
      </trkpt>
      <trkpt lat="44.95893" lon="4.73225">
        <ele>603.85</ele>
        <time>2024-05-11T07:23:08Z</time>
      </trkpt>
      <trkpt lat="44.95865" lon="4.73213">
        <ele>602.4</ele>
        <time>2024-05-11T07:22:48Z</time>
      </trkpt>
      <trkpt lat="44.95846" lon="4.73198">
        <ele>601.92</ele>
        <time>2024-05-11T07:22:34Z</time>
      </trkpt>
      <trkpt lat="44.95816" lon="4.73179">
        <ele>601.44</ele>
        <time>2024-05-11T07:22:12Z</time>
      </trkpt>
      <trkpt lat="44.95784" lon="4.7317">
        <ele>599.04</ele>
        <time>2024-05-11T07:21:50Z</time>
      </trkpt>
      <trkpt lat="44.95748" lon="4.73169">
        <ele>597.12</ele>
        <time>2024-05-11T07:21:27Z</time>
      </trkpt>
      <trkpt lat="44.95719" lon="4.73165">
        <ele>594.23</ele>
        <time>2024-05-11T07:21:08Z</time>
      </trkpt>
      <trkpt lat="44.95685" lon="4.73158">
        <ele>593.27</ele>
        <time>2024-05-11T07:20:47Z</time>
      </trkpt>
      <trkpt lat="44.95648" lon="4.7315">
        <ele>588.46</ele>
        <time>2024-05-11T07:20:23Z</time>
      </trkpt>
      <trkpt lat="44.95618" lon="4.73138">
        <ele>586.54</ele>
        <time>2024-05-11T07:20:02Z</time>
      </trkpt>
      <trkpt lat="44.95594" lon="4.731">
        <ele>586.06</ele>
        <time>2024-05-11T07:19:40Z</time>
      </trkpt>
      <trkpt lat="44.95575" lon="4.7306">
        <ele>589.43</ele>
        <time>2024-05-11T07:19:18Z</time>
      </trkpt>
      <trkpt lat="44.95568" lon="4.73025">
        <ele>588.95</ele>
        <time>2024-05-11T07:19:00Z</time>
      </trkpt>
      <trkpt lat="44.95566" lon="4.72985">
        <ele>587.98</ele>
        <time>2024-05-11T07:18:41Z</time>
      </trkpt>
      <trkpt lat="44.95568" lon="4.72953">
        <ele>587.5</ele>
        <time>2024-05-11T07:18:26Z</time>
      </trkpt>
      <trkpt lat="44.95573" lon="4.72922">
        <ele>586.06</ele>
        <time>2024-05-11T07:18:13Z</time>
      </trkpt>
      <trkpt lat="44.95578" lon="4.7288">
        <ele>582.22</ele>
        <time>2024-05-11T07:17:53Z</time>
      </trkpt>
      <trkpt lat="44.9559" lon="4.72844">
        <ele>575.97</ele>
        <time>2024-05-11T07:17:35Z</time>
      </trkpt>
      <trkpt lat="44.95599" lon="4.72805">
        <ele>573.56</ele>
        <time>2024-05-11T07:17:17Z</time>
      </trkpt>
      <trkpt lat="44.95609" lon="4.72771">
        <ele>573.08</ele>
        <time>2024-05-11T07:16:59Z</time>
      </trkpt>
      <trkpt lat="44.95625" lon="4.72725">
        <ele>575.49</ele>
        <time>2024-05-11T07:16:37Z</time>
      </trkpt>
      <trkpt lat="44.95619" lon="4.72691">
        <ele>574.53</ele>
        <time>2024-05-11T07:16:17Z</time>
      </trkpt>
      <trkpt lat="44.95611" lon="4.72647">
        <ele>575.01</ele>
        <time>2024-05-11T07:15:56Z</time>
      </trkpt>
      <trkpt lat="44.95593" lon="4.72616">
        <ele>575.97</ele>
        <time>2024-05-11T07:15:37Z</time>
      </trkpt>
      <trkpt lat="44.95577" lon="4.72581">
        <ele>579.33</ele>
        <time>2024-05-11T07:15:18Z</time>
      </trkpt>
      <trkpt lat="44.95558" lon="4.72543">
        <ele>581.25</ele>
        <time>2024-05-11T07:15:00Z</time>
      </trkpt>
      <trkpt lat="44.95546" lon="4.72512">
        <ele>582.22</ele>
        <time>2024-05-11T07:14:43Z</time>
      </trkpt>
      <trkpt lat="44.9553" lon="4.72483">
        <ele>585.1</ele>
        <time>2024-05-11T07:14:25Z</time>
      </trkpt>
      <trkpt lat="44.95513" lon="4.72445">
        <ele>587.5</ele>
        <time>2024-05-11T07:14:05Z</time>
      </trkpt>
      <trkpt lat="44.95507" lon="4.72412">
        <ele>588.95</ele>
        <time>2024-05-11T07:13:50Z</time>
      </trkpt>
      <trkpt lat="44.95514" lon="4.72369">
        <ele>592.79</ele>
        <time>2024-05-11T07:13:29Z</time>
      </trkpt>
      <trkpt lat="44.95518" lon="4.72332">
        <ele>594.23</ele>
        <time>2024-05-11T07:13:11Z</time>
      </trkpt>
      <trkpt lat="44.95528" lon="4.72295">
        <ele>593.75</ele>
        <time>2024-05-11T07:12:52Z</time>
      </trkpt>
      <trkpt lat="44.95523" lon="4.72269">
        <ele>593.75</ele>
        <time>2024-05-11T07:12:39Z</time>
      </trkpt>
      <trkpt lat="44.95523" lon="4.7224">
        <ele>593.75</ele>
        <time>2024-05-11T07:12:25Z</time>
      </trkpt>
      <trkpt lat="44.95523" lon="4.72204">
        <ele>593.27</ele>
        <time>2024-05-11T07:12:07Z</time>
      </trkpt>
      <trkpt lat="44.95522" lon="4.72159">
        <ele>594.23</ele>
        <time>2024-05-11T07:11:46Z</time>
      </trkpt>
      <trkpt lat="44.95526" lon="4.72107">
        <ele>598.08</ele>
        <time>2024-05-11T07:11:24Z</time>
      </trkpt>
      <trkpt lat="44.95528" lon="4.72069">
        <ele>599.04</ele>
        <time>2024-05-11T07:11:06Z</time>
      </trkpt>
      <trkpt lat="44.95524" lon="4.72032">
        <ele>597.12</ele>
        <time>2024-05-11T07:10:48Z</time>
      </trkpt>
      <trkpt lat="44.95526" lon="4.72018">
        <ele>597.12</ele>
        <time>2024-05-11T07:10:42Z</time>
      </trkpt>
      <trkpt lat="44.95538" lon="4.71986">
        <ele>595.19</ele>
        <time>2024-05-11T07:10:26Z</time>
      </trkpt>
      <trkpt lat="44.95551" lon="4.71957">
        <ele>593.27</ele>
        <time>2024-05-11T07:10:11Z</time>
      </trkpt>
      <trkpt lat="44.95565" lon="4.71936">
        <ele>592.31</ele>
        <time>2024-05-11T07:09:56Z</time>
      </trkpt>
      <trkpt lat="44.95587" lon="4.71918">
        <ele>596.15</ele>
        <time>2024-05-11T07:09:37Z</time>
      </trkpt>
      <trkpt lat="44.9561" lon="4.71893">
        <ele>594.71</ele>
        <time>2024-05-11T07:09:17Z</time>
      </trkpt>
      <trkpt lat="44.9564" lon="4.71865">
        <ele>592.31</ele>
        <time>2024-05-11T07:08:56Z</time>
      </trkpt>
      <trkpt lat="44.95659" lon="4.7184">
        <ele>591.35</ele>
        <time>2024-05-11T07:08:38Z</time>
      </trkpt>
      <trkpt lat="44.95655" lon="4.71808">
        <ele>588.95</ele>
        <time>2024-05-11T07:08:23Z</time>
      </trkpt>
      <trkpt lat="44.95632" lon="4.71788">
        <ele>587.98</ele>
        <time>2024-05-11T07:08:05Z</time>
      </trkpt>
      <trkpt lat="44.95608" lon="4.71771">
        <ele>590.87</ele>
        <time>2024-05-11T07:07:46Z</time>
      </trkpt>
      <trkpt lat="44.95581" lon="4.71754">
        <ele>591.83</ele>
        <time>2024-05-11T07:07:25Z</time>
      </trkpt>
      <trkpt lat="44.95557" lon="4.71724">
        <ele>593.27</ele>
        <time>2024-05-11T07:07:06Z</time>
      </trkpt>
      <trkpt lat="44.95533" lon="4.717">
        <ele>591.83</ele>
        <time>2024-05-11T07:06:43Z</time>
      </trkpt>
      <trkpt lat="44.95532" lon="4.717">
        <ele>591.83</ele>
        <time>2024-05-11T07:06:40Z</time>
      </trkpt>
      <trkpt lat="44.95529" lon="4.71693">
        <ele>592.31</ele>
        <time>2024-05-11T07:06:20Z</time>
      </trkpt>
      <trkpt lat="44.95524" lon="4.71686">
        <ele>596.15</ele>
        <time>2024-05-11T07:05:58Z</time>
      </trkpt>
      <trkpt lat="44.95511" lon="4.71663">
        <ele>595.67</ele>
        <time>2024-05-11T07:05:40Z</time>
      </trkpt>
      <trkpt lat="44.95493" lon="4.71628">
        <ele>596.15</ele>
        <time>2024-05-11T07:05:22Z</time>
      </trkpt>
      <trkpt lat="44.95473" lon="4.71599">
        <ele>589.43</ele>
        <time>2024-05-11T07:05:03Z</time>
      </trkpt>
      <trkpt lat="44.95451" lon="4.71582">
        <ele>581.25</ele>
        <time>2024-05-11T07:04:45Z</time>
      </trkpt>
      <trkpt lat="44.9545" lon="4.71581">
        <ele>580.77</ele>
        <time>2024-05-11T07:04:44Z</time>
      </trkpt>
      <trkpt lat="44.95447" lon="4.7156">
        <ele>576.45</ele>
        <time>2024-05-11T07:04:29Z</time>
      </trkpt>
      <trkpt lat="44.95448" lon="4.71534">
        <ele>573.56</ele>
        <time>2024-05-11T07:04:12Z</time>
      </trkpt>
      <trkpt lat="44.95442" lon="4.71502">
        <ele>571.64</ele>
        <time>2024-05-11T07:03:51Z</time>
      </trkpt>
      <trkpt lat="44.9544" lon="4.71492">
        <ele>570.2</ele>
        <time>2024-05-11T07:03:43Z</time>
      </trkpt>
      <trkpt lat="44.95439" lon="4.71468">
        <ele>569.24</ele>
        <time>2024-05-11T07:03:25Z</time>
      </trkpt>
      <trkpt lat="44.95445" lon="4.71478">
        <ele>570.68</ele>
        <time>2024-05-11T07:03:10Z</time>
      </trkpt>
      <trkpt lat="44.95461" lon="4.71486">
        <ele>564.91</ele>
        <time>2024-05-11T07:03:02Z</time>
      </trkpt>
      <trkpt lat="44.9548" lon="4.71505">
        <ele>562.51</ele>
        <time>2024-05-11T07:02:44Z</time>
      </trkpt>
      <trkpt lat="44.95488" lon="4.71512">
        <ele>560.59</ele>
        <time>2024-05-11T07:02:28Z</time>
      </trkpt>
      <trkpt lat="44.95484" lon="4.71514">
        <ele>559.14</ele>
        <time>2024-05-11T07:01:58Z</time>
      </trkpt>
      <trkpt lat="44.95485" lon="4.71514">
        <ele>560.11</ele>
        <time>2024-05-11T07:01:26Z</time>
      </trkpt>
      <trkpt lat="44.95491" lon="4.71503">
        <ele>558.66</ele>
        <time>2024-05-11T07:01:05Z</time>
      </trkpt>
      <trkpt lat="44.95491" lon="4.71483">
        <ele>560.11</ele>
        <time>2024-05-11T07:00:47Z</time>
      </trkpt>
      <trkpt lat="44.95485" lon="4.71475">
        <ele>561.07</ele>
        <time>2024-05-11T07:00:37Z</time>
      </trkpt>
      <trkpt lat="44.95482" lon="4.71471">
        <ele>562.03</ele>
        <time>2024-05-11T07:00:18Z</time>
      </trkpt>
      <trkpt lat="44.95476" lon="4.71461">
        <ele>561.55</ele>
        <time>2024-05-11T07:00:03Z</time>
      </trkpt>
      <trkpt lat="44.95477" lon="4.71465">
        <ele>560.11</ele>
        <time>2024-05-11T06:59:38Z</time>
      </trkpt>
      <trkpt lat="44.95477" lon="4.71466">
        <ele>560.11</ele>
        <time>2024-05-11T06:59:25Z</time>
      </trkpt>
      <trkpt lat="44.95479" lon="4.71465">
        <ele>562.03</ele>
        <time>2024-05-11T06:59:10Z</time>
      </trkpt>
      <trkpt lat="44.95482" lon="4.71464">
        <ele>564.91</ele>
        <time>2024-05-11T06:58:56Z</time>
      </trkpt>
      <trkpt lat="44.95477" lon="4.71465">
        <ele>564.91</ele>
        <time>2024-05-11T06:58:21Z</time>
      </trkpt>
      <trkpt lat="44.95473" lon="4.71465">
        <ele>555.3</ele>
        <time>2024-05-11T14:59:13Z</time>
        <extensions>
          <visugpx:TrkExtension xmlns:visugpx="https://www.visugpx.com/editgpx/">
            <visugpx:node>1</visugpx:node>
            </visugpx:TrkExtension>
        </extensions>
      </trkpt>
      <trkpt lat="44.9547" lon="4.71464">
        <ele>551.93</ele>
        <time>2024-05-11T14:58:56Z</time>
      </trkpt>
      <trkpt lat="44.95473" lon="4.71471">
        <ele>551.93</ele>
        <time>2024-05-11T14:58:42Z</time>
      </trkpt>
      <trkpt lat="44.95473" lon="4.71467">
        <ele>550.97</ele>
        <time>2024-05-11T14:58:24Z</time>
      </trkpt>
      <trkpt lat="44.95468" lon="4.71467">
        <ele>550.01</ele>
        <time>2024-05-11T14:58:06Z</time>
      </trkpt>
      <trkpt lat="44.9547" lon="4.71473">
        <ele>551.93</ele>
        <time>2024-05-11T14:57:44Z</time>
      </trkpt>
      <trkpt lat="44.9547" lon="4.7147">
        <ele>556.26</ele>
        <time>2024-05-11T14:57:13Z</time>
      </trkpt>
      <trkpt lat="44.95473" lon="4.71465">
        <ele>549.53</ele>
        <time>2024-05-11T14:56:29Z</time>
      </trkpt>
      <trkpt lat="44.95471" lon="4.71461">
        <ele>548.57</ele>
        <time>2024-05-11T14:56:15Z</time>
      </trkpt>
      <trkpt lat="44.9547" lon="4.71466">
        <ele>542.8</ele>
        <time>2024-05-11T14:55:58Z</time>
      </trkpt>
      <trkpt lat="44.95475" lon="4.71458">
        <ele>557.7</ele>
        <time>2024-05-11T14:39:05Z</time>
      </trkpt>
      <trkpt lat="44.95473" lon="4.71457">
        <ele>553.86</ele>
        <time>2024-05-11T14:38:48Z</time>
      </trkpt>
      <trkpt lat="44.9547" lon="4.71456">
        <ele>552.41</ele>
        <time>2024-05-11T14:38:29Z</time>
      </trkpt>
      <trkpt lat="44.95468" lon="4.71449">
        <ele>554.34</ele>
        <time>2024-05-11T14:38:04Z</time>
      </trkpt>
      <trkpt lat="44.95471" lon="4.71452">
        <ele>554.82</ele>
        <time>2024-05-11T14:37:37Z</time>
      </trkpt>
      <trkpt lat="44.95472" lon="4.71454">
        <ele>554.34</ele>
        <time>2024-05-11T14:37:20Z</time>
      </trkpt>
      <trkpt lat="44.95472" lon="4.7146">
        <ele>554.34</ele>
        <time>2024-05-11T14:37:00Z</time>
      </trkpt>
      <trkpt lat="44.95471" lon="4.71464">
        <ele>556.74</ele>
        <time>2024-05-11T14:36:36Z</time>
      </trkpt>
      <trkpt lat="44.95475" lon="4.71473">
        <ele>556.26</ele>
        <time>2024-05-11T14:36:20Z</time>
      </trkpt>
      <trkpt lat="44.95488" lon="4.71495">
        <ele>556.74</ele>
        <time>2024-05-11T14:36:04Z</time>
      </trkpt>
      <trkpt lat="44.9549" lon="4.71502">
        <ele>555.3</ele>
        <time>2024-05-11T14:35:50Z</time>
      </trkpt>
      <trkpt lat="44.95476" lon="4.71492">
        <ele>556.26</ele>
        <time>2024-05-11T14:35:35Z</time>
      </trkpt>
      <trkpt lat="44.95463" lon="4.71478">
        <ele>559.14</ele>
        <time>2024-05-11T14:35:20Z</time>
      </trkpt>
      <trkpt lat="44.95444" lon="4.71461">
        <ele>560.59</ele>
        <time>2024-05-11T14:35:04Z</time>
      </trkpt>
      <trkpt lat="44.95438" lon="4.71462">
        <ele>560.59</ele>
        <time>2024-05-11T14:34:58Z</time>
      </trkpt>
      <trkpt lat="44.95433" lon="4.71493">
        <ele>562.51</ele>
        <time>2024-05-11T14:34:40Z</time>
      </trkpt>
      <trkpt lat="44.95436" lon="4.71515">
        <ele>563.47</ele>
        <time>2024-05-11T14:34:30Z</time>
      </trkpt>
      <trkpt lat="44.9544" lon="4.71539">
        <ele>564.43</ele>
        <time>2024-05-11T14:34:14Z</time>
      </trkpt>
      <trkpt lat="44.95443" lon="4.71568">
        <ele>566.35</ele>
        <time>2024-05-11T14:33:58Z</time>
      </trkpt>
      <trkpt lat="44.95448" lon="4.71604">
        <ele>569.72</ele>
        <time>2024-05-11T14:33:38Z</time>
      </trkpt>
      <trkpt lat="44.95467" lon="4.7162">
        <ele>576.93</ele>
        <time>2024-05-11T14:33:21Z</time>
      </trkpt>
      <trkpt lat="44.95488" lon="4.71646">
        <ele>579.33</ele>
        <time>2024-05-11T14:33:02Z</time>
      </trkpt>
      <trkpt lat="44.95501" lon="4.71663">
        <ele>579.81</ele>
        <time>2024-05-11T14:32:45Z</time>
      </trkpt>
      <trkpt lat="44.95512" lon="4.7168">
        <ele>578.37</ele>
        <time>2024-05-11T14:32:29Z</time>
      </trkpt>
      <trkpt lat="44.95517" lon="4.71689">
        <ele>575.49</ele>
        <time>2024-05-11T14:32:11Z</time>
      </trkpt>
      <trkpt lat="44.95517" lon="4.71694">
        <ele>573.56</ele>
        <time>2024-05-11T14:31:55Z</time>
      </trkpt>
      <trkpt lat="44.95518" lon="4.71691">
        <ele>573.56</ele>
        <time>2024-05-11T14:31:29Z</time>
      </trkpt>
      <trkpt lat="44.95519" lon="4.7169">
        <ele>575.97</ele>
        <time>2024-05-11T14:31:07Z</time>
      </trkpt>
      <trkpt lat="44.95531" lon="4.71713">
        <ele>577.41</ele>
        <time>2024-05-11T14:30:48Z</time>
      </trkpt>
      <trkpt lat="44.95557" lon="4.71734">
        <ele>579.33</ele>
        <time>2024-05-11T14:30:28Z</time>
      </trkpt>
      <trkpt lat="44.95583" lon="4.71755">
        <ele>581.73</ele>
        <time>2024-05-11T14:30:07Z</time>
      </trkpt>
      <trkpt lat="44.95613" lon="4.71768">
        <ele>583.18</ele>
        <time>2024-05-11T14:29:47Z</time>
      </trkpt>
      <trkpt lat="44.9564" lon="4.71788">
        <ele>582.22</ele>
        <time>2024-05-11T14:29:29Z</time>
      </trkpt>
      <trkpt lat="44.95661" lon="4.71816">
        <ele>581.73</ele>
        <time>2024-05-11T14:29:10Z</time>
      </trkpt>
      <trkpt lat="44.95658" lon="4.71846">
        <ele>582.22</ele>
        <time>2024-05-11T14:28:55Z</time>
      </trkpt>
      <trkpt lat="44.95639" lon="4.71868">
        <ele>584.14</ele>
        <time>2024-05-11T14:28:39Z</time>
      </trkpt>
      <trkpt lat="44.95609" lon="4.71896">
        <ele>583.66</ele>
        <time>2024-05-11T14:28:18Z</time>
      </trkpt>
      <trkpt lat="44.95579" lon="4.71917">
        <ele>586.06</ele>
        <time>2024-05-11T14:27:59Z</time>
      </trkpt>
      <trkpt lat="44.95561" lon="4.71938">
        <ele>589.43</ele>
        <time>2024-05-11T14:27:44Z</time>
      </trkpt>
      <trkpt lat="44.95547" lon="4.71964">
        <ele>590.39</ele>
        <time>2024-05-11T14:27:26Z</time>
      </trkpt>
      <trkpt lat="44.95529" lon="4.7201">
        <ele>590.87</ele>
        <time>2024-05-11T14:27:02Z</time>
      </trkpt>
      <trkpt lat="44.95527" lon="4.72049">
        <ele>589.91</ele>
        <time>2024-05-11T14:26:43Z</time>
      </trkpt>
      <trkpt lat="44.95525" lon="4.72093">
        <ele>587.98</ele>
        <time>2024-05-11T14:26:22Z</time>
      </trkpt>
      <trkpt lat="44.95521" lon="4.72147">
        <ele>587.02</ele>
        <time>2024-05-11T14:26:11Z</time>
      </trkpt>
      <trkpt lat="44.9552" lon="4.72206">
        <ele>587.5</ele>
        <time>2024-05-11T14:25:58Z</time>
      </trkpt>
      <trkpt lat="44.95521" lon="4.72257">
        <ele>587.5</ele>
        <time>2024-05-11T14:25:37Z</time>
      </trkpt>
      <trkpt lat="44.95521" lon="4.72301">
        <ele>587.98</ele>
        <time>2024-05-11T14:25:19Z</time>
      </trkpt>
      <trkpt lat="44.95519" lon="4.72353">
        <ele>581.25</ele>
        <time>2024-05-11T14:24:55Z</time>
      </trkpt>
      <trkpt lat="44.95508" lon="4.72401">
        <ele>577.41</ele>
        <time>2024-05-11T14:24:31Z</time>
      </trkpt>
      <trkpt lat="44.95506" lon="4.72431">
        <ele>575.97</ele>
        <time>2024-05-11T14:24:16Z</time>
      </trkpt>
      <trkpt lat="44.95516" lon="4.72463">
        <ele>574.04</ele>
        <time>2024-05-11T14:23:59Z</time>
      </trkpt>
      <trkpt lat="44.95521" lon="4.72472">
        <ele>575.01</ele>
        <time>2024-05-11T14:23:53Z</time>
      </trkpt>
      <trkpt lat="44.95537" lon="4.72507">
        <ele>576.93</ele>
        <time>2024-05-11T14:23:34Z</time>
      </trkpt>
      <trkpt lat="44.9555" lon="4.72529">
        <ele>575.97</ele>
        <time>2024-05-11T14:23:17Z</time>
      </trkpt>
      <trkpt lat="44.95565" lon="4.72568">
        <ele>571.64</ele>
        <time>2024-05-11T14:22:56Z</time>
      </trkpt>
      <trkpt lat="44.9559" lon="4.72615">
        <ele>570.68</ele>
        <time>2024-05-11T14:22:30Z</time>
      </trkpt>
      <trkpt lat="44.95609" lon="4.72648">
        <ele>568.76</ele>
        <time>2024-05-11T14:22:10Z</time>
      </trkpt>
      <trkpt lat="44.95619" lon="4.72697">
        <ele>568.76</ele>
        <time>2024-05-11T14:21:49Z</time>
      </trkpt>
      <trkpt lat="44.9562" lon="4.72718">
        <ele>567.8</ele>
        <time>2024-05-11T14:21:40Z</time>
      </trkpt>
      <trkpt lat="44.95608" lon="4.72769">
        <ele>568.76</ele>
        <time>2024-05-11T14:21:14Z</time>
      </trkpt>
      <trkpt lat="44.95594" lon="4.72813">
        <ele>572.6</ele>
        <time>2024-05-11T14:20:53Z</time>
      </trkpt>
      <trkpt lat="44.95584" lon="4.72855">
        <ele>575.01</ele>
        <time>2024-05-11T14:20:33Z</time>
      </trkpt>
      <trkpt lat="44.95571" lon="4.72898">
        <ele>577.41</ele>
        <time>2024-05-11T14:20:12Z</time>
      </trkpt>
      <trkpt lat="44.95563" lon="4.72943">
        <ele>578.37</ele>
        <time>2024-05-11T14:19:51Z</time>
      </trkpt>
      <trkpt lat="44.95561" lon="4.7298">
        <ele>581.25</ele>
        <time>2024-05-11T14:19:32Z</time>
      </trkpt>
      <trkpt lat="44.95565" lon="4.73023">
        <ele>583.66</ele>
        <time>2024-05-11T14:19:14Z</time>
      </trkpt>
      <trkpt lat="44.95574" lon="4.73061">
        <ele>582.22</ele>
        <time>2024-05-11T14:18:52Z</time>
      </trkpt>
      <trkpt lat="44.9559" lon="4.73095">
        <ele>581.73</ele>
        <time>2024-05-11T14:18:34Z</time>
      </trkpt>
      <trkpt lat="44.95607" lon="4.73125">
        <ele>583.18</ele>
        <time>2024-05-11T14:18:16Z</time>
      </trkpt>
      <trkpt lat="44.95604" lon="4.73175">
        <ele>577.89</ele>
        <time>2024-05-11T14:17:53Z</time>
      </trkpt>
      <trkpt lat="44.95611" lon="4.73223">
        <ele>575.49</ele>
        <time>2024-05-11T14:17:31Z</time>
      </trkpt>
      <trkpt lat="44.95614" lon="4.73278">
        <ele>574.04</ele>
        <time>2024-05-11T14:17:06Z</time>
      </trkpt>
      <trkpt lat="44.95609" lon="4.73323">
        <ele>574.53</ele>
        <time>2024-05-11T14:16:43Z</time>
      </trkpt>
      <trkpt lat="44.95605" lon="4.73364">
        <ele>575.01</ele>
        <time>2024-05-11T14:16:23Z</time>
      </trkpt>
      <trkpt lat="44.95597" lon="4.73409">
        <ele>575.49</ele>
        <time>2024-05-11T14:16:01Z</time>
      </trkpt>
      <trkpt lat="44.9557" lon="4.73437">
        <ele>574.04</ele>
        <time>2024-05-11T14:15:40Z</time>
      </trkpt>
      <trkpt lat="44.95535" lon="4.73448">
        <ele>575.01</ele>
        <time>2024-05-11T14:15:20Z</time>
      </trkpt>
      <trkpt lat="44.95526" lon="4.73478">
        <ele>574.04</ele>
        <time>2024-05-11T14:15:05Z</time>
      </trkpt>
      <trkpt lat="44.95525" lon="4.73516">
        <ele>573.08</ele>
        <time>2024-05-11T14:14:47Z</time>
      </trkpt>
      <trkpt lat="44.95517" lon="4.73556">
        <ele>570.68</ele>
        <time>2024-05-11T14:14:30Z</time>
      </trkpt>
      <trkpt lat="44.95509" lon="4.73578">
        <ele>569.72</ele>
        <time>2024-05-11T14:14:16Z</time>
      </trkpt>
      <trkpt lat="44.95508" lon="4.7358">
        <ele>569.72</ele>
        <time>2024-05-11T14:14:15Z</time>
      </trkpt>
      <trkpt lat="44.95507" lon="4.73581">
        <ele>569.72</ele>
        <time>2024-05-11T14:14:14Z</time>
      </trkpt>
      <trkpt lat="44.95507" lon="4.73601">
        <ele>566.83</ele>
        <time>2024-05-11T14:14:01Z</time>
      </trkpt>
      <trkpt lat="44.95509" lon="4.73603">
        <ele>566.83</ele>
        <time>2024-05-11T14:14:00Z</time>
      </trkpt>
      <trkpt lat="44.95516" lon="4.73629">
        <ele>563.47</ele>
        <time>2024-05-11T14:13:46Z</time>
      </trkpt>
      <trkpt lat="44.95517" lon="4.73631">
        <ele>563.47</ele>
        <time>2024-05-11T14:13:45Z</time>
      </trkpt>
      <trkpt lat="44.95515" lon="4.73667">
        <ele>559.14</ele>
        <time>2024-05-11T14:13:29Z</time>
      </trkpt>
      <trkpt lat="44.95508" lon="4.73707">
        <ele>558.18</ele>
        <time>2024-05-11T14:13:13Z</time>
      </trkpt>
      <trkpt lat="44.95499" lon="4.73745">
        <ele>556.74</ele>
        <time>2024-05-11T14:12:56Z</time>
      </trkpt>
      <trkpt lat="44.95487" lon="4.7378">
        <ele>559.62</ele>
        <time>2024-05-11T14:12:37Z</time>
      </trkpt>
      <trkpt lat="44.95471" lon="4.73811">
        <ele>560.59</ele>
        <time>2024-05-11T14:12:21Z</time>
      </trkpt>
      <trkpt lat="44.95464" lon="4.73827">
        <ele>562.99</ele>
        <time>2024-05-11T14:12:12Z</time>
      </trkpt>
      <trkpt lat="44.95452" lon="4.73855">
        <ele>565.39</ele>
        <time>2024-05-11T14:11:56Z</time>
      </trkpt>
      <trkpt lat="44.9544" lon="4.73882">
        <ele>566.83</ele>
        <time>2024-05-11T14:11:40Z</time>
      </trkpt>
      <trkpt lat="44.95427" lon="4.73912">
        <ele>566.35</ele>
        <time>2024-05-11T14:11:22Z</time>
      </trkpt>
      <trkpt lat="44.95411" lon="4.73936">
        <ele>562.99</ele>
        <time>2024-05-11T14:11:04Z</time>
      </trkpt>
      <trkpt lat="44.95407" lon="4.73968">
        <ele>559.62</ele>
        <time>2024-05-11T14:10:49Z</time>
      </trkpt>
      <trkpt lat="44.95407" lon="4.74006">
        <ele>557.7</ele>
        <time>2024-05-11T14:10:33Z</time>
      </trkpt>
      <trkpt lat="44.95409" lon="4.74039">
        <ele>553.86</ele>
        <time>2024-05-11T14:10:19Z</time>
      </trkpt>
      <trkpt lat="44.95411" lon="4.74073">
        <ele>550.97</ele>
        <time>2024-05-11T14:10:02Z</time>
      </trkpt>
      <trkpt lat="44.95408" lon="4.74106">
        <ele>548.57</ele>
        <time>2024-05-11T14:09:46Z</time>
      </trkpt>
      <trkpt lat="44.95407" lon="4.74108">
        <ele>548.09</ele>
        <time>2024-05-11T14:09:45Z</time>
      </trkpt>
      <trkpt lat="44.95407" lon="4.74111">
        <ele>548.57</ele>
        <time>2024-05-11T14:09:44Z</time>
      </trkpt>
      <trkpt lat="44.95407" lon="4.74114">
        <ele>548.09</ele>
        <time>2024-05-11T14:09:43Z</time>
      </trkpt>
      <trkpt lat="44.95407" lon="4.74117">
        <ele>548.09</ele>
        <time>2024-05-11T14:09:42Z</time>
      </trkpt>
      <trkpt lat="44.95408" lon="4.74124">
        <ele>548.57</ele>
        <time>2024-05-11T14:09:39Z</time>
      </trkpt>
      <trkpt lat="44.95429" lon="4.7414">
        <ele>548.09</ele>
        <time>2024-05-11T14:09:24Z</time>
      </trkpt>
      <trkpt lat="44.95451" lon="4.74141">
        <ele>545.2</ele>
        <time>2024-05-11T14:09:08Z</time>
      </trkpt>
      <trkpt lat="44.95453" lon="4.74142">
        <ele>544.72</ele>
        <time>2024-05-11T14:09:07Z</time>
      </trkpt>
      <trkpt lat="44.95455" lon="4.74144">
        <ele>544.72</ele>
        <time>2024-05-11T14:09:06Z</time>
      </trkpt>
      <trkpt lat="44.95461" lon="4.74148">
        <ele>543.76</ele>
        <time>2024-05-11T14:09:01Z</time>
      </trkpt>
      <trkpt lat="44.95471" lon="4.74137">
        <ele>540.4</ele>
        <time>2024-05-11T14:08:46Z</time>
      </trkpt>
      <trkpt lat="44.95472" lon="4.74105">
        <ele>536.55</ele>
        <time>2024-05-11T14:08:31Z</time>
      </trkpt>
      <trkpt lat="44.95488" lon="4.74078">
        <ele>530.79</ele>
        <time>2024-05-11T14:08:14Z</time>
      </trkpt>
      <trkpt lat="44.95511" lon="4.74073">
        <ele>525.98</ele>
        <time>2024-05-11T14:07:59Z</time>
      </trkpt>
      <trkpt lat="44.95539" lon="4.74073">
        <ele>522.61</ele>
        <time>2024-05-11T14:07:42Z</time>
      </trkpt>
      <trkpt lat="44.95559" lon="4.74072">
        <ele>521.17</ele>
        <time>2024-05-11T14:07:29Z</time>
      </trkpt>
      <trkpt lat="44.95582" lon="4.74064">
        <ele>519.73</ele>
        <time>2024-05-11T14:07:13Z</time>
      </trkpt>
      <trkpt lat="44.95603" lon="4.74064">
        <ele>520.69</ele>
        <time>2024-05-11T14:06:58Z</time>
      </trkpt>
      <trkpt lat="44.95627" lon="4.74068">
        <ele>520.69</ele>
        <time>2024-05-11T14:06:43Z</time>
      </trkpt>
      <trkpt lat="44.95652" lon="4.7407">
        <ele>522.13</ele>
        <time>2024-05-11T14:06:26Z</time>
      </trkpt>
      <trkpt lat="44.95675" lon="4.74065">
        <ele>521.65</ele>
        <time>2024-05-11T14:06:10Z</time>
      </trkpt>
      <trkpt lat="44.95703" lon="4.74064">
        <ele>523.09</ele>
        <time>2024-05-11T14:05:51Z</time>
      </trkpt>
      <trkpt lat="44.95731" lon="4.74078">
        <ele>526.46</ele>
        <time>2024-05-11T14:05:33Z</time>
      </trkpt>
      <trkpt lat="44.95732" lon="4.74079">
        <ele>526.46</ele>
        <time>2024-05-11T14:05:32Z</time>
      </trkpt>
      <trkpt lat="44.95734" lon="4.7408">
        <ele>526.94</ele>
        <time>2024-05-11T14:05:31Z</time>
      </trkpt>
      <trkpt lat="44.95738" lon="4.74072">
        <ele>526.46</ele>
        <time>2024-05-11T14:05:24Z</time>
      </trkpt>
      <trkpt lat="44.95738" lon="4.74066">
        <ele>525.98</ele>
        <time>2024-05-11T14:05:20Z</time>
      </trkpt>
      <trkpt lat="44.95738" lon="4.74075">
        <ele>525.5</ele>
        <time>2024-05-11T14:05:05Z</time>
      </trkpt>
      <trkpt lat="44.95741" lon="4.74114">
        <ele>523.58</ele>
        <time>2024-05-11T14:04:45Z</time>
      </trkpt>
      <trkpt lat="44.95742" lon="4.74116">
        <ele>523.09</ele>
        <time>2024-05-11T14:04:44Z</time>
      </trkpt>
      <trkpt lat="44.95742" lon="4.74118">
        <ele>523.09</ele>
        <time>2024-05-11T14:04:43Z</time>
      </trkpt>
      <trkpt lat="44.95744" lon="4.74119">
        <ele>523.09</ele>
        <time>2024-05-11T14:04:42Z</time>
      </trkpt>
      <trkpt lat="44.95744" lon="4.7412">
        <ele>522.61</ele>
        <time>2024-05-11T14:04:41Z</time>
      </trkpt>
      <trkpt lat="44.95746" lon="4.74122">
        <ele>522.13</ele>
        <time>2024-05-11T14:04:40Z</time>
      </trkpt>
      <trkpt lat="44.95768" lon="4.7411">
        <ele>518.77</ele>
        <time>2024-05-11T14:04:25Z</time>
      </trkpt>
      <trkpt lat="44.95795" lon="4.74093">
        <ele>520.21</ele>
        <time>2024-05-11T14:04:07Z</time>
      </trkpt>
      <trkpt lat="44.95817" lon="4.74126">
        <ele>518.29</ele>
        <time>2024-05-11T14:03:46Z</time>
      </trkpt>
      <trkpt lat="44.95834" lon="4.74174">
        <ele>516.85</ele>
        <time>2024-05-11T14:03:21Z</time>
      </trkpt>
      <trkpt lat="44.95856" lon="4.74221">
        <ele>515.88</ele>
        <time>2024-05-11T14:02:57Z</time>
      </trkpt>
      <trkpt lat="44.95858" lon="4.74265">
        <ele>514.92</ele>
        <time>2024-05-11T14:02:39Z</time>
      </trkpt>
      <trkpt lat="44.95856" lon="4.74317">
        <ele>513</ele>
        <time>2024-05-11T14:02:16Z</time>
      </trkpt>
      <trkpt lat="44.95864" lon="4.74358">
        <ele>508.67</ele>
        <time>2024-05-11T14:01:57Z</time>
      </trkpt>
      <trkpt lat="44.95872" lon="4.74399">
        <ele>504.83</ele>
        <time>2024-05-11T14:01:38Z</time>
      </trkpt>
      <trkpt lat="44.9588" lon="4.7445">
        <ele>503.39</ele>
        <time>2024-05-11T14:01:15Z</time>
      </trkpt>
      <trkpt lat="44.95879" lon="4.74497">
        <ele>501.46</ele>
        <time>2024-05-11T14:00:55Z</time>
      </trkpt>
      <trkpt lat="44.9586" lon="4.74521">
        <ele>499.06</ele>
        <time>2024-05-11T14:00:38Z</time>
      </trkpt>
      <trkpt lat="44.95868" lon="4.74559">
        <ele>496.66</ele>
        <time>2024-05-11T14:00:18Z</time>
      </trkpt>
      <trkpt lat="44.95889" lon="4.74597">
        <ele>495.22</ele>
        <time>2024-05-11T13:59:57Z</time>
      </trkpt>
      <trkpt lat="44.95904" lon="4.74641">
        <ele>494.74</ele>
        <time>2024-05-11T13:59:36Z</time>
      </trkpt>
      <trkpt lat="44.95909" lon="4.74678">
        <ele>491.85</ele>
        <time>2024-05-11T13:59:18Z</time>
      </trkpt>
      <trkpt lat="44.95915" lon="4.74712">
        <ele>490.89</ele>
        <time>2024-05-11T13:59:04Z</time>
      </trkpt>
      <trkpt lat="44.95941" lon="4.74736">
        <ele>487.53</ele>
        <time>2024-05-11T13:58:44Z</time>
      </trkpt>
      <trkpt lat="44.95968" lon="4.74756">
        <ele>483.2</ele>
        <time>2024-05-11T13:58:25Z</time>
      </trkpt>
      <trkpt lat="44.95988" lon="4.74773">
        <ele>482.24</ele>
        <time>2024-05-11T13:58:09Z</time>
      </trkpt>
      <trkpt lat="44.96009" lon="4.74785">
        <ele>480.8</ele>
        <time>2024-05-11T13:57:53Z</time>
      </trkpt>
      <trkpt lat="44.96025" lon="4.74807">
        <ele>479.84</ele>
        <time>2024-05-11T13:57:38Z</time>
      </trkpt>
      <trkpt lat="44.96037" lon="4.74836">
        <ele>475.51</ele>
        <time>2024-05-11T13:57:20Z</time>
      </trkpt>
      <trkpt lat="44.96041" lon="4.74868">
        <ele>472.63</ele>
        <time>2024-05-11T13:57:06Z</time>
      </trkpt>
      <trkpt lat="44.96044" lon="4.74904">
        <ele>471.66</ele>
        <time>2024-05-11T13:56:51Z</time>
      </trkpt>
      <trkpt lat="44.96056" lon="4.74943">
        <ele>471.18</ele>
        <time>2024-05-11T13:56:32Z</time>
      </trkpt>
      <trkpt lat="44.9606" lon="4.74985">
        <ele>468.78</ele>
        <time>2024-05-11T13:56:13Z</time>
      </trkpt>
      <trkpt lat="44.96063" lon="4.75029">
        <ele>466.86</ele>
        <time>2024-05-11T13:55:55Z</time>
      </trkpt>
      <trkpt lat="44.9607" lon="4.75068">
        <ele>466.86</ele>
        <time>2024-05-11T13:55:37Z</time>
      </trkpt>
      <trkpt lat="44.96078" lon="4.75117">
        <ele>465.42</ele>
        <time>2024-05-11T13:55:15Z</time>
      </trkpt>
      <trkpt lat="44.96092" lon="4.75168">
        <ele>464.45</ele>
        <time>2024-05-11T13:54:53Z</time>
      </trkpt>
      <trkpt lat="44.96098" lon="4.7521">
        <ele>464.45</ele>
        <time>2024-05-11T13:54:36Z</time>
      </trkpt>
      <trkpt lat="44.96108" lon="4.75252">
        <ele>466.38</ele>
        <time>2024-05-11T13:54:18Z</time>
      </trkpt>
      <trkpt lat="44.96118" lon="4.75296">
        <ele>468.3</ele>
        <time>2024-05-11T13:53:58Z</time>
      </trkpt>
      <trkpt lat="44.96126" lon="4.75339">
        <ele>473.59</ele>
        <time>2024-05-11T13:53:38Z</time>
      </trkpt>
      <trkpt lat="44.9613" lon="4.75376">
        <ele>477.91</ele>
        <time>2024-05-11T13:53:21Z</time>
      </trkpt>
      <trkpt lat="44.96125" lon="4.75417">
        <ele>483.2</ele>
        <time>2024-05-11T13:52:59Z</time>
      </trkpt>
      <trkpt lat="44.96111" lon="4.75453">
        <ele>486.08</ele>
        <time>2024-05-11T13:52:38Z</time>
      </trkpt>
      <trkpt lat="44.96102" lon="4.7549">
        <ele>486.56</ele>
        <time>2024-05-11T13:52:19Z</time>
      </trkpt>
      <trkpt lat="44.96096" lon="4.75496">
        <ele>487.05</ele>
        <time>2024-05-11T13:52:14Z</time>
      </trkpt>
      <trkpt lat="44.96089" lon="4.75494">
        <ele>486.56</ele>
        <time>2024-05-11T13:52:09Z</time>
      </trkpt>
      <trkpt lat="44.96086" lon="4.75496">
        <ele>486.08</ele>
        <time>2024-05-11T13:51:44Z</time>
      </trkpt>
      <trkpt lat="44.9608" lon="4.75495">
        <ele>485.12</ele>
        <time>2024-05-11T13:51:25Z</time>
      </trkpt>
      <trkpt lat="44.96065" lon="4.75492">
        <ele>483.68</ele>
        <time>2024-05-11T13:51:09Z</time>
      </trkpt>
      <trkpt lat="44.96032" lon="4.75487">
        <ele>480.8</ele>
        <time>2024-05-11T13:50:46Z</time>
      </trkpt>
      <trkpt lat="44.96006" lon="4.75467">
        <ele>479.35</ele>
        <time>2024-05-11T13:50:27Z</time>
      </trkpt>
      <trkpt lat="44.95971" lon="4.75443">
        <ele>477.43</ele>
        <time>2024-05-11T13:50:04Z</time>
      </trkpt>
      <trkpt lat="44.95952" lon="4.75435">
        <ele>479.35</ele>
        <time>2024-05-11T13:49:48Z</time>
      </trkpt>
      <trkpt lat="44.95944" lon="4.75431">
        <ele>477.43</ele>
        <time>2024-05-11T13:49:24Z</time>
      </trkpt>
      <trkpt lat="44.95918" lon="4.75436">
        <ele>473.11</ele>
        <time>2024-05-11T13:49:04Z</time>
      </trkpt>
      <trkpt lat="44.95888" lon="4.75436">
        <ele>468.78</ele>
        <time>2024-05-11T13:48:45Z</time>
      </trkpt>
      <trkpt lat="44.9586" lon="4.75425">
        <ele>463.49</ele>
        <time>2024-05-11T13:48:27Z</time>
      </trkpt>
      <trkpt lat="44.95857" lon="4.75447">
        <ele>463.97</ele>
        <time>2024-05-11T13:48:14Z</time>
      </trkpt>
      <trkpt lat="44.95876" lon="4.75466">
        <ele>464.93</ele>
        <time>2024-05-11T13:47:58Z</time>
      </trkpt>
      <trkpt lat="44.95876" lon="4.75466">
        <ele>464.45</ele>
        <time>2024-05-11T13:47:55Z</time>
      </trkpt>
      <trkpt lat="44.95863" lon="4.75456">
        <ele>464.45</ele>
        <time>2024-05-11T13:47:37Z</time>
      </trkpt>
      <trkpt lat="44.95837" lon="4.75435">
        <ele>461.09</ele>
        <time>2024-05-11T13:47:15Z</time>
      </trkpt>
      <trkpt lat="44.95813" lon="4.75407">
        <ele>456.28</ele>
        <time>2024-05-11T13:46:54Z</time>
      </trkpt>
      <trkpt lat="44.95814" lon="4.75385">
        <ele>452.44</ele>
        <time>2024-05-11T13:46:42Z</time>
      </trkpt>
      <trkpt lat="44.95843" lon="4.75384">
        <ele>451.96</ele>
        <time>2024-05-11T13:46:22Z</time>
      </trkpt>
      <trkpt lat="44.95832" lon="4.75377">
        <ele>452.44</ele>
        <time>2024-05-11T13:46:09Z</time>
      </trkpt>
      <trkpt lat="44.95801" lon="4.75368">
        <ele>451</ele>
        <time>2024-05-11T13:45:49Z</time>
      </trkpt>
      <trkpt lat="44.95774" lon="4.7537">
        <ele>448.59</ele>
        <time>2024-05-11T13:45:31Z</time>
      </trkpt>
      <trkpt lat="44.95752" lon="4.7539">
        <ele>449.07</ele>
        <time>2024-05-11T13:45:13Z</time>
      </trkpt>
      <trkpt lat="44.95735" lon="4.75417">
        <ele>451.96</ele>
        <time>2024-05-11T13:44:55Z</time>
      </trkpt>
      <trkpt lat="44.95717" lon="4.75446">
        <ele>454.36</ele>
        <time>2024-05-11T13:44:37Z</time>
      </trkpt>
      <trkpt lat="44.95696" lon="4.75489">
        <ele>453.4</ele>
        <time>2024-05-11T13:44:16Z</time>
      </trkpt>
      <trkpt lat="44.95693" lon="4.75503">
        <ele>452.44</ele>
        <time>2024-05-11T13:44:10Z</time>
      </trkpt>
      <trkpt lat="44.95687" lon="4.75512">
        <ele>453.4</ele>
        <time>2024-05-11T13:44:05Z</time>
      </trkpt>
      <trkpt lat="44.95685" lon="4.75514">
        <ele>454.36</ele>
        <time>2024-05-11T13:44:03Z</time>
      </trkpt>
      <trkpt lat="44.95674" lon="4.75521">
        <ele>456.28</ele>
        <time>2024-05-11T13:43:56Z</time>
      </trkpt>
      <trkpt lat="44.95658" lon="4.7554">
        <ele>455.8</ele>
        <time>2024-05-11T13:43:42Z</time>
      </trkpt>
      <trkpt lat="44.95637" lon="4.75564">
        <ele>458.21</ele>
        <time>2024-05-11T13:43:24Z</time>
      </trkpt>
      <trkpt lat="44.95627" lon="4.75585">
        <ele>462.05</ele>
        <time>2024-05-11T13:43:11Z</time>
      </trkpt>
      <trkpt lat="44.95616" lon="4.75624">
        <ele>464.45</ele>
        <time>2024-05-11T13:42:54Z</time>
      </trkpt>
      <trkpt lat="44.95613" lon="4.75631">
        <ele>465.42</ele>
        <time>2024-05-11T13:42:50Z</time>
      </trkpt>
      <trkpt lat="44.95601" lon="4.7566">
        <ele>470.7</ele>
        <time>2024-05-11T13:42:33Z</time>
      </trkpt>
      <trkpt lat="44.95579" lon="4.75684">
        <ele>475.03</ele>
        <time>2024-05-11T13:42:16Z</time>
      </trkpt>
      <trkpt lat="44.95557" lon="4.75708">
        <ele>479.35</ele>
        <time>2024-05-11T13:41:59Z</time>
      </trkpt>
      <trkpt lat="44.95538" lon="4.75733">
        <ele>481.76</ele>
        <time>2024-05-11T13:41:43Z</time>
      </trkpt>
      <trkpt lat="44.95515" lon="4.75752">
        <ele>483.2</ele>
        <time>2024-05-11T13:41:26Z</time>
      </trkpt>
      <trkpt lat="44.95513" lon="4.75759">
        <ele>483.68</ele>
        <time>2024-05-11T13:41:22Z</time>
      </trkpt>
      <trkpt lat="44.95504" lon="4.75788">
        <ele>483.68</ele>
        <time>2024-05-11T13:41:09Z</time>
      </trkpt>
      <trkpt lat="44.95496" lon="4.75813">
        <ele>485.12</ele>
        <time>2024-05-11T13:40:54Z</time>
      </trkpt>
      <trkpt lat="44.95482" lon="4.75846">
        <ele>488.49</ele>
        <time>2024-05-11T13:40:36Z</time>
      </trkpt>
      <trkpt lat="44.95473" lon="4.75863">
        <ele>488.01</ele>
        <time>2024-05-11T13:40:26Z</time>
      </trkpt>
      <trkpt lat="44.95467" lon="4.75886">
        <ele>487.53</ele>
        <time>2024-05-11T13:40:14Z</time>
      </trkpt>
      <trkpt lat="44.95459" lon="4.75918">
        <ele>487.53</ele>
        <time>2024-05-11T13:39:57Z</time>
      </trkpt>
      <trkpt lat="44.95442" lon="4.75954">
        <ele>485.6</ele>
        <time>2024-05-11T13:39:37Z</time>
      </trkpt>
      <trkpt lat="44.95423" lon="4.75981">
        <ele>486.56</ele>
        <time>2024-05-11T13:39:21Z</time>
      </trkpt>
      <trkpt lat="44.95405" lon="4.76014">
        <ele>491.85</ele>
        <time>2024-05-11T13:39:00Z</time>
      </trkpt>
      <trkpt lat="44.95386" lon="4.76042">
        <ele>495.7</ele>
        <time>2024-05-11T13:38:40Z</time>
      </trkpt>
      <trkpt lat="44.95369" lon="4.76063">
        <ele>500.02</ele>
        <time>2024-05-11T13:38:22Z</time>
      </trkpt>
      <trkpt lat="44.95357" lon="4.76081">
        <ele>501.46</ele>
        <time>2024-05-11T13:38:06Z</time>
      </trkpt>
      <trkpt lat="44.95345" lon="4.7611">
        <ele>503.39</ele>
        <time>2024-05-11T13:37:48Z</time>
      </trkpt>
      <trkpt lat="44.95321" lon="4.76117">
        <ele>506.27</ele>
        <time>2024-05-11T13:37:31Z</time>
      </trkpt>
      <trkpt lat="44.95298" lon="4.7612">
        <ele>508.67</ele>
        <time>2024-05-11T13:37:14Z</time>
      </trkpt>
      <trkpt lat="44.95273" lon="4.76128">
        <ele>508.67</ele>
        <time>2024-05-11T13:36:56Z</time>
      </trkpt>
      <trkpt lat="44.95249" lon="4.76141">
        <ele>510.12</ele>
        <time>2024-05-11T13:36:40Z</time>
      </trkpt>
      <trkpt lat="44.95219" lon="4.76152">
        <ele>509.64</ele>
        <time>2024-05-11T13:36:21Z</time>
      </trkpt>
      <trkpt lat="44.95197" lon="4.76153">
        <ele>512.04</ele>
        <time>2024-05-11T13:36:04Z</time>
      </trkpt>
      <trkpt lat="44.95173" lon="4.76153">
        <ele>514.92</ele>
        <time>2024-05-11T13:35:47Z</time>
      </trkpt>
      <trkpt lat="44.95154" lon="4.76158">
        <ele>518.29</ele>
        <time>2024-05-11T13:35:33Z</time>
      </trkpt>
      <trkpt lat="44.95133" lon="4.76162">
        <ele>518.77</ele>
        <time>2024-05-11T13:35:18Z</time>
      </trkpt>
      <trkpt lat="44.95108" lon="4.7617">
        <ele>521.17</ele>
        <time>2024-05-11T13:35:03Z</time>
      </trkpt>
      <trkpt lat="44.95102" lon="4.76184">
        <ele>519.25</ele>
        <time>2024-05-11T13:34:55Z</time>
      </trkpt>
      <trkpt lat="44.95102" lon="4.76191">
        <ele>519.73</ele>
        <time>2024-05-11T13:34:51Z</time>
      </trkpt>
      <trkpt lat="44.95115" lon="4.7621">
        <ele>522.13</ele>
        <time>2024-05-11T13:34:38Z</time>
      </trkpt>
      <trkpt lat="44.95135" lon="4.76224">
        <ele>521.65</ele>
        <time>2024-05-11T13:34:21Z</time>
      </trkpt>
      <trkpt lat="44.95143" lon="4.76242">
        <ele>525.98</ele>
        <time>2024-05-11T13:34:08Z</time>
      </trkpt>
      <trkpt lat="44.95151" lon="4.76273">
        <ele>528.86</ele>
        <time>2024-05-11T13:33:51Z</time>
      </trkpt>
      <trkpt lat="44.95156" lon="4.76303">
        <ele>532.23</ele>
        <time>2024-05-11T13:33:35Z</time>
      </trkpt>
      <trkpt lat="44.95163" lon="4.76339">
        <ele>532.71</ele>
        <time>2024-05-11T13:33:18Z</time>
      </trkpt>
      <trkpt lat="44.95166" lon="4.76352">
        <ele>532.23</ele>
        <time>2024-05-11T13:33:13Z</time>
      </trkpt>
      <trkpt lat="44.95167" lon="4.76356">
        <ele>532.71</ele>
        <time>2024-05-11T13:33:11Z</time>
      </trkpt>
      <trkpt lat="44.95178" lon="4.76397">
        <ele>536.07</ele>
        <time>2024-05-11T13:32:48Z</time>
      </trkpt>
      <trkpt lat="44.9518" lon="4.76402">
        <ele>536.55</ele>
        <time>2024-05-11T13:32:43Z</time>
      </trkpt>
      <trkpt lat="44.95184" lon="4.76418">
        <ele>538.48</ele>
        <time>2024-05-11T13:32:30Z</time>
      </trkpt>
      <trkpt lat="44.95184" lon="4.76419">
        <ele>538.48</ele>
        <time>2024-05-11T13:32:29Z</time>
      </trkpt>
      <trkpt lat="44.95164" lon="4.76413">
        <ele>540.88</ele>
        <time>2024-05-11T13:32:12Z</time>
      </trkpt>
      <trkpt lat="44.95162" lon="4.76413">
        <ele>541.36</ele>
        <time>2024-05-11T13:31:51Z</time>
      </trkpt>
      <trkpt lat="44.95162" lon="4.76413">
        <ele>540.4</ele>
        <time>2024-05-11T13:31:22Z</time>
      </trkpt>
      <trkpt lat="44.95162" lon="4.76413">
        <ele>538.48</ele>
        <time>2024-05-11T13:31:03Z</time>
      </trkpt>
      <trkpt lat="44.95177" lon="4.76421">
        <ele>539.92</ele>
        <time>2024-05-11T13:30:47Z</time>
      </trkpt>
      <trkpt lat="44.95183" lon="4.76449">
        <ele>540.4</ele>
        <time>2024-05-11T13:30:32Z</time>
      </trkpt>
      <trkpt lat="44.95181" lon="4.76494">
        <ele>542.32</ele>
        <time>2024-05-11T13:30:12Z</time>
      </trkpt>
      <trkpt lat="44.95175" lon="4.76534">
        <ele>541.84</ele>
        <time>2024-05-11T13:29:53Z</time>
      </trkpt>
      <trkpt lat="44.95186" lon="4.7656">
        <ele>537.51</ele>
        <time>2024-05-11T13:29:38Z</time>
      </trkpt>
      <trkpt lat="44.95214" lon="4.76557">
        <ele>530.79</ele>
        <time>2024-05-11T13:29:20Z</time>
      </trkpt>
      <trkpt lat="44.95232" lon="4.76559">
        <ele>523.58</ele>
        <time>2024-05-11T13:29:07Z</time>
      </trkpt>
      <trkpt lat="44.95254" lon="4.76577">
        <ele>519.73</ele>
        <time>2024-05-11T13:28:50Z</time>
      </trkpt>
      <trkpt lat="44.9527" lon="4.76599">
        <ele>523.09</ele>
        <time>2024-05-11T13:28:31Z</time>
      </trkpt>
      <trkpt lat="44.953" lon="4.76611">
        <ele>522.13</ele>
        <time>2024-05-11T13:28:15Z</time>
      </trkpt>
      <trkpt lat="44.95318" lon="4.76632">
        <ele>515.4</ele>
        <time>2024-05-11T13:27:59Z</time>
      </trkpt>
      <trkpt lat="44.95345" lon="4.76657">
        <ele>509.16</ele>
        <time>2024-05-11T13:27:41Z</time>
      </trkpt>
      <trkpt lat="44.95371" lon="4.76668">
        <ele>511.56</ele>
        <time>2024-05-11T13:27:19Z</time>
      </trkpt>
      <trkpt lat="44.9539" lon="4.76674">
        <ele>513</ele>
        <time>2024-05-11T13:27:02Z</time>
      </trkpt>
      <trkpt lat="44.95413" lon="4.76684">
        <ele>510.6</ele>
        <time>2024-05-11T13:26:45Z</time>
      </trkpt>
      <trkpt lat="44.95425" lon="4.76688">
        <ele>510.12</ele>
        <time>2024-05-11T13:26:36Z</time>
      </trkpt>
      <trkpt lat="44.95458" lon="4.76696">
        <ele>509.64</ele>
        <time>2024-05-11T13:26:15Z</time>
      </trkpt>
      <trkpt lat="44.95489" lon="4.76714">
        <ele>504.83</ele>
        <time>2024-05-11T13:25:57Z</time>
      </trkpt>
      <trkpt lat="44.95512" lon="4.76737">
        <ele>503.39</ele>
        <time>2024-05-11T13:25:40Z</time>
      </trkpt>
      <trkpt lat="44.95529" lon="4.76752">
        <ele>500.98</ele>
        <time>2024-05-11T13:25:21Z</time>
      </trkpt>
      <trkpt lat="44.95555" lon="4.76775">
        <ele>500.5</ele>
        <time>2024-05-11T13:25:02Z</time>
      </trkpt>
      <trkpt lat="44.95576" lon="4.76787">
        <ele>501.46</ele>
        <time>2024-05-11T13:24:45Z</time>
      </trkpt>
      <trkpt lat="44.95599" lon="4.76813">
        <ele>500.02</ele>
        <time>2024-05-11T13:24:25Z</time>
      </trkpt>
      <trkpt lat="44.95613" lon="4.76853">
        <ele>499.54</ele>
        <time>2024-05-11T13:24:05Z</time>
      </trkpt>
      <trkpt lat="44.95621" lon="4.76889">
        <ele>502.43</ele>
        <time>2024-05-11T13:23:45Z</time>
      </trkpt>
      <trkpt lat="44.95619" lon="4.76907">
        <ele>502.43</ele>
        <time>2024-05-11T13:23:37Z</time>
      </trkpt>
      <trkpt lat="44.95598" lon="4.76938">
        <ele>503.87</ele>
        <time>2024-05-11T13:23:16Z</time>
      </trkpt>
      <trkpt lat="44.95574" lon="4.76935">
        <ele>505.79</ele>
        <time>2024-05-11T13:22:57Z</time>
      </trkpt>
      <trkpt lat="44.95564" lon="4.76935">
        <ele>506.27</ele>
        <time>2024-05-11T13:22:52Z</time>
      </trkpt>
      <trkpt lat="44.95554" lon="4.76955">
        <ele>506.27</ele>
        <time>2024-05-11T13:22:39Z</time>
      </trkpt>
      <trkpt lat="44.95562" lon="4.76977">
        <ele>506.27</ele>
        <time>2024-05-11T13:22:20Z</time>
      </trkpt>
      <trkpt lat="44.9558" lon="4.76996">
        <ele>503.39</ele>
        <time>2024-05-11T13:22:02Z</time>
      </trkpt>
      <trkpt lat="44.95588" lon="4.77005">
        <ele>501.95</ele>
        <time>2024-05-11T13:21:55Z</time>
      </trkpt>
      <trkpt lat="44.95619" lon="4.77006">
        <ele>499.54</ele>
        <time>2024-05-11T13:21:35Z</time>
      </trkpt>
      <trkpt lat="44.95639" lon="4.76999">
        <ele>498.1</ele>
        <time>2024-05-11T13:21:21Z</time>
      </trkpt>
      <trkpt lat="44.9566" lon="4.76995">
        <ele>497.14</ele>
        <time>2024-05-11T13:21:06Z</time>
      </trkpt>
      <trkpt lat="44.95684" lon="4.76986">
        <ele>490.89</ele>
        <time>2024-05-11T13:20:51Z</time>
      </trkpt>
      <trkpt lat="44.95701" lon="4.76972">
        <ele>487.05</ele>
        <time>2024-05-11T13:20:39Z</time>
      </trkpt>
      <trkpt lat="44.95722" lon="4.76953">
        <ele>479.35</ele>
        <time>2024-05-11T13:20:23Z</time>
      </trkpt>
      <trkpt lat="44.9575" lon="4.76936">
        <ele>476.47</ele>
        <time>2024-05-11T13:20:02Z</time>
      </trkpt>
      <trkpt lat="44.95779" lon="4.7692">
        <ele>472.14</ele>
        <time>2024-05-11T13:19:42Z</time>
      </trkpt>
      <trkpt lat="44.95804" lon="4.76904">
        <ele>473.11</ele>
        <time>2024-05-11T13:19:25Z</time>
      </trkpt>
      <trkpt lat="44.95814" lon="4.76893">
        <ele>472.63</ele>
        <time>2024-05-11T13:19:14Z</time>
      </trkpt>
      <trkpt lat="44.95835" lon="4.76871">
        <ele>470.7</ele>
        <time>2024-05-11T13:18:57Z</time>
      </trkpt>
      <trkpt lat="44.9585" lon="4.76853">
        <ele>469.26</ele>
        <time>2024-05-11T13:18:46Z</time>
      </trkpt>
      <trkpt lat="44.95862" lon="4.76836">
        <ele>469.74</ele>
        <time>2024-05-11T13:18:32Z</time>
      </trkpt>
      <trkpt lat="44.9588" lon="4.7684">
        <ele>469.74</ele>
        <time>2024-05-11T13:18:16Z</time>
      </trkpt>
      <trkpt lat="44.95883" lon="4.76845">
        <ele>467.34</ele>
        <time>2024-05-11T13:18:13Z</time>
      </trkpt>
      <trkpt lat="44.95887" lon="4.76842">
        <ele>463.97</ele>
        <time>2024-05-11T13:18:05Z</time>
      </trkpt>
      <trkpt lat="44.95878" lon="4.76862">
        <ele>464.45</ele>
        <time>2024-05-11T13:17:46Z</time>
      </trkpt>
      <trkpt lat="44.95876" lon="4.76867">
        <ele>463.97</ele>
        <time>2024-05-11T13:17:43Z</time>
      </trkpt>
      <trkpt lat="44.95867" lon="4.76901">
        <ele>459.17</ele>
        <time>2024-05-11T13:17:27Z</time>
      </trkpt>
      <trkpt lat="44.95862" lon="4.76941">
        <ele>451.96</ele>
        <time>2024-05-11T13:17:09Z</time>
      </trkpt>
      <trkpt lat="44.95873" lon="4.76962">
        <ele>450.03</ele>
        <time>2024-05-11T13:16:52Z</time>
      </trkpt>
      <trkpt lat="44.95871" lon="4.76961">
        <ele>452.92</ele>
        <time>2024-05-11T13:16:26Z</time>
      </trkpt>
      <trkpt lat="44.95873" lon="4.76939">
        <ele>463.49</ele>
        <time>2024-05-11T13:15:50Z</time>
      </trkpt>
      <trkpt lat="44.95887" lon="4.76933">
        <ele>460.13</ele>
        <time>2024-05-11T13:15:24Z</time>
      </trkpt>
      <trkpt lat="44.95884" lon="4.76942">
        <ele>454.84</ele>
        <time>2024-05-11T13:14:57Z</time>
      </trkpt>
      <trkpt lat="44.95869" lon="4.7695">
        <ele>454.84</ele>
        <time>2024-05-11T13:14:35Z</time>
      </trkpt>
      <trkpt lat="44.9587" lon="4.76959">
        <ele>449.07</ele>
        <time>2024-05-11T13:14:16Z</time>
      </trkpt>
      <trkpt lat="44.95873" lon="4.76953">
        <ele>446.19</ele>
        <time>2024-05-11T13:13:49Z</time>
      </trkpt>
      <trkpt lat="44.95874" lon="4.76946">
        <ele>449.07</ele>
        <time>2024-05-11T13:13:24Z</time>
      </trkpt>
      <trkpt lat="44.95881" lon="4.76951">
        <ele>451</ele>
        <time>2024-05-11T13:13:09Z</time>
      </trkpt>
      <trkpt lat="44.95893" lon="4.76965">
        <ele>453.4</ele>
        <time>2024-05-11T13:12:54Z</time>
      </trkpt>
      <trkpt lat="44.95893" lon="4.76965">
        <ele>453.88</ele>
        <time>2024-05-11T13:12:53Z</time>
      </trkpt>
      <trkpt lat="44.95893" lon="4.76967">
        <ele>455.32</ele>
        <time>2024-05-11T13:12:32Z</time>
      </trkpt>
      <trkpt lat="44.95891" lon="4.76968">
        <ele>450.03</ele>
        <time>2024-05-11T13:12:06Z</time>
      </trkpt>
      <trkpt lat="44.95893" lon="4.76983">
        <ele>447.63</ele>
        <time>2024-05-11T13:11:52Z</time>
      </trkpt>
      <trkpt lat="44.95882" lon="4.77018">
        <ele>454.36</ele>
        <time>2024-05-11T13:11:34Z</time>
      </trkpt>
      <trkpt lat="44.95871" lon="4.77032">
        <ele>455.8</ele>
        <time>2024-05-11T13:11:22Z</time>
      </trkpt>
      <trkpt lat="44.95874" lon="4.77048">
        <ele>460.13</ele>
        <time>2024-05-11T13:11:08Z</time>
      </trkpt>
      <trkpt lat="44.95887" lon="4.77052">
        <ele>462.53</ele>
        <time>2024-05-11T13:10:56Z</time>
      </trkpt>
      <trkpt lat="44.95908" lon="4.77062">
        <ele>467.82</ele>
        <time>2024-05-11T13:10:39Z</time>
      </trkpt>
      <trkpt lat="44.95933" lon="4.77082">
        <ele>473.11</ele>
        <time>2024-05-11T13:10:16Z</time>
      </trkpt>
      <trkpt lat="44.95935" lon="4.77085">
        <ele>473.59</ele>
        <time>2024-05-11T13:10:13Z</time>
      </trkpt>
      <trkpt lat="44.95918" lon="4.77096">
        <ele>476.47</ele>
        <time>2024-05-11T13:09:56Z</time>
      </trkpt>
      <trkpt lat="44.95898" lon="4.77112">
        <ele>477.91</ele>
        <time>2024-05-11T13:09:38Z</time>
      </trkpt>
      <trkpt lat="44.95879" lon="4.77153">
        <ele>482.72</ele>
        <time>2024-05-11T13:09:14Z</time>
      </trkpt>
      <trkpt lat="44.95883" lon="4.77199">
        <ele>488.01</ele>
        <time>2024-05-11T13:08:52Z</time>
      </trkpt>
      <trkpt lat="44.95868" lon="4.77235">
        <ele>491.37</ele>
        <time>2024-05-11T13:08:32Z</time>
      </trkpt>
      <trkpt lat="44.95858" lon="4.77291">
        <ele>490.41</ele>
        <time>2024-05-11T13:08:07Z</time>
      </trkpt>
      <trkpt lat="44.95866" lon="4.77332">
        <ele>488.01</ele>
        <time>2024-05-11T13:07:47Z</time>
      </trkpt>
      <trkpt lat="44.95874" lon="4.77376">
        <ele>486.56</ele>
        <time>2024-05-11T13:07:27Z</time>
      </trkpt>
      <trkpt lat="44.95877" lon="4.77416">
        <ele>486.08</ele>
        <time>2024-05-11T13:07:10Z</time>
      </trkpt>
      <trkpt lat="44.95876" lon="4.77458">
        <ele>487.05</ele>
        <time>2024-05-11T13:06:53Z</time>
      </trkpt>
      <trkpt lat="44.9588" lon="4.77494">
        <ele>490.41</ele>
        <time>2024-05-11T13:06:36Z</time>
      </trkpt>
      <trkpt lat="44.959" lon="4.77523">
        <ele>491.85</ele>
        <time>2024-05-11T13:06:17Z</time>
      </trkpt>
      <trkpt lat="44.95899" lon="4.77532">
        <ele>492.81</ele>
        <time>2024-05-11T13:06:13Z</time>
      </trkpt>
      <trkpt lat="44.95878" lon="4.77569">
        <ele>496.18</ele>
        <time>2024-05-11T13:05:50Z</time>
      </trkpt>
      <trkpt lat="44.95857" lon="4.77586">
        <ele>500.5</ele>
        <time>2024-05-11T13:05:32Z</time>
      </trkpt>
      <trkpt lat="44.95836" lon="4.7759">
        <ele>503.39</ele>
        <time>2024-05-11T13:05:17Z</time>
      </trkpt>
      <trkpt lat="44.95815" lon="4.77604">
        <ele>505.31</ele>
        <time>2024-05-11T13:04:59Z</time>
      </trkpt>
      <trkpt lat="44.95813" lon="4.77612">
        <ele>505.79</ele>
        <time>2024-05-11T13:04:55Z</time>
      </trkpt>
      <trkpt lat="44.95814" lon="4.77616">
        <ele>505.79</ele>
        <time>2024-05-11T13:04:53Z</time>
      </trkpt>
      <trkpt lat="44.95815" lon="4.77625">
        <ele>505.31</ele>
        <time>2024-05-11T13:04:48Z</time>
      </trkpt>
      <trkpt lat="44.95816" lon="4.77634">
        <ele>505.79</ele>
        <time>2024-05-11T13:04:44Z</time>
      </trkpt>
      <trkpt lat="44.9582" lon="4.77666">
        <ele>506.27</ele>
        <time>2024-05-11T13:04:28Z</time>
      </trkpt>
      <trkpt lat="44.9583" lon="4.77702">
        <ele>508.19</ele>
        <time>2024-05-11T13:04:08Z</time>
      </trkpt>
      <trkpt lat="44.95841" lon="4.77736">
        <ele>510.12</ele>
        <time>2024-05-11T13:03:51Z</time>
      </trkpt>
      <trkpt lat="44.95854" lon="4.77767">
        <ele>511.56</ele>
        <time>2024-05-11T13:03:34Z</time>
      </trkpt>
      <trkpt lat="44.95856" lon="4.77777">
        <ele>512.52</ele>
        <time>2024-05-11T13:03:29Z</time>
      </trkpt>
      <trkpt lat="44.9585" lon="4.77796">
        <ele>512.52</ele>
        <time>2024-05-11T13:03:19Z</time>
      </trkpt>
      <trkpt lat="44.95845" lon="4.77826">
        <ele>513</ele>
        <time>2024-05-11T13:03:05Z</time>
      </trkpt>
      <trkpt lat="44.95864" lon="4.77847">
        <ele>516.37</ele>
        <time>2024-05-11T13:02:49Z</time>
      </trkpt>
      <trkpt lat="44.95885" lon="4.77872">
        <ele>519.73</ele>
        <time>2024-05-11T13:02:30Z</time>
      </trkpt>
      <trkpt lat="44.959" lon="4.77889">
        <ele>520.21</ele>
        <time>2024-05-11T13:02:15Z</time>
      </trkpt>
      <trkpt lat="44.95921" lon="4.77918">
        <ele>517.81</ele>
        <time>2024-05-11T13:01:55Z</time>
      </trkpt>
      <trkpt lat="44.95928" lon="4.77963">
        <ele>522.13</ele>
        <time>2024-05-11T13:01:34Z</time>
      </trkpt>
      <trkpt lat="44.9593" lon="4.78002">
        <ele>525.02</ele>
        <time>2024-05-11T13:01:16Z</time>
      </trkpt>
      <trkpt lat="44.95944" lon="4.78034">
        <ele>525.02</ele>
        <time>2024-05-11T13:00:59Z</time>
      </trkpt>
      <trkpt lat="44.95964" lon="4.78058">
        <ele>522.61</ele>
        <time>2024-05-11T13:00:42Z</time>
      </trkpt>
      <trkpt lat="44.95989" lon="4.78096">
        <ele>515.4</ele>
        <time>2024-05-11T13:00:24Z</time>
      </trkpt>
      <trkpt lat="44.96015" lon="4.78114">
        <ele>519.73</ele>
        <time>2024-05-11T13:00:06Z</time>
      </trkpt>
      <trkpt lat="44.96041" lon="4.78125">
        <ele>524.06</ele>
        <time>2024-05-11T12:59:47Z</time>
      </trkpt>
      <trkpt lat="44.96052" lon="4.78128">
        <ele>526.46</ele>
        <time>2024-05-11T12:59:32Z</time>
      </trkpt>
      <trkpt lat="44.96062" lon="4.78133">
        <ele>527.42</ele>
        <time>2024-05-11T12:59:25Z</time>
      </trkpt>
      <trkpt lat="44.96082" lon="4.78142">
        <ele>527.42</ele>
        <time>2024-05-11T12:59:07Z</time>
      </trkpt>
      <trkpt lat="44.96098" lon="4.78156">
        <ele>537.51</ele>
        <time>2024-05-11T12:58:50Z</time>
      </trkpt>
      <trkpt lat="44.96094" lon="4.78153">
        <ele>548.57</ele>
        <time>2024-05-11T12:58:47Z</time>
      </trkpt>
      <trkpt lat="44.96114" lon="4.78179">
        <ele>535.11</ele>
        <time>2024-05-11T11:07:38Z</time>
      </trkpt>
      <trkpt lat="44.96113" lon="4.78181">
        <ele>529.82</ele>
        <time>2024-05-11T11:07:28Z</time>
      </trkpt>
      <trkpt lat="44.96114" lon="4.78183">
        <ele>526.46</ele>
        <time>2024-05-11T11:06:56Z</time>
      </trkpt>
      <trkpt lat="44.96115" lon="4.78179">
        <ele>525.5</ele>
        <time>2024-05-11T11:06:25Z</time>
      </trkpt>
      <trkpt lat="44.96114" lon="4.78175">
        <ele>525.5</ele>
        <time>2024-05-11T11:05:54Z</time>
      </trkpt>
      <trkpt lat="44.96111" lon="4.78179">
        <ele>530.79</ele>
        <time>2024-05-11T11:05:26Z</time>
      </trkpt>
      <trkpt lat="44.96114" lon="4.78175">
        <ele>530.79</ele>
        <time>2024-05-11T11:05:04Z</time>
      </trkpt>
      <trkpt lat="44.96116" lon="4.78175">
        <ele>526.94</ele>
        <time>2024-05-11T11:04:36Z</time>
      </trkpt>
      <trkpt lat="44.9611" lon="4.78162">
        <ele>523.58</ele>
        <time>2024-05-11T11:04:21Z</time>
      </trkpt>
      <trkpt lat="44.96101" lon="4.78156">
        <ele>522.13</ele>
        <time>2024-05-11T11:03:53Z</time>
      </trkpt>
      <trkpt lat="44.96098" lon="4.78151">
        <ele>523.09</ele>
        <time>2024-05-11T11:03:40Z</time>
      </trkpt>
      <trkpt lat="44.96087" lon="4.78141">
        <ele>524.54</ele>
        <time>2024-05-11T11:03:25Z</time>
      </trkpt>
      <trkpt lat="44.96081" lon="4.78138">
        <ele>525.5</ele>
        <time>2024-05-11T11:03:21Z</time>
      </trkpt>
      <trkpt lat="44.96076" lon="4.78142">
        <ele>527.42</ele>
        <time>2024-05-11T11:03:13Z</time>
      </trkpt>
      <trkpt lat="44.96076" lon="4.78143">
        <ele>527.9</ele>
        <time>2024-05-11T11:03:10Z</time>
      </trkpt>
      <trkpt lat="44.96076" lon="4.78143">
        <ele>529.34</ele>
        <time>2024-05-11T11:02:49Z</time>
      </trkpt>
      <trkpt lat="44.96078" lon="4.78148">
        <ele>526.94</ele>
        <time>2024-05-11T11:02:31Z</time>
      </trkpt>
      <trkpt lat="44.96079" lon="4.78144">
        <ele>525.02</ele>
        <time>2024-05-11T11:02:01Z</time>
      </trkpt>
      <trkpt lat="44.96076" lon="4.78146">
        <ele>522.13</ele>
        <time>2024-05-11T11:01:42Z</time>
      </trkpt>
      <trkpt lat="44.96086" lon="4.78151">
        <ele>521.65</ele>
        <time>2024-05-11T11:01:26Z</time>
      </trkpt>
      <trkpt lat="44.96103" lon="4.78164">
        <ele>527.9</ele>
        <time>2024-05-11T11:01:10Z</time>
      </trkpt>
      <trkpt lat="44.9611" lon="4.78163">
        <ele>531.75</ele>
        <time>2024-05-11T11:00:51Z</time>
      </trkpt>
      <trkpt lat="44.96107" lon="4.78162">
        <ele>529.34</ele>
        <time>2024-05-11T11:00:27Z</time>
      </trkpt>
      <trkpt lat="44.96109" lon="4.78165">
        <ele>527.9</ele>
        <time>2024-05-11T11:00:12Z</time>
      </trkpt>
      <trkpt lat="44.96112" lon="4.78162">
        <ele>529.34</ele>
        <time>2024-05-11T10:59:49Z</time>
      </trkpt>
      <trkpt lat="44.96111" lon="4.78166">
        <ele>531.27</ele>
        <time>2024-05-11T10:59:28Z</time>
      </trkpt>
      <trkpt lat="44.9611" lon="4.7817">
        <ele>528.86</ele>
        <time>2024-05-11T10:59:13Z</time>
      </trkpt>
      <trkpt lat="44.9611" lon="4.78169">
        <ele>527.9</ele>
        <time>2024-05-11T10:58:58Z</time>
      </trkpt>
      <trkpt lat="44.96116" lon="4.7817">
        <ele>529.34</ele>
        <time>2024-05-11T10:58:42Z</time>
      </trkpt>
      <trkpt lat="44.96117" lon="4.78168">
        <ele>529.82</ele>
        <time>2024-05-11T10:58:11Z</time>
      </trkpt>
      <trkpt lat="44.96115" lon="4.78169">
        <ele>529.82</ele>
        <time>2024-05-11T10:57:46Z</time>
      </trkpt>
      <trkpt lat="44.96117" lon="4.7817">
        <ele>530.3</ele>
        <time>2024-05-11T10:57:19Z</time>
      </trkpt>
      <trkpt lat="44.96103" lon="4.78161">
        <ele>531.27</ele>
        <time>2024-05-11T10:56:57Z</time>
      </trkpt>
      <trkpt lat="44.96107" lon="4.78169">
        <ele>535.11</ele>
        <time>2024-05-11T10:56:38Z</time>
      </trkpt>
      <trkpt lat="44.96104" lon="4.78168">
        <ele>533.19</ele>
        <time>2024-05-11T10:56:12Z</time>
      </trkpt>
      <trkpt lat="44.96111" lon="4.78169">
        <ele>531.75</ele>
        <time>2024-05-11T10:55:48Z</time>
      </trkpt>
      <trkpt lat="44.96109" lon="4.78156">
        <ele>530.3</ele>
        <time>2024-05-11T10:55:28Z</time>
      </trkpt>
      <trkpt lat="44.961" lon="4.78157">
        <ele>529.82</ele>
        <time>2024-05-11T10:55:00Z</time>
      </trkpt>
      <trkpt lat="44.96105" lon="4.78153">
        <ele>528.86</ele>
        <time>2024-05-11T10:54:38Z</time>
      </trkpt>
      <trkpt lat="44.96114" lon="4.78152">
        <ele>528.86</ele>
        <time>2024-05-11T10:54:17Z</time>
      </trkpt>
      <trkpt lat="44.9611" lon="4.78152">
        <ele>526.46</ele>
        <time>2024-05-11T10:53:57Z</time>
      </trkpt>
      <trkpt lat="44.96111" lon="4.78165">
        <ele>525.02</ele>
        <time>2024-05-11T10:53:35Z</time>
      </trkpt>
      <trkpt lat="44.9612" lon="4.78161">
        <ele>525.98</ele>
        <time>2024-05-11T10:53:13Z</time>
      </trkpt>
      <trkpt lat="44.96119" lon="4.78162">
        <ele>524.54</ele>
        <time>2024-05-11T10:52:48Z</time>
      </trkpt>
      <trkpt lat="44.96113" lon="4.78155">
        <ele>527.42</ele>
        <time>2024-05-11T10:52:17Z</time>
      </trkpt>
      <trkpt lat="44.96111" lon="4.78149">
        <ele>529.82</ele>
        <time>2024-05-11T10:51:50Z</time>
      </trkpt>
      <trkpt lat="44.96104" lon="4.78164">
        <ele>529.34</ele>
        <time>2024-05-11T10:51:24Z</time>
      </trkpt>
      <trkpt lat="44.96104" lon="4.78162">
        <ele>526.94</ele>
        <time>2024-05-11T10:51:00Z</time>
      </trkpt>
      <trkpt lat="44.96103" lon="4.7816">
        <ele>527.42</ele>
        <time>2024-05-11T10:50:39Z</time>
      </trkpt>
      <trkpt lat="44.96106" lon="4.7816">
        <ele>527.9</ele>
        <time>2024-05-11T10:50:20Z</time>
      </trkpt>
      <trkpt lat="44.96111" lon="4.7816">
        <ele>528.86</ele>
        <time>2024-05-11T10:49:59Z</time>
      </trkpt>
      <trkpt lat="44.96107" lon="4.78158">
        <ele>527.42</ele>
        <time>2024-05-11T10:49:36Z</time>
      </trkpt>
      <trkpt lat="44.96108" lon="4.78164">
        <ele>525.02</ele>
        <time>2024-05-11T10:49:15Z</time>
      </trkpt>
      <trkpt lat="44.96104" lon="4.78161">
        <ele>523.58</ele>
        <time>2024-05-11T10:48:54Z</time>
      </trkpt>
      <trkpt lat="44.96105" lon="4.78159">
        <ele>525.02</ele>
        <time>2024-05-11T10:48:32Z</time>
      </trkpt>
      <trkpt lat="44.96111" lon="4.78167">
        <ele>523.58</ele>
        <time>2024-05-11T10:48:11Z</time>
      </trkpt>
      <trkpt lat="44.96113" lon="4.78165">
        <ele>524.06</ele>
        <time>2024-05-11T10:47:56Z</time>
      </trkpt>
      <trkpt lat="44.9611" lon="4.78165">
        <ele>517.33</ele>
        <time>2024-05-11T10:47:30Z</time>
      </trkpt>
      <trkpt lat="44.96106" lon="4.78162">
        <ele>513.96</ele>
        <time>2024-05-11T10:47:07Z</time>
      </trkpt>
      <trkpt lat="44.96107" lon="4.78166">
        <ele>513.96</ele>
        <time>2024-05-11T10:46:44Z</time>
      </trkpt>
      <trkpt lat="44.96108" lon="4.78163">
        <ele>514.44</ele>
        <time>2024-05-11T10:46:23Z</time>
      </trkpt>
      <trkpt lat="44.96106" lon="4.78162">
        <ele>514.92</ele>
        <time>2024-05-11T10:46:04Z</time>
      </trkpt>
      <trkpt lat="44.96104" lon="4.78156">
        <ele>516.37</ele>
        <time>2024-05-11T10:45:46Z</time>
      </trkpt>
      <trkpt lat="44.96103" lon="4.78152">
        <ele>519.25</ele>
        <time>2024-05-11T10:45:25Z</time>
      </trkpt>
      <trkpt lat="44.96106" lon="4.78158">
        <ele>521.65</ele>
        <time>2024-05-11T10:45:02Z</time>
      </trkpt>
      <trkpt lat="44.96106" lon="4.78163">
        <ele>522.61</ele>
        <time>2024-05-11T10:44:38Z</time>
      </trkpt>
      <trkpt lat="44.96107" lon="4.78162">
        <ele>523.58</ele>
        <time>2024-05-11T10:44:17Z</time>
      </trkpt>
      <trkpt lat="44.96105" lon="4.78157">
        <ele>526.94</ele>
        <time>2024-05-11T10:43:58Z</time>
      </trkpt>
      <trkpt lat="44.96102" lon="4.78152">
        <ele>526.46</ele>
        <time>2024-05-11T10:43:28Z</time>
      </trkpt>
      <trkpt lat="44.96107" lon="4.78161">
        <ele>525.02</ele>
        <time>2024-05-11T10:43:05Z</time>
      </trkpt>
      <trkpt lat="44.96111" lon="4.78164">
        <ele>524.06</ele>
        <time>2024-05-11T10:42:44Z</time>
      </trkpt>
      <trkpt lat="44.96107" lon="4.7816">
        <ele>522.61</ele>
        <time>2024-05-11T10:42:19Z</time>
      </trkpt>
      <trkpt lat="44.96113" lon="4.78159">
        <ele>522.13</ele>
        <time>2024-05-11T10:41:56Z</time>
      </trkpt>
      <trkpt lat="44.96119" lon="4.78168">
        <ele>522.13</ele>
        <time>2024-05-11T10:41:35Z</time>
      </trkpt>
      <trkpt lat="44.96122" lon="4.78171">
        <ele>525.02</ele>
        <time>2024-05-11T10:41:09Z</time>
      </trkpt>
      <trkpt lat="44.96114" lon="4.78166">
        <ele>529.82</ele>
        <time>2024-05-11T10:40:46Z</time>
      </trkpt>
      <trkpt lat="44.96108" lon="4.78161">
        <ele>530.3</ele>
        <time>2024-05-11T10:40:20Z</time>
      </trkpt>
      <trkpt lat="44.96111" lon="4.78157">
        <ele>528.86</ele>
        <time>2024-05-11T10:39:52Z</time>
      </trkpt>
      <trkpt lat="44.96115" lon="4.78153">
        <ele>527.42</ele>
        <time>2024-05-11T10:39:22Z</time>
      </trkpt>
      <trkpt lat="44.96117" lon="4.78158">
        <ele>525.5</ele>
        <time>2024-05-11T10:38:55Z</time>
      </trkpt>
      <trkpt lat="44.96115" lon="4.78159">
        <ele>521.65</ele>
        <time>2024-05-11T10:38:28Z</time>
      </trkpt>
      <trkpt lat="44.9612" lon="4.78165">
        <ele>520.21</ele>
        <time>2024-05-11T10:38:03Z</time>
      </trkpt>
      <trkpt lat="44.96128" lon="4.78187">
        <ele>518.77</ele>
        <time>2024-05-11T10:37:47Z</time>
      </trkpt>
      <trkpt lat="44.96128" lon="4.78193">
        <ele>518.29</ele>
        <time>2024-05-11T10:37:43Z</time>
      </trkpt>
      <trkpt lat="44.96131" lon="4.78196">
        <ele>517.33</ele>
        <time>2024-05-11T10:37:36Z</time>
      </trkpt>
      <trkpt lat="44.96159" lon="4.78198">
        <ele>516.37</ele>
        <time>2024-05-11T10:37:20Z</time>
      </trkpt>
      <trkpt lat="44.96188" lon="4.78194">
        <ele>514.92</ele>
        <time>2024-05-11T10:37:01Z</time>
      </trkpt>
      <trkpt lat="44.96214" lon="4.7819">
        <ele>514.44</ele>
        <time>2024-05-11T10:36:42Z</time>
      </trkpt>
      <trkpt lat="44.96231" lon="4.78188">
        <ele>514.44</ele>
        <time>2024-05-11T10:36:27Z</time>
      </trkpt>
      <trkpt lat="44.96262" lon="4.78187">
        <ele>511.08</ele>
        <time>2024-05-11T10:36:08Z</time>
      </trkpt>
      <trkpt lat="44.9629" lon="4.78183">
        <ele>502.43</ele>
        <time>2024-05-11T10:35:50Z</time>
      </trkpt>
      <trkpt lat="44.96297" lon="4.78177">
        <ele>501.46</ele>
        <time>2024-05-11T10:35:44Z</time>
      </trkpt>
      <trkpt lat="44.96314" lon="4.78161">
        <ele>500.5</ele>
        <time>2024-05-11T10:35:26Z</time>
      </trkpt>
      <trkpt lat="44.96341" lon="4.78148">
        <ele>494.26</ele>
        <time>2024-05-11T10:35:06Z</time>
      </trkpt>
      <trkpt lat="44.96363" lon="4.78138">
        <ele>487.05</ele>
        <time>2024-05-11T10:34:43Z</time>
      </trkpt>
      <trkpt lat="44.96367" lon="4.78124">
        <ele>484.64</ele>
        <time>2024-05-11T10:34:25Z</time>
      </trkpt>
      <trkpt lat="44.96382" lon="4.78087">
        <ele>484.64</ele>
        <time>2024-05-11T10:34:05Z</time>
      </trkpt>
      <trkpt lat="44.96403" lon="4.7807">
        <ele>484.16</ele>
        <time>2024-05-11T10:33:48Z</time>
      </trkpt>
      <trkpt lat="44.96407" lon="4.78067">
        <ele>483.2</ele>
        <time>2024-05-11T10:33:45Z</time>
      </trkpt>
      <trkpt lat="44.96422" lon="4.7805">
        <ele>481.76</ele>
        <time>2024-05-11T10:33:27Z</time>
      </trkpt>
      <trkpt lat="44.96431" lon="4.78037">
        <ele>481.28</ele>
        <time>2024-05-11T10:33:09Z</time>
      </trkpt>
      <trkpt lat="44.96435" lon="4.7803">
        <ele>481.76</ele>
        <time>2024-05-11T10:32:53Z</time>
      </trkpt>
      <trkpt lat="44.96439" lon="4.78004">
        <ele>482.72</ele>
        <time>2024-05-11T10:32:34Z</time>
      </trkpt>
      <trkpt lat="44.96443" lon="4.77993">
        <ele>479.84</ele>
        <time>2024-05-11T10:32:14Z</time>
      </trkpt>
      <trkpt lat="44.96444" lon="4.77982">
        <ele>481.28</ele>
        <time>2024-05-11T10:31:55Z</time>
      </trkpt>
      <trkpt lat="44.96446" lon="4.77961">
        <ele>483.2</ele>
        <time>2024-05-11T10:31:38Z</time>
      </trkpt>
      <trkpt lat="44.96446" lon="4.77959">
        <ele>483.2</ele>
        <time>2024-05-11T10:31:17Z</time>
      </trkpt>
      <trkpt lat="44.96449" lon="4.77921">
        <ele>486.56</ele>
        <time>2024-05-11T10:30:59Z</time>
      </trkpt>
      <trkpt lat="44.96464" lon="4.779">
        <ele>491.37</ele>
        <time>2024-05-11T10:30:42Z</time>
      </trkpt>
      <trkpt lat="44.96482" lon="4.77889">
        <ele>496.18</ele>
        <time>2024-05-11T10:30:26Z</time>
      </trkpt>
      <trkpt lat="44.96503" lon="4.77883">
        <ele>500.02</ele>
        <time>2024-05-11T10:30:09Z</time>
      </trkpt>
      <trkpt lat="44.96531" lon="4.77875">
        <ele>503.87</ele>
        <time>2024-05-11T10:29:50Z</time>
      </trkpt>
      <trkpt lat="44.96556" lon="4.7785">
        <ele>506.75</ele>
        <time>2024-05-11T10:29:33Z</time>
      </trkpt>
      <trkpt lat="44.96576" lon="4.77833">
        <ele>507.23</ele>
        <time>2024-05-11T10:29:18Z</time>
      </trkpt>
      <trkpt lat="44.96602" lon="4.77816">
        <ele>508.67</ele>
        <time>2024-05-11T10:29:01Z</time>
      </trkpt>
      <trkpt lat="44.96603" lon="4.77814">
        <ele>508.67</ele>
        <time>2024-05-11T10:29:00Z</time>
      </trkpt>
      <trkpt lat="44.96604" lon="4.77812">
        <ele>508.67</ele>
        <time>2024-05-11T10:28:59Z</time>
      </trkpt>
      <trkpt lat="44.96605" lon="4.7781">
        <ele>509.16</ele>
        <time>2024-05-11T10:28:58Z</time>
      </trkpt>
      <trkpt lat="44.96606" lon="4.77808">
        <ele>509.16</ele>
        <time>2024-05-11T10:28:57Z</time>
      </trkpt>
      <trkpt lat="44.96606" lon="4.77806">
        <ele>509.16</ele>
        <time>2024-05-11T10:28:56Z</time>
      </trkpt>
      <trkpt lat="44.96606" lon="4.77804">
        <ele>509.16</ele>
        <time>2024-05-11T10:28:55Z</time>
      </trkpt>
      <trkpt lat="44.96606" lon="4.77801">
        <ele>509.16</ele>
        <time>2024-05-11T10:28:54Z</time>
      </trkpt>
      <trkpt lat="44.96605" lon="4.77799">
        <ele>509.64</ele>
        <time>2024-05-11T10:28:53Z</time>
      </trkpt>
      <trkpt lat="44.96604" lon="4.77798">
        <ele>509.64</ele>
        <time>2024-05-11T10:28:52Z</time>
      </trkpt>
      <trkpt lat="44.96603" lon="4.77796">
        <ele>509.64</ele>
        <time>2024-05-11T10:28:51Z</time>
      </trkpt>
      <trkpt lat="44.96602" lon="4.77794">
        <ele>509.64</ele>
        <time>2024-05-11T10:28:50Z</time>
      </trkpt>
      <trkpt lat="44.96589" lon="4.7777">
        <ele>510.6</ele>
        <time>2024-05-11T10:28:33Z</time>
      </trkpt>
      <trkpt lat="44.96573" lon="4.77741">
        <ele>513.48</ele>
        <time>2024-05-11T10:28:15Z</time>
      </trkpt>
      <trkpt lat="44.96562" lon="4.77725">
        <ele>517.33</ele>
        <time>2024-05-11T10:28:00Z</time>
      </trkpt>
      <trkpt lat="44.96561" lon="4.77724">
        <ele>517.33</ele>
        <time>2024-05-11T10:27:59Z</time>
      </trkpt>
      <trkpt lat="44.9656" lon="4.77717">
        <ele>516.85</ele>
        <time>2024-05-11T10:27:52Z</time>
      </trkpt>
      <trkpt lat="44.96564" lon="4.77705">
        <ele>514.92</ele>
        <time>2024-05-11T10:27:28Z</time>
      </trkpt>
      <trkpt lat="44.96568" lon="4.777">
        <ele>516.37</ele>
        <time>2024-05-11T10:27:09Z</time>
      </trkpt>
      <trkpt lat="44.96587" lon="4.77696">
        <ele>516.37</ele>
        <time>2024-05-11T10:26:50Z</time>
      </trkpt>
      <trkpt lat="44.966" lon="4.77692">
        <ele>516.37</ele>
        <time>2024-05-11T10:26:36Z</time>
      </trkpt>
      <trkpt lat="44.96626" lon="4.77688">
        <ele>519.25</ele>
        <time>2024-05-11T10:26:18Z</time>
      </trkpt>
      <trkpt lat="44.96627" lon="4.77688">
        <ele>519.73</ele>
        <time>2024-05-11T10:26:17Z</time>
      </trkpt>
      <trkpt lat="44.96628" lon="4.77689">
        <ele>520.21</ele>
        <time>2024-05-11T10:26:16Z</time>
      </trkpt>
      <trkpt lat="44.9663" lon="4.77688">
        <ele>520.21</ele>
        <time>2024-05-11T10:26:15Z</time>
      </trkpt>
      <trkpt lat="44.96631" lon="4.77688">
        <ele>520.69</ele>
        <time>2024-05-11T10:26:14Z</time>
      </trkpt>
      <trkpt lat="44.96656" lon="4.7769">
        <ele>525.98</ele>
        <time>2024-05-11T10:25:57Z</time>
      </trkpt>
      <trkpt lat="44.96679" lon="4.77691">
        <ele>531.27</ele>
        <time>2024-05-11T10:25:36Z</time>
      </trkpt>
      <trkpt lat="44.96702" lon="4.7769">
        <ele>536.55</ele>
        <time>2024-05-11T10:25:17Z</time>
      </trkpt>
      <trkpt lat="44.96703" lon="4.77689">
        <ele>537.03</ele>
        <time>2024-05-11T10:25:16Z</time>
      </trkpt>
      <trkpt lat="44.96704" lon="4.77689">
        <ele>537.03</ele>
        <time>2024-05-11T10:25:15Z</time>
      </trkpt>
      <trkpt lat="44.96724" lon="4.77677">
        <ele>542.8</ele>
        <time>2024-05-11T10:24:56Z</time>
      </trkpt>
      <trkpt lat="44.9673" lon="4.77668">
        <ele>542.8</ele>
        <time>2024-05-11T10:24:33Z</time>
      </trkpt>
      <trkpt lat="44.96728" lon="4.77663">
        <ele>541.84</ele>
        <time>2024-05-11T10:24:12Z</time>
      </trkpt>
      <trkpt lat="44.96726" lon="4.77667">
        <ele>540.88</ele>
        <time>2024-05-11T10:23:39Z</time>
      </trkpt>
      <trkpt lat="44.96725" lon="4.77665">
        <ele>541.84</ele>
        <time>2024-05-11T10:23:26Z</time>
      </trkpt>
      <trkpt lat="44.96727" lon="4.7765">
        <ele>542.8</ele>
        <time>2024-05-11T10:23:13Z</time>
      </trkpt>
      <trkpt lat="44.96735" lon="4.77638">
        <ele>544.24</ele>
        <time>2024-05-11T10:22:58Z</time>
      </trkpt>
      <trkpt lat="44.96734" lon="4.77636">
        <ele>543.28</ele>
        <time>2024-05-11T10:22:40Z</time>
      </trkpt>
      <trkpt lat="44.96733" lon="4.77633">
        <ele>543.76</ele>
        <time>2024-05-11T10:22:24Z</time>
      </trkpt>
      <trkpt lat="44.96737" lon="4.77631">
        <ele>542.32</ele>
        <time>2024-05-11T10:22:12Z</time>
      </trkpt>
      <trkpt lat="44.96763" lon="4.77606">
        <ele>540.88</ele>
        <time>2024-05-11T10:21:51Z</time>
      </trkpt>
      <trkpt lat="44.96786" lon="4.77589">
        <ele>538.48</ele>
        <time>2024-05-11T10:21:34Z</time>
      </trkpt>
      <trkpt lat="44.96812" lon="4.77569">
        <ele>537.03</ele>
        <time>2024-05-11T10:21:15Z</time>
      </trkpt>
      <trkpt lat="44.96824" lon="4.77556">
        <ele>536.07</ele>
        <time>2024-05-11T10:21:00Z</time>
      </trkpt>
      <trkpt lat="44.96829" lon="4.77548">
        <ele>536.07</ele>
        <time>2024-05-11T10:20:46Z</time>
      </trkpt>
      <trkpt lat="44.96835" lon="4.7754">
        <ele>536.07</ele>
        <time>2024-05-11T10:20:29Z</time>
      </trkpt>
      <trkpt lat="44.9686" lon="4.77514">
        <ele>535.59</ele>
        <time>2024-05-11T10:20:09Z</time>
      </trkpt>
      <trkpt lat="44.96862" lon="4.77514">
        <ele>535.59</ele>
        <time>2024-05-11T10:20:08Z</time>
      </trkpt>
      <trkpt lat="44.96866" lon="4.77496">
        <ele>534.63</ele>
        <time>2024-05-11T10:19:55Z</time>
      </trkpt>
      <trkpt lat="44.96861" lon="4.77464">
        <ele>535.59</ele>
        <time>2024-05-11T10:19:38Z</time>
      </trkpt>
      <trkpt lat="44.9686" lon="4.77437">
        <ele>535.11</ele>
        <time>2024-05-11T10:19:24Z</time>
      </trkpt>
      <trkpt lat="44.96849" lon="4.77405">
        <ele>537.03</ele>
        <time>2024-05-11T10:19:07Z</time>
      </trkpt>
      <trkpt lat="44.96849" lon="4.77404">
        <ele>537.03</ele>
        <time>2024-05-11T10:19:06Z</time>
      </trkpt>
      <trkpt lat="44.96849" lon="4.77384">
        <ele>537.03</ele>
        <time>2024-05-11T10:18:55Z</time>
      </trkpt>
      <trkpt lat="44.96851" lon="4.77356">
        <ele>537.99</ele>
        <time>2024-05-11T10:18:39Z</time>
      </trkpt>
      <trkpt lat="44.96851" lon="4.77354">
        <ele>537.99</ele>
        <time>2024-05-11T10:18:38Z</time>
      </trkpt>
      <trkpt lat="44.9685" lon="4.77353">
        <ele>537.99</ele>
        <time>2024-05-11T10:18:37Z</time>
      </trkpt>
      <trkpt lat="44.96849" lon="4.77351">
        <ele>537.99</ele>
        <time>2024-05-11T10:18:36Z</time>
      </trkpt>
      <trkpt lat="44.96847" lon="4.77349">
        <ele>537.99</ele>
        <time>2024-05-11T10:18:35Z</time>
      </trkpt>
      <trkpt lat="44.96846" lon="4.77347">
        <ele>537.99</ele>
        <time>2024-05-11T10:18:34Z</time>
      </trkpt>
      <trkpt lat="44.96827" lon="4.77325">
        <ele>540.88</ele>
        <time>2024-05-11T10:18:22Z</time>
      </trkpt>
      <trkpt lat="44.96812" lon="4.77299">
        <ele>542.32</ele>
        <time>2024-05-11T10:18:06Z</time>
      </trkpt>
      <trkpt lat="44.96798" lon="4.77262">
        <ele>543.76</ele>
        <time>2024-05-11T10:17:46Z</time>
      </trkpt>
      <trkpt lat="44.96776" lon="4.77234">
        <ele>546.17</ele>
        <time>2024-05-11T10:17:27Z</time>
      </trkpt>
      <trkpt lat="44.96754" lon="4.77219">
        <ele>548.57</ele>
        <time>2024-05-11T10:17:12Z</time>
      </trkpt>
      <trkpt lat="44.96747" lon="4.77215">
        <ele>550.01</ele>
        <time>2024-05-11T10:17:07Z</time>
      </trkpt>
      <trkpt lat="44.96725" lon="4.77214">
        <ele>554.82</ele>
        <time>2024-05-11T10:16:51Z</time>
      </trkpt>
      <trkpt lat="44.96705" lon="4.77204">
        <ele>558.66</ele>
        <time>2024-05-11T10:16:35Z</time>
      </trkpt>
      <trkpt lat="44.96705" lon="4.772">
        <ele>559.14</ele>
        <time>2024-05-11T10:16:31Z</time>
      </trkpt>
      <trkpt lat="44.96705" lon="4.77198">
        <ele>559.14</ele>
        <time>2024-05-11T10:16:30Z</time>
      </trkpt>
      <trkpt lat="44.96723" lon="4.77196">
        <ele>560.11</ele>
        <time>2024-05-11T10:16:19Z</time>
      </trkpt>
      <trkpt lat="44.96754" lon="4.77194">
        <ele>562.51</ele>
        <time>2024-05-11T10:15:59Z</time>
      </trkpt>
      <trkpt lat="44.9678" lon="4.772">
        <ele>562.03</ele>
        <time>2024-05-11T10:15:42Z</time>
      </trkpt>
      <trkpt lat="44.96781" lon="4.77199">
        <ele>561.55</ele>
        <time>2024-05-11T10:15:41Z</time>
      </trkpt>
      <trkpt lat="44.96782" lon="4.77199">
        <ele>561.55</ele>
        <time>2024-05-11T10:15:40Z</time>
      </trkpt>
      <trkpt lat="44.96784" lon="4.77199">
        <ele>561.55</ele>
        <time>2024-05-11T10:15:38Z</time>
      </trkpt>
      <trkpt lat="44.96777" lon="4.77199">
        <ele>559.62</ele>
        <time>2024-05-11T10:15:24Z</time>
      </trkpt>
      <trkpt lat="44.96752" lon="4.77194">
        <ele>562.03</ele>
        <time>2024-05-11T10:15:07Z</time>
      </trkpt>
      <trkpt lat="44.96728" lon="4.7719">
        <ele>562.99</ele>
        <time>2024-05-11T10:14:50Z</time>
      </trkpt>
      <trkpt lat="44.96716" lon="4.77159">
        <ele>565.39</ele>
        <time>2024-05-11T10:14:31Z</time>
      </trkpt>
      <trkpt lat="44.96729" lon="4.77129">
        <ele>567.32</ele>
        <time>2024-05-11T10:14:13Z</time>
      </trkpt>
      <trkpt lat="44.96747" lon="4.77098">
        <ele>567.8</ele>
        <time>2024-05-11T10:13:57Z</time>
      </trkpt>
      <trkpt lat="44.96766" lon="4.77067">
        <ele>567.8</ele>
        <time>2024-05-11T10:13:38Z</time>
      </trkpt>
      <trkpt lat="44.96783" lon="4.7704">
        <ele>569.24</ele>
        <time>2024-05-11T10:13:21Z</time>
      </trkpt>
      <trkpt lat="44.96785" lon="4.77039">
        <ele>569.24</ele>
        <time>2024-05-11T10:13:20Z</time>
      </trkpt>
      <trkpt lat="44.96786" lon="4.77039">
        <ele>569.72</ele>
        <time>2024-05-11T10:13:19Z</time>
      </trkpt>
      <trkpt lat="44.96797" lon="4.77048">
        <ele>572.12</ele>
        <time>2024-05-11T10:13:10Z</time>
      </trkpt>
      <trkpt lat="44.96814" lon="4.77063">
        <ele>579.33</ele>
        <time>2024-05-11T10:12:56Z</time>
      </trkpt>
      <trkpt lat="44.96815" lon="4.77065">
        <ele>579.81</ele>
        <time>2024-05-11T10:12:55Z</time>
      </trkpt>
      <trkpt lat="44.96822" lon="4.77071">
        <ele>583.66</ele>
        <time>2024-05-11T10:12:47Z</time>
      </trkpt>
      <trkpt lat="44.96823" lon="4.77072">
        <ele>583.66</ele>
        <time>2024-05-11T10:12:46Z</time>
      </trkpt>
      <trkpt lat="44.96825" lon="4.77072">
        <ele>584.14</ele>
        <time>2024-05-11T10:12:45Z</time>
      </trkpt>
      <trkpt lat="44.96827" lon="4.77072">
        <ele>584.62</ele>
        <time>2024-05-11T10:12:44Z</time>
      </trkpt>
      <trkpt lat="44.96828" lon="4.77072">
        <ele>585.1</ele>
        <time>2024-05-11T10:12:43Z</time>
      </trkpt>
      <trkpt lat="44.96845" lon="4.77083">
        <ele>590.39</ele>
        <time>2024-05-11T10:12:31Z</time>
      </trkpt>
      <trkpt lat="44.96846" lon="4.77084">
        <ele>590.39</ele>
        <time>2024-05-11T10:12:30Z</time>
      </trkpt>
      <trkpt lat="44.96847" lon="4.77086">
        <ele>590.87</ele>
        <time>2024-05-11T10:12:29Z</time>
      </trkpt>
      <trkpt lat="44.96852" lon="4.77093">
        <ele>591.83</ele>
        <time>2024-05-11T10:12:24Z</time>
      </trkpt>
      <trkpt lat="44.96872" lon="4.77085">
        <ele>594.23</ele>
        <time>2024-05-11T10:12:07Z</time>
      </trkpt>
      <trkpt lat="44.96879" lon="4.77081">
        <ele>594.23</ele>
        <time>2024-05-11T10:12:01Z</time>
      </trkpt>
      <trkpt lat="44.96882" lon="4.77082">
        <ele>593.27</ele>
        <time>2024-05-11T10:11:59Z</time>
      </trkpt>
      <trkpt lat="44.96884" lon="4.77082">
        <ele>592.79</ele>
        <time>2024-05-11T10:11:58Z</time>
      </trkpt>
      <trkpt lat="44.96885" lon="4.77082">
        <ele>592.31</ele>
        <time>2024-05-11T10:11:57Z</time>
      </trkpt>
      <trkpt lat="44.96887" lon="4.77082">
        <ele>592.31</ele>
        <time>2024-05-11T10:11:56Z</time>
      </trkpt>
      <trkpt lat="44.9689" lon="4.77081">
        <ele>592.31</ele>
        <time>2024-05-11T10:11:55Z</time>
      </trkpt>
      <trkpt lat="44.96894" lon="4.7708">
        <ele>592.31</ele>
        <time>2024-05-11T10:11:46Z</time>
      </trkpt>
      <trkpt lat="44.96895" lon="4.77079">
        <ele>591.35</ele>
        <time>2024-05-11T10:11:24Z</time>
      </trkpt>
      <trkpt lat="44.96906" lon="4.77078">
        <ele>594.23</ele>
        <time>2024-05-11T10:11:04Z</time>
      </trkpt>
      <trkpt lat="44.96927" lon="4.77079">
        <ele>596.64</ele>
        <time>2024-05-11T10:10:50Z</time>
      </trkpt>
      <trkpt lat="44.96954" lon="4.77093">
        <ele>600</ele>
        <time>2024-05-11T10:10:31Z</time>
      </trkpt>
      <trkpt lat="44.96978" lon="4.77108">
        <ele>602.88</ele>
        <time>2024-05-11T10:10:14Z</time>
      </trkpt>
      <trkpt lat="44.97001" lon="4.77129">
        <ele>603.85</ele>
        <time>2024-05-11T10:09:57Z</time>
      </trkpt>
      <trkpt lat="44.97015" lon="4.77147">
        <ele>606.73</ele>
        <time>2024-05-11T10:09:43Z</time>
      </trkpt>
      <trkpt lat="44.9704" lon="4.77167">
        <ele>608.65</ele>
        <time>2024-05-11T10:09:25Z</time>
      </trkpt>
      <trkpt lat="44.97063" lon="4.77189">
        <ele>606.25</ele>
        <time>2024-05-11T10:09:07Z</time>
      </trkpt>
      <trkpt lat="44.97082" lon="4.77203">
        <ele>602.4</ele>
        <time>2024-05-11T10:08:52Z</time>
      </trkpt>
      <trkpt lat="44.97098" lon="4.77227">
        <ele>602.4</ele>
        <time>2024-05-11T10:08:32Z</time>
      </trkpt>
      <trkpt lat="44.97114" lon="4.77254">
        <ele>601.92</ele>
        <time>2024-05-11T10:08:17Z</time>
      </trkpt>
      <trkpt lat="44.97127" lon="4.77285">
        <ele>599.52</ele>
        <time>2024-05-11T10:07:58Z</time>
      </trkpt>
      <trkpt lat="44.9714" lon="4.77308">
        <ele>596.64</ele>
        <time>2024-05-11T10:07:42Z</time>
      </trkpt>
      <trkpt lat="44.97155" lon="4.77338">
        <ele>595.67</ele>
        <time>2024-05-11T10:07:26Z</time>
      </trkpt>
      <trkpt lat="44.97173" lon="4.77372">
        <ele>597.6</ele>
        <time>2024-05-11T10:07:07Z</time>
      </trkpt>
      <trkpt lat="44.97194" lon="4.774">
        <ele>599.04</ele>
        <time>2024-05-11T10:06:49Z</time>
      </trkpt>
      <trkpt lat="44.9722" lon="4.77426">
        <ele>603.36</ele>
        <time>2024-05-11T10:06:28Z</time>
      </trkpt>
      <trkpt lat="44.9724" lon="4.77446">
        <ele>606.73</ele>
        <time>2024-05-11T10:06:11Z</time>
      </trkpt>
      <trkpt lat="44.97268" lon="4.77465">
        <ele>608.65</ele>
        <time>2024-05-11T10:05:53Z</time>
      </trkpt>
      <trkpt lat="44.97286" lon="4.77483">
        <ele>612.98</ele>
        <time>2024-05-11T10:05:39Z</time>
      </trkpt>
      <trkpt lat="44.97293" lon="4.77487">
        <ele>613.46</ele>
        <time>2024-05-11T10:05:35Z</time>
      </trkpt>
      <trkpt lat="44.97311" lon="4.7751">
        <ele>613.94</ele>
        <time>2024-05-11T10:05:19Z</time>
      </trkpt>
      <trkpt lat="44.97323" lon="4.77544">
        <ele>609.13</ele>
        <time>2024-05-11T10:05:02Z</time>
      </trkpt>
      <trkpt lat="44.97334" lon="4.77566">
        <ele>609.13</ele>
        <time>2024-05-11T10:04:51Z</time>
      </trkpt>
      <trkpt lat="44.97342" lon="4.77592">
        <ele>611.06</ele>
        <time>2024-05-11T10:04:37Z</time>
      </trkpt>
      <trkpt lat="44.97353" lon="4.77625">
        <ele>612.02</ele>
        <time>2024-05-11T10:04:19Z</time>
      </trkpt>
      <trkpt lat="44.97359" lon="4.77658">
        <ele>612.98</ele>
        <time>2024-05-11T10:04:02Z</time>
      </trkpt>
      <trkpt lat="44.9738" lon="4.77695">
        <ele>612.02</ele>
        <time>2024-05-11T10:03:42Z</time>
      </trkpt>
      <trkpt lat="44.97404" lon="4.77721">
        <ele>612.5</ele>
        <time>2024-05-11T10:03:23Z</time>
      </trkpt>
      <trkpt lat="44.97427" lon="4.77738">
        <ele>613.94</ele>
        <time>2024-05-11T10:03:06Z</time>
      </trkpt>
      <trkpt lat="44.9745" lon="4.77748">
        <ele>616.82</ele>
        <time>2024-05-11T10:02:50Z</time>
      </trkpt>
      <trkpt lat="44.97451" lon="4.77749">
        <ele>616.82</ele>
        <time>2024-05-11T10:02:49Z</time>
      </trkpt>
      <trkpt lat="44.97461" lon="4.77753">
        <ele>617.3</ele>
        <time>2024-05-11T10:02:42Z</time>
      </trkpt>
      <trkpt lat="44.97483" lon="4.77764">
        <ele>618.75</ele>
        <time>2024-05-11T10:02:26Z</time>
      </trkpt>
      <trkpt lat="44.9751" lon="4.77776">
        <ele>617.3</ele>
        <time>2024-05-11T10:02:09Z</time>
      </trkpt>
      <trkpt lat="44.97535" lon="4.77786">
        <ele>618.75</ele>
        <time>2024-05-11T10:01:50Z</time>
      </trkpt>
      <trkpt lat="44.97558" lon="4.77799">
        <ele>620.67</ele>
        <time>2024-05-11T10:01:33Z</time>
      </trkpt>
      <trkpt lat="44.97577" lon="4.77815">
        <ele>622.11</ele>
        <time>2024-05-11T10:01:19Z</time>
      </trkpt>
      <trkpt lat="44.97599" lon="4.77833">
        <ele>620.67</ele>
        <time>2024-05-11T10:01:05Z</time>
      </trkpt>
      <trkpt lat="44.97617" lon="4.77839">
        <ele>617.78</ele>
        <time>2024-05-11T10:00:53Z</time>
      </trkpt>
      <trkpt lat="44.9764" lon="4.77846">
        <ele>616.34</ele>
        <time>2024-05-11T10:00:39Z</time>
      </trkpt>
      <trkpt lat="44.97669" lon="4.77857">
        <ele>613.94</ele>
        <time>2024-05-11T10:00:21Z</time>
      </trkpt>
      <trkpt lat="44.97693" lon="4.77865">
        <ele>611.54</ele>
        <time>2024-05-11T10:00:06Z</time>
      </trkpt>
      <trkpt lat="44.9772" lon="4.7789">
        <ele>611.06</ele>
        <time>2024-05-11T09:59:46Z</time>
      </trkpt>
      <trkpt lat="44.97746" lon="4.77909">
        <ele>611.06</ele>
        <time>2024-05-11T09:59:27Z</time>
      </trkpt>
      <trkpt lat="44.97775" lon="4.77936">
        <ele>611.06</ele>
        <time>2024-05-11T09:59:05Z</time>
      </trkpt>
      <trkpt lat="44.97792" lon="4.77958">
        <ele>610.09</ele>
        <time>2024-05-11T09:58:51Z</time>
      </trkpt>
      <trkpt lat="44.97821" lon="4.77981">
        <ele>609.13</ele>
        <time>2024-05-11T09:58:33Z</time>
      </trkpt>
      <trkpt lat="44.97848" lon="4.78004">
        <ele>610.57</ele>
        <time>2024-05-11T09:58:13Z</time>
      </trkpt>
      <trkpt lat="44.97876" lon="4.78021">
        <ele>613.46</ele>
        <time>2024-05-11T09:57:53Z</time>
      </trkpt>
      <trkpt lat="44.97903" lon="4.78036">
        <ele>613.94</ele>
        <time>2024-05-11T09:57:35Z</time>
      </trkpt>
      <trkpt lat="44.97929" lon="4.78051">
        <ele>612.98</ele>
        <time>2024-05-11T09:57:18Z</time>
      </trkpt>
      <trkpt lat="44.97956" lon="4.78067">
        <ele>610.57</ele>
        <time>2024-05-11T09:57:00Z</time>
      </trkpt>
      <trkpt lat="44.97958" lon="4.78067">
        <ele>610.09</ele>
        <time>2024-05-11T09:56:59Z</time>
      </trkpt>
      <trkpt lat="44.97986" lon="4.78075">
        <ele>603.36</ele>
        <time>2024-05-11T09:56:44Z</time>
      </trkpt>
      <trkpt lat="44.98013" lon="4.78088">
        <ele>607.21</ele>
        <time>2024-05-11T09:56:25Z</time>
      </trkpt>
      <trkpt lat="44.98035" lon="4.78099">
        <ele>611.06</ele>
        <time>2024-05-11T09:56:09Z</time>
      </trkpt>
      <trkpt lat="44.98056" lon="4.78111">
        <ele>615.38</ele>
        <time>2024-05-11T09:55:51Z</time>
      </trkpt>
      <trkpt lat="44.98088" lon="4.78128">
        <ele>616.34</ele>
        <time>2024-05-11T09:55:28Z</time>
      </trkpt>
      <trkpt lat="44.98113" lon="4.78141">
        <ele>614.9</ele>
        <time>2024-05-11T09:55:12Z</time>
      </trkpt>
      <trkpt lat="44.98141" lon="4.78154">
        <ele>614.9</ele>
        <time>2024-05-11T09:54:54Z</time>
      </trkpt>
      <trkpt lat="44.98163" lon="4.78166">
        <ele>615.38</ele>
        <time>2024-05-11T09:54:37Z</time>
      </trkpt>
      <trkpt lat="44.98164" lon="4.78167">
        <ele>615.38</ele>
        <time>2024-05-11T09:54:36Z</time>
      </trkpt>
      <trkpt lat="44.98165" lon="4.78168">
        <ele>615.38</ele>
        <time>2024-05-11T09:54:35Z</time>
      </trkpt>
      <trkpt lat="44.98167" lon="4.78171">
        <ele>615.38</ele>
        <time>2024-05-11T09:54:22Z</time>
      </trkpt>
      <trkpt lat="44.98172" lon="4.78171">
        <ele>615.38</ele>
        <time>2024-05-11T09:54:06Z</time>
      </trkpt>
      <trkpt lat="44.98173" lon="4.7817">
        <ele>614.9</ele>
        <time>2024-05-11T09:53:54Z</time>
      </trkpt>
      <trkpt lat="44.98176" lon="4.78157">
        <ele>615.38</ele>
        <time>2024-05-11T09:53:46Z</time>
      </trkpt>
      <trkpt lat="44.98175" lon="4.78116">
        <ele>613.46</ele>
        <time>2024-05-11T09:53:26Z</time>
      </trkpt>
      <trkpt lat="44.98182" lon="4.78073">
        <ele>608.17</ele>
        <time>2024-05-11T09:53:03Z</time>
      </trkpt>
      <trkpt lat="44.98189" lon="4.78037">
        <ele>603.85</ele>
        <time>2024-05-11T09:52:45Z</time>
      </trkpt>
      <trkpt lat="44.98192" lon="4.77999">
        <ele>598.56</ele>
        <time>2024-05-11T09:52:26Z</time>
      </trkpt>
      <trkpt lat="44.98191" lon="4.77968">
        <ele>593.75</ele>
        <time>2024-05-11T09:52:11Z</time>
      </trkpt>
      <trkpt lat="44.98183" lon="4.77932">
        <ele>587.5</ele>
        <time>2024-05-11T09:51:53Z</time>
      </trkpt>
      <trkpt lat="44.9817" lon="4.77907">
        <ele>585.1</ele>
        <time>2024-05-11T09:51:38Z</time>
      </trkpt>
      <trkpt lat="44.98169" lon="4.77906">
        <ele>584.62</ele>
        <time>2024-05-11T09:51:37Z</time>
      </trkpt>
      <trkpt lat="44.98169" lon="4.77904">
        <ele>584.62</ele>
        <time>2024-05-11T09:51:36Z</time>
      </trkpt>
      <trkpt lat="44.98169" lon="4.77902">
        <ele>584.14</ele>
        <time>2024-05-11T09:51:35Z</time>
      </trkpt>
      <trkpt lat="44.98169" lon="4.779">
        <ele>584.14</ele>
        <time>2024-05-11T09:51:34Z</time>
      </trkpt>
      <trkpt lat="44.98175" lon="4.77885">
        <ele>583.18</ele>
        <time>2024-05-11T09:51:24Z</time>
      </trkpt>
      <trkpt lat="44.98177" lon="4.77857">
        <ele>581.25</ele>
        <time>2024-05-11T09:51:11Z</time>
      </trkpt>
      <trkpt lat="44.98198" lon="4.77835">
        <ele>580.29</ele>
        <time>2024-05-11T09:50:55Z</time>
      </trkpt>
      <trkpt lat="44.98224" lon="4.77822">
        <ele>581.25</ele>
        <time>2024-05-11T09:50:37Z</time>
      </trkpt>
      <trkpt lat="44.98263" lon="4.7782">
        <ele>585.1</ele>
        <time>2024-05-11T09:50:12Z</time>
      </trkpt>
      <trkpt lat="44.98304" lon="4.77828">
        <ele>585.1</ele>
        <time>2024-05-11T09:49:46Z</time>
      </trkpt>
      <trkpt lat="44.98339" lon="4.77838">
        <ele>581.73</ele>
        <time>2024-05-11T09:49:22Z</time>
      </trkpt>
      <trkpt lat="44.98374" lon="4.77848">
        <ele>578.85</ele>
        <time>2024-05-11T09:49:01Z</time>
      </trkpt>
      <trkpt lat="44.98404" lon="4.77856">
        <ele>576.93</ele>
        <time>2024-05-11T09:48:41Z</time>
      </trkpt>
      <trkpt lat="44.98433" lon="4.77866">
        <ele>572.6</ele>
        <time>2024-05-11T09:48:22Z</time>
      </trkpt>
      <trkpt lat="44.98467" lon="4.77872">
        <ele>570.2</ele>
        <time>2024-05-11T09:47:59Z</time>
      </trkpt>
      <trkpt lat="44.98495" lon="4.7787">
        <ele>566.83</ele>
        <time>2024-05-11T09:47:40Z</time>
      </trkpt>
      <trkpt lat="44.98523" lon="4.77868">
        <ele>562.99</ele>
        <time>2024-05-11T09:47:20Z</time>
      </trkpt>
      <trkpt lat="44.98553" lon="4.77866">
        <ele>558.18</ele>
        <time>2024-05-11T09:47:00Z</time>
      </trkpt>
      <trkpt lat="44.98585" lon="4.77869">
        <ele>553.86</ele>
        <time>2024-05-11T09:46:37Z</time>
      </trkpt>
      <trkpt lat="44.9862" lon="4.7787">
        <ele>550.97</ele>
        <time>2024-05-11T09:46:18Z</time>
      </trkpt>
      <trkpt lat="44.98649" lon="4.77867">
        <ele>548.57</ele>
        <time>2024-05-11T09:46:00Z</time>
      </trkpt>
      <trkpt lat="44.98682" lon="4.77857">
        <ele>545.2</ele>
        <time>2024-05-11T09:45:40Z</time>
      </trkpt>
      <trkpt lat="44.98707" lon="4.77823">
        <ele>540.4</ele>
        <time>2024-05-11T09:45:15Z</time>
      </trkpt>
      <trkpt lat="44.98724" lon="4.77797">
        <ele>538.96</ele>
        <time>2024-05-11T09:44:59Z</time>
      </trkpt>
      <trkpt lat="44.98746" lon="4.77763">
        <ele>537.51</ele>
        <time>2024-05-11T09:44:39Z</time>
      </trkpt>
      <trkpt lat="44.98773" lon="4.77737">
        <ele>538.48</ele>
        <time>2024-05-11T09:44:16Z</time>
      </trkpt>
      <trkpt lat="44.988" lon="4.77724">
        <ele>536.55</ele>
        <time>2024-05-11T09:43:56Z</time>
      </trkpt>
      <trkpt lat="44.98822" lon="4.77715">
        <ele>534.63</ele>
        <time>2024-05-11T09:43:39Z</time>
      </trkpt>
      <trkpt lat="44.98851" lon="4.77708">
        <ele>528.86</ele>
        <time>2024-05-11T09:43:19Z</time>
      </trkpt>
      <trkpt lat="44.98879" lon="4.77705">
        <ele>524.06</ele>
        <time>2024-05-11T09:42:59Z</time>
      </trkpt>
      <trkpt lat="44.98909" lon="4.77704">
        <ele>519.25</ele>
        <time>2024-05-11T09:42:39Z</time>
      </trkpt>
      <trkpt lat="44.9893" lon="4.77702">
        <ele>515.88</ele>
        <time>2024-05-11T09:42:23Z</time>
      </trkpt>
      <trkpt lat="44.98942" lon="4.777">
        <ele>514.44</ele>
        <time>2024-05-11T09:42:15Z</time>
      </trkpt>
      <trkpt lat="44.98967" lon="4.77691">
        <ele>509.16</ele>
        <time>2024-05-11T09:41:56Z</time>
      </trkpt>
      <trkpt lat="44.98993" lon="4.77679">
        <ele>504.35</ele>
        <time>2024-05-11T09:41:35Z</time>
      </trkpt>
      <trkpt lat="44.99012" lon="4.7767">
        <ele>500.98</ele>
        <time>2024-05-11T09:41:18Z</time>
      </trkpt>
      <trkpt lat="44.99013" lon="4.77668">
        <ele>500.98</ele>
        <time>2024-05-11T09:41:17Z</time>
      </trkpt>
      <trkpt lat="44.99014" lon="4.77667">
        <ele>500.98</ele>
        <time>2024-05-11T09:41:16Z</time>
      </trkpt>
      <trkpt lat="44.99016" lon="4.77665">
        <ele>500.98</ele>
        <time>2024-05-11T09:41:14Z</time>
      </trkpt>
      <trkpt lat="44.99017" lon="4.77665">
        <ele>500.98</ele>
        <time>2024-05-11T09:41:13Z</time>
      </trkpt>
      <trkpt lat="44.99019" lon="4.77666">
        <ele>500.5</ele>
        <time>2024-05-11T09:41:04Z</time>
      </trkpt>
      <trkpt lat="44.9902" lon="4.77665">
        <ele>500.5</ele>
        <time>2024-05-11T09:40:46Z</time>
      </trkpt>
      <trkpt lat="44.99027" lon="4.77659">
        <ele>497.14</ele>
        <time>2024-05-11T09:40:31Z</time>
      </trkpt>
      <trkpt lat="44.99039" lon="4.77619">
        <ele>494.26</ele>
        <time>2024-05-11T09:40:14Z</time>
      </trkpt>
      <trkpt lat="44.99051" lon="4.77583">
        <ele>493.77</ele>
        <time>2024-05-11T09:39:56Z</time>
      </trkpt>
      <trkpt lat="44.99084" lon="4.77561">
        <ele>487.05</ele>
        <time>2024-05-11T09:39:33Z</time>
      </trkpt>
      <trkpt lat="44.99109" lon="4.77542">
        <ele>482.24</ele>
        <time>2024-05-11T09:39:15Z</time>
      </trkpt>
      <trkpt lat="44.99128" lon="4.77519">
        <ele>481.76</ele>
        <time>2024-05-11T09:38:57Z</time>
      </trkpt>
      <trkpt lat="44.99144" lon="4.77482">
        <ele>479.35</ele>
        <time>2024-05-11T09:38:36Z</time>
      </trkpt>
      <trkpt lat="44.99144" lon="4.7748">
        <ele>479.35</ele>
        <time>2024-05-11T09:38:35Z</time>
      </trkpt>
      <trkpt lat="44.99144" lon="4.77477">
        <ele>479.35</ele>
        <time>2024-05-11T09:38:34Z</time>
      </trkpt>
      <trkpt lat="44.99144" lon="4.77475">
        <ele>479.35</ele>
        <time>2024-05-11T09:38:33Z</time>
      </trkpt>
      <trkpt lat="44.99144" lon="4.77473">
        <ele>479.35</ele>
        <time>2024-05-11T09:38:32Z</time>
      </trkpt>
      <trkpt lat="44.99138" lon="4.77464">
        <ele>479.84</ele>
        <time>2024-05-11T09:38:26Z</time>
      </trkpt>
      <trkpt lat="44.99118" lon="4.77444">
        <ele>478.39</ele>
        <time>2024-05-11T09:38:10Z</time>
      </trkpt>
      <trkpt lat="44.991" lon="4.77429">
        <ele>478.87</ele>
        <time>2024-05-11T09:37:54Z</time>
      </trkpt>
      <trkpt lat="44.99068" lon="4.77414">
        <ele>477.91</ele>
        <time>2024-05-11T09:37:33Z</time>
      </trkpt>
      <trkpt lat="44.99041" lon="4.77416">
        <ele>477.91</ele>
        <time>2024-05-11T09:37:15Z</time>
      </trkpt>
      <trkpt lat="44.9902" lon="4.77439">
        <ele>477.91</ele>
        <time>2024-05-11T09:36:56Z</time>
      </trkpt>
      <trkpt lat="44.99019" lon="4.77439">
        <ele>477.91</ele>
        <time>2024-05-11T09:36:55Z</time>
      </trkpt>
      <trkpt lat="44.99018" lon="4.7744">
        <ele>477.91</ele>
        <time>2024-05-11T09:36:54Z</time>
      </trkpt>
      <trkpt lat="44.99017" lon="4.7744">
        <ele>478.39</ele>
        <time>2024-05-11T09:36:53Z</time>
      </trkpt>
      <trkpt lat="44.99015" lon="4.7744">
        <ele>478.39</ele>
        <time>2024-05-11T09:36:52Z</time>
      </trkpt>
      <trkpt lat="44.99013" lon="4.77439">
        <ele>478.87</ele>
        <time>2024-05-11T09:36:50Z</time>
      </trkpt>
      <trkpt lat="44.99003" lon="4.77411">
        <ele>481.28</ele>
        <time>2024-05-11T09:36:34Z</time>
      </trkpt>
      <trkpt lat="44.98987" lon="4.77386">
        <ele>479.84</ele>
        <time>2024-05-11T09:36:18Z</time>
      </trkpt>
      <trkpt lat="44.98981" lon="4.77378">
        <ele>475.99</ele>
        <time>2024-05-11T09:35:55Z</time>
      </trkpt>
      <trkpt lat="44.9898" lon="4.77379">
        <ele>475.03</ele>
        <time>2024-05-11T09:35:32Z</time>
      </trkpt>
      <trkpt lat="44.98978" lon="4.77371">
        <ele>475.51</ele>
        <time>2024-05-11T09:35:17Z</time>
      </trkpt>
      <trkpt lat="44.98976" lon="4.77365">
        <ele>475.03</ele>
        <time>2024-05-11T09:34:55Z</time>
      </trkpt>
      <trkpt lat="44.98973" lon="4.77363">
        <ele>475.99</ele>
        <time>2024-05-11T09:34:36Z</time>
      </trkpt>
      <trkpt lat="44.98975" lon="4.77363">
        <ele>475.51</ele>
        <time>2024-05-11T09:34:16Z</time>
      </trkpt>
      <trkpt lat="44.98976" lon="4.77362">
        <ele>474.55</ele>
        <time>2024-05-11T09:33:54Z</time>
      </trkpt>
      <trkpt lat="44.98973" lon="4.77366">
        <ele>470.22</ele>
        <time>2024-05-11T09:33:33Z</time>
      </trkpt>
      <trkpt lat="44.98975" lon="4.77369">
        <ele>468.3</ele>
        <time>2024-05-11T09:33:11Z</time>
      </trkpt>
      <trkpt lat="44.98976" lon="4.7737">
        <ele>468.3</ele>
        <time>2024-05-11T09:32:58Z</time>
      </trkpt>
      <trkpt lat="44.98979" lon="4.7736">
        <ele>462.53</ele>
        <time>2024-05-11T09:32:41Z</time>
      </trkpt>
      <trkpt lat="44.9898" lon="4.77358">
        <ele>462.53</ele>
        <time>2024-05-11T09:32:40Z</time>
      </trkpt>
      <trkpt lat="44.98991" lon="4.77355">
        <ele>464.93</ele>
        <time>2024-05-11T09:32:31Z</time>
      </trkpt>
      <trkpt lat="44.98992" lon="4.77354">
        <ele>465.42</ele>
        <time>2024-05-11T09:32:30Z</time>
      </trkpt>
      <trkpt lat="44.98993" lon="4.77353">
        <ele>465.9</ele>
        <time>2024-05-11T09:32:29Z</time>
      </trkpt>
      <trkpt lat="44.98994" lon="4.77352">
        <ele>466.38</ele>
        <time>2024-05-11T09:32:28Z</time>
      </trkpt>
      <trkpt lat="44.98995" lon="4.77349">
        <ele>466.38</ele>
        <time>2024-05-11T09:32:27Z</time>
      </trkpt>
      <trkpt lat="44.98996" lon="4.77348">
        <ele>466.38</ele>
        <time>2024-05-11T09:32:26Z</time>
      </trkpt>
      <trkpt lat="44.98996" lon="4.77347">
        <ele>466.86</ele>
        <time>2024-05-11T09:32:25Z</time>
      </trkpt>
      <trkpt lat="44.98993" lon="4.7732">
        <ele>471.18</ele>
        <time>2024-05-11T09:32:12Z</time>
      </trkpt>
      <trkpt lat="44.98974" lon="4.77299">
        <ele>476.95</ele>
        <time>2024-05-11T09:31:56Z</time>
      </trkpt>
      <trkpt lat="44.98959" lon="4.77276">
        <ele>482.72</ele>
        <time>2024-05-11T09:31:41Z</time>
      </trkpt>
      <trkpt lat="44.98945" lon="4.77251">
        <ele>485.12</ele>
        <time>2024-05-11T09:31:26Z</time>
      </trkpt>
      <trkpt lat="44.98932" lon="4.77225">
        <ele>488.01</ele>
        <time>2024-05-11T09:31:11Z</time>
      </trkpt>
      <trkpt lat="44.98921" lon="4.7721">
        <ele>490.41</ele>
        <time>2024-05-11T09:30:58Z</time>
      </trkpt>
      <trkpt lat="44.98923" lon="4.77174">
        <ele>492.81</ele>
        <time>2024-05-11T09:30:40Z</time>
      </trkpt>
      <trkpt lat="44.98929" lon="4.77135">
        <ele>497.14</ele>
        <time>2024-05-11T09:30:21Z</time>
      </trkpt>
      <trkpt lat="44.98933" lon="4.77095">
        <ele>499.06</ele>
        <time>2024-05-11T09:30:01Z</time>
      </trkpt>
      <trkpt lat="44.98949" lon="4.7706">
        <ele>503.39</ele>
        <time>2024-05-11T09:29:40Z</time>
      </trkpt>
      <trkpt lat="44.98965" lon="4.77016">
        <ele>506.27</ele>
        <time>2024-05-11T09:29:18Z</time>
      </trkpt>
      <trkpt lat="44.98993" lon="4.76979">
        <ele>507.23</ele>
        <time>2024-05-11T09:28:55Z</time>
      </trkpt>
      <trkpt lat="44.99009" lon="4.76947">
        <ele>506.27</ele>
        <time>2024-05-11T09:28:36Z</time>
      </trkpt>
      <trkpt lat="44.98993" lon="4.7691">
        <ele>505.79</ele>
        <time>2024-05-11T09:28:16Z</time>
      </trkpt>
      <trkpt lat="44.98974" lon="4.76884">
        <ele>505.79</ele>
        <time>2024-05-11T09:28:01Z</time>
      </trkpt>
      <trkpt lat="44.98962" lon="4.76844">
        <ele>507.23</ele>
        <time>2024-05-11T09:27:41Z</time>
      </trkpt>
      <trkpt lat="44.98941" lon="4.76814">
        <ele>508.67</ele>
        <time>2024-05-11T09:27:23Z</time>
      </trkpt>
      <trkpt lat="44.98925" lon="4.76789">
        <ele>507.71</ele>
        <time>2024-05-11T09:27:07Z</time>
      </trkpt>
      <trkpt lat="44.98896" lon="4.76767">
        <ele>505.79</ele>
        <time>2024-05-11T09:26:48Z</time>
      </trkpt>
      <trkpt lat="44.98872" lon="4.76762">
        <ele>504.83</ele>
        <time>2024-05-11T09:26:33Z</time>
      </trkpt>
      <trkpt lat="44.98849" lon="4.76737">
        <ele>503.39</ele>
        <time>2024-05-11T09:26:15Z</time>
      </trkpt>
      <trkpt lat="44.98834" lon="4.76706">
        <ele>504.83</ele>
        <time>2024-05-11T09:25:58Z</time>
      </trkpt>
      <trkpt lat="44.98841" lon="4.76676">
        <ele>505.31</ele>
        <time>2024-05-11T09:25:43Z</time>
      </trkpt>
      <trkpt lat="44.98851" lon="4.76637">
        <ele>502.91</ele>
        <time>2024-05-11T09:25:23Z</time>
      </trkpt>
      <trkpt lat="44.98853" lon="4.76593">
        <ele>500.02</ele>
        <time>2024-05-11T09:25:02Z</time>
      </trkpt>
      <trkpt lat="44.9886" lon="4.76541">
        <ele>494.74</ele>
        <time>2024-05-11T09:24:36Z</time>
      </trkpt>
      <trkpt lat="44.98847" lon="4.76486">
        <ele>487.53</ele>
        <time>2024-05-11T09:24:10Z</time>
      </trkpt>
      <trkpt lat="44.98823" lon="4.76452">
        <ele>485.12</ele>
        <time>2024-05-11T09:23:48Z</time>
      </trkpt>
      <trkpt lat="44.98797" lon="4.76426">
        <ele>482.72</ele>
        <time>2024-05-11T09:23:28Z</time>
      </trkpt>
      <trkpt lat="44.98766" lon="4.76399">
        <ele>478.39</ele>
        <time>2024-05-11T09:23:03Z</time>
      </trkpt>
      <trkpt lat="44.9873" lon="4.76381">
        <ele>474.07</ele>
        <time>2024-05-11T09:22:39Z</time>
      </trkpt>
      <trkpt lat="44.98703" lon="4.76361">
        <ele>472.14</ele>
        <time>2024-05-11T09:22:20Z</time>
      </trkpt>
      <trkpt lat="44.98679" lon="4.7634">
        <ele>470.22</ele>
        <time>2024-05-11T09:22:02Z</time>
      </trkpt>
      <trkpt lat="44.98658" lon="4.76328">
        <ele>469.26</ele>
        <time>2024-05-11T09:21:47Z</time>
      </trkpt>
      <trkpt lat="44.98635" lon="4.76339">
        <ele>468.78</ele>
        <time>2024-05-11T09:21:31Z</time>
      </trkpt>
      <trkpt lat="44.98614" lon="4.76351">
        <ele>467.82</ele>
        <time>2024-05-11T09:21:14Z</time>
      </trkpt>
      <trkpt lat="44.98602" lon="4.76349">
        <ele>469.26</ele>
        <time>2024-05-11T09:20:56Z</time>
      </trkpt>
      <trkpt lat="44.98602" lon="4.76346">
        <ele>467.82</ele>
        <time>2024-05-11T09:20:39Z</time>
      </trkpt>
      <trkpt lat="44.98598" lon="4.76345">
        <ele>466.86</ele>
        <time>2024-05-11T09:20:23Z</time>
      </trkpt>
      <trkpt lat="44.98578" lon="4.76345">
        <ele>463.97</ele>
        <time>2024-05-11T09:20:07Z</time>
      </trkpt>
      <trkpt lat="44.98545" lon="4.76351">
        <ele>461.09</ele>
        <time>2024-05-11T09:19:46Z</time>
      </trkpt>
      <trkpt lat="44.98522" lon="4.7638">
        <ele>459.17</ele>
        <time>2024-05-11T09:19:27Z</time>
      </trkpt>
      <trkpt lat="44.98521" lon="4.76382">
        <ele>459.17</ele>
        <time>2024-05-11T09:19:26Z</time>
      </trkpt>
      <trkpt lat="44.98515" lon="4.76397">
        <ele>457.72</ele>
        <time>2024-05-11T09:19:18Z</time>
      </trkpt>
      <trkpt lat="44.98491" lon="4.76413">
        <ele>454.84</ele>
        <time>2024-05-11T09:19:01Z</time>
      </trkpt>
      <trkpt lat="44.98489" lon="4.76413">
        <ele>454.84</ele>
        <time>2024-05-11T09:19:00Z</time>
      </trkpt>
      <trkpt lat="44.98471" lon="4.76422">
        <ele>453.88</ele>
        <time>2024-05-11T09:18:47Z</time>
      </trkpt>
      <trkpt lat="44.98469" lon="4.76423">
        <ele>453.88</ele>
        <time>2024-05-11T09:18:46Z</time>
      </trkpt>
      <trkpt lat="44.9845" lon="4.7642">
        <ele>455.8</ele>
        <time>2024-05-11T09:18:32Z</time>
      </trkpt>
      <trkpt lat="44.98438" lon="4.7639">
        <ele>461.09</ele>
        <time>2024-05-11T09:18:16Z</time>
      </trkpt>
      <trkpt lat="44.98432" lon="4.76383">
        <ele>462.53</ele>
        <time>2024-05-11T09:18:10Z</time>
      </trkpt>
      <trkpt lat="44.98414" lon="4.76385">
        <ele>466.86</ele>
        <time>2024-05-11T09:17:57Z</time>
      </trkpt>
      <trkpt lat="44.98396" lon="4.764">
        <ele>469.74</ele>
        <time>2024-05-11T09:17:44Z</time>
      </trkpt>
      <trkpt lat="44.98377" lon="4.76402">
        <ele>472.14</ele>
        <time>2024-05-11T09:17:30Z</time>
      </trkpt>
      <trkpt lat="44.98349" lon="4.76387">
        <ele>472.63</ele>
        <time>2024-05-11T09:17:13Z</time>
      </trkpt>
      <trkpt lat="44.98347" lon="4.76385">
        <ele>472.63</ele>
        <time>2024-05-11T09:17:12Z</time>
      </trkpt>
      <trkpt lat="44.98345" lon="4.76385">
        <ele>472.63</ele>
        <time>2024-05-11T09:17:11Z</time>
      </trkpt>
      <trkpt lat="44.9832" lon="4.76397">
        <ele>473.59</ele>
        <time>2024-05-11T09:16:51Z</time>
      </trkpt>
      <trkpt lat="44.98295" lon="4.76407">
        <ele>476.95</ele>
        <time>2024-05-11T09:16:34Z</time>
      </trkpt>
      <trkpt lat="44.98265" lon="4.76411">
        <ele>482.24</ele>
        <time>2024-05-11T09:16:14Z</time>
      </trkpt>
      <trkpt lat="44.98262" lon="4.76411">
        <ele>483.2</ele>
        <time>2024-05-11T09:16:12Z</time>
      </trkpt>
      <trkpt lat="44.98255" lon="4.76405">
        <ele>484.16</ele>
        <time>2024-05-11T09:15:43Z</time>
      </trkpt>
      <trkpt lat="44.98255" lon="4.76414">
        <ele>482.24</ele>
        <time>2024-05-11T09:15:12Z</time>
      </trkpt>
      <trkpt lat="44.98253" lon="4.7641">
        <ele>482.72</ele>
        <time>2024-05-11T09:14:55Z</time>
      </trkpt>
      <trkpt lat="44.98254" lon="4.76415">
        <ele>480.32</ele>
        <time>2024-05-11T09:14:26Z</time>
      </trkpt>
      <trkpt lat="44.98254" lon="4.76419">
        <ele>480.32</ele>
        <time>2024-05-11T09:14:01Z</time>
      </trkpt>
      <trkpt lat="44.98252" lon="4.76422">
        <ele>478.39</ele>
        <time>2024-05-11T09:13:37Z</time>
      </trkpt>
      <trkpt lat="44.98251" lon="4.76416">
        <ele>479.84</ele>
        <time>2024-05-11T09:13:13Z</time>
      </trkpt>
      <trkpt lat="44.98242" lon="4.76411">
        <ele>477.91</ele>
        <time>2024-05-11T09:13:00Z</time>
      </trkpt>
      <trkpt lat="44.98226" lon="4.76398">
        <ele>478.87</ele>
        <time>2024-05-11T09:12:47Z</time>
      </trkpt>
      <trkpt lat="44.98225" lon="4.76396">
        <ele>479.35</ele>
        <time>2024-05-11T09:12:46Z</time>
      </trkpt>
      <trkpt lat="44.98223" lon="4.76387">
        <ele>480.32</ele>
        <time>2024-05-11T09:12:42Z</time>
      </trkpt>
      <trkpt lat="44.98222" lon="4.76384">
        <ele>480.32</ele>
        <time>2024-05-11T09:12:40Z</time>
      </trkpt>
      <trkpt lat="44.98221" lon="4.76383">
        <ele>480.8</ele>
        <time>2024-05-11T09:12:39Z</time>
      </trkpt>
      <trkpt lat="44.98219" lon="4.76382">
        <ele>480.8</ele>
        <time>2024-05-11T09:12:38Z</time>
      </trkpt>
      <trkpt lat="44.98218" lon="4.7638">
        <ele>480.8</ele>
        <time>2024-05-11T09:12:37Z</time>
      </trkpt>
      <trkpt lat="44.98217" lon="4.76379">
        <ele>480.8</ele>
        <time>2024-05-11T09:12:36Z</time>
      </trkpt>
      <trkpt lat="44.98215" lon="4.76377">
        <ele>481.28</ele>
        <time>2024-05-11T09:12:35Z</time>
      </trkpt>
      <trkpt lat="44.98214" lon="4.76376">
        <ele>481.28</ele>
        <time>2024-05-11T09:12:34Z</time>
      </trkpt>
      <trkpt lat="44.98213" lon="4.76375">
        <ele>481.28</ele>
        <time>2024-05-11T09:12:33Z</time>
      </trkpt>
      <trkpt lat="44.98212" lon="4.76374">
        <ele>481.28</ele>
        <time>2024-05-11T09:12:32Z</time>
      </trkpt>
      <trkpt lat="44.98211" lon="4.76373">
        <ele>481.28</ele>
        <time>2024-05-11T09:12:31Z</time>
      </trkpt>
      <trkpt lat="44.98209" lon="4.76372">
        <ele>481.28</ele>
        <time>2024-05-11T09:12:30Z</time>
      </trkpt>
      <trkpt lat="44.98208" lon="4.76371">
        <ele>480.8</ele>
        <time>2024-05-11T09:12:29Z</time>
      </trkpt>
      <trkpt lat="44.98207" lon="4.7637">
        <ele>480.8</ele>
        <time>2024-05-11T09:12:28Z</time>
      </trkpt>
      <trkpt lat="44.98205" lon="4.76363">
        <ele>480.32</ele>
        <time>2024-05-11T09:12:24Z</time>
      </trkpt>
      <trkpt lat="44.98204" lon="4.76361">
        <ele>480.32</ele>
        <time>2024-05-11T09:12:23Z</time>
      </trkpt>
      <trkpt lat="44.98204" lon="4.76358">
        <ele>480.32</ele>
        <time>2024-05-11T09:12:22Z</time>
      </trkpt>
      <trkpt lat="44.98205" lon="4.76356">
        <ele>480.32</ele>
        <time>2024-05-11T09:12:21Z</time>
      </trkpt>
      <trkpt lat="44.98206" lon="4.76354">
        <ele>480.8</ele>
        <time>2024-05-11T09:12:20Z</time>
      </trkpt>
      <trkpt lat="44.98207" lon="4.76353">
        <ele>480.8</ele>
        <time>2024-05-11T09:12:19Z</time>
      </trkpt>
      <trkpt lat="44.98208" lon="4.76351">
        <ele>480.8</ele>
        <time>2024-05-11T09:12:18Z</time>
      </trkpt>
      <trkpt lat="44.9821" lon="4.7635">
        <ele>480.8</ele>
        <time>2024-05-11T09:12:17Z</time>
      </trkpt>
      <trkpt lat="44.98211" lon="4.76349">
        <ele>480.8</ele>
        <time>2024-05-11T09:12:16Z</time>
      </trkpt>
      <trkpt lat="44.98217" lon="4.76342">
        <ele>479.35</ele>
        <time>2024-05-11T09:12:11Z</time>
      </trkpt>
      <trkpt lat="44.98218" lon="4.7634">
        <ele>478.87</ele>
        <time>2024-05-11T09:12:10Z</time>
      </trkpt>
      <trkpt lat="44.98219" lon="4.76339">
        <ele>478.87</ele>
        <time>2024-05-11T09:12:09Z</time>
      </trkpt>
      <trkpt lat="44.9822" lon="4.76338">
        <ele>478.39</ele>
        <time>2024-05-11T09:12:08Z</time>
      </trkpt>
      <trkpt lat="44.98221" lon="4.76337">
        <ele>478.87</ele>
        <time>2024-05-11T09:12:07Z</time>
      </trkpt>
      <trkpt lat="44.98233" lon="4.76325">
        <ele>477.43</ele>
        <time>2024-05-11T09:11:58Z</time>
      </trkpt>
      <trkpt lat="44.98247" lon="4.76298">
        <ele>474.55</ele>
        <time>2024-05-11T09:11:42Z</time>
      </trkpt>
      <trkpt lat="44.98248" lon="4.76296">
        <ele>474.07</ele>
        <time>2024-05-11T09:11:41Z</time>
      </trkpt>
      <trkpt lat="44.98248" lon="4.76294">
        <ele>474.07</ele>
        <time>2024-05-11T09:11:40Z</time>
      </trkpt>
      <trkpt lat="44.98248" lon="4.76287">
        <ele>473.59</ele>
        <time>2024-05-11T09:11:36Z</time>
      </trkpt>
      <trkpt lat="44.9823" lon="4.76259">
        <ele>475.03</ele>
        <time>2024-05-11T09:11:21Z</time>
      </trkpt>
      <trkpt lat="44.98215" lon="4.7625">
        <ele>477.43</ele>
        <time>2024-05-11T09:11:06Z</time>
      </trkpt>
      <trkpt lat="44.98214" lon="4.76248">
        <ele>476.95</ele>
        <time>2024-05-11T09:11:05Z</time>
      </trkpt>
      <trkpt lat="44.98213" lon="4.76246">
        <ele>476.95</ele>
        <time>2024-05-11T09:11:04Z</time>
      </trkpt>
      <trkpt lat="44.98213" lon="4.76218">
        <ele>475.51</ele>
        <time>2024-05-11T09:10:51Z</time>
      </trkpt>
      <trkpt lat="44.98214" lon="4.76215">
        <ele>475.03</ele>
        <time>2024-05-11T09:10:50Z</time>
      </trkpt>
      <trkpt lat="44.98215" lon="4.76213">
        <ele>474.55</ele>
        <time>2024-05-11T09:10:49Z</time>
      </trkpt>
      <trkpt lat="44.98216" lon="4.76212">
        <ele>474.55</ele>
        <time>2024-05-11T09:10:48Z</time>
      </trkpt>
      <trkpt lat="44.98217" lon="4.7621">
        <ele>474.07</ele>
        <time>2024-05-11T09:10:47Z</time>
      </trkpt>
      <trkpt lat="44.98218" lon="4.76208">
        <ele>473.59</ele>
        <time>2024-05-11T09:10:46Z</time>
      </trkpt>
      <trkpt lat="44.9822" lon="4.76205">
        <ele>473.11</ele>
        <time>2024-05-11T09:10:45Z</time>
      </trkpt>
      <trkpt lat="44.98221" lon="4.76203">
        <ele>473.11</ele>
        <time>2024-05-11T09:10:44Z</time>
      </trkpt>
      <trkpt lat="44.98231" lon="4.7618">
        <ele>473.59</ele>
        <time>2024-05-11T09:10:31Z</time>
      </trkpt>
      <trkpt lat="44.98229" lon="4.76149">
        <ele>477.43</ele>
        <time>2024-05-11T09:10:16Z</time>
      </trkpt>
      <trkpt lat="44.98229" lon="4.76146">
        <ele>477.91</ele>
        <time>2024-05-11T09:10:15Z</time>
      </trkpt>
      <trkpt lat="44.98229" lon="4.76144">
        <ele>478.39</ele>
        <time>2024-05-11T09:10:14Z</time>
      </trkpt>
      <trkpt lat="44.98228" lon="4.76142">
        <ele>478.39</ele>
        <time>2024-05-11T09:10:13Z</time>
      </trkpt>
      <trkpt lat="44.98228" lon="4.76139">
        <ele>478.87</ele>
        <time>2024-05-11T09:10:12Z</time>
      </trkpt>
      <trkpt lat="44.98228" lon="4.76137">
        <ele>478.87</ele>
        <time>2024-05-11T09:10:11Z</time>
      </trkpt>
      <trkpt lat="44.98228" lon="4.76135">
        <ele>478.87</ele>
        <time>2024-05-11T09:10:10Z</time>
      </trkpt>
      <trkpt lat="44.98228" lon="4.76133">
        <ele>478.87</ele>
        <time>2024-05-11T09:10:09Z</time>
      </trkpt>
      <trkpt lat="44.98228" lon="4.7613">
        <ele>479.35</ele>
        <time>2024-05-11T09:10:08Z</time>
      </trkpt>
      <trkpt lat="44.98228" lon="4.76127">
        <ele>479.35</ele>
        <time>2024-05-11T09:10:07Z</time>
      </trkpt>
      <trkpt lat="44.98228" lon="4.76125">
        <ele>479.35</ele>
        <time>2024-05-11T09:10:06Z</time>
      </trkpt>
      <trkpt lat="44.98228" lon="4.76122">
        <ele>479.84</ele>
        <time>2024-05-11T09:10:05Z</time>
      </trkpt>
      <trkpt lat="44.98227" lon="4.7612">
        <ele>479.84</ele>
        <time>2024-05-11T09:10:04Z</time>
      </trkpt>
      <trkpt lat="44.98228" lon="4.76107">
        <ele>480.8</ele>
        <time>2024-05-11T09:09:57Z</time>
      </trkpt>
      <trkpt lat="44.98228" lon="4.76105">
        <ele>480.8</ele>
        <time>2024-05-11T09:09:56Z</time>
      </trkpt>
      <trkpt lat="44.98226" lon="4.76088">
        <ele>479.35</ele>
        <time>2024-05-11T09:09:47Z</time>
      </trkpt>
      <trkpt lat="44.98234" lon="4.76055">
        <ele>474.55</ele>
        <time>2024-05-11T09:09:30Z</time>
      </trkpt>
      <trkpt lat="44.98247" lon="4.76027">
        <ele>471.18</ele>
        <time>2024-05-11T09:09:15Z</time>
      </trkpt>
      <trkpt lat="44.98253" lon="4.75996">
        <ele>467.82</ele>
        <time>2024-05-11T09:09:01Z</time>
      </trkpt>
      <trkpt lat="44.98256" lon="4.75962">
        <ele>466.86</ele>
        <time>2024-05-11T09:08:43Z</time>
      </trkpt>
      <trkpt lat="44.98256" lon="4.7596">
        <ele>466.86</ele>
        <time>2024-05-11T09:08:42Z</time>
      </trkpt>
      <trkpt lat="44.98255" lon="4.75958">
        <ele>466.86</ele>
        <time>2024-05-11T09:08:41Z</time>
      </trkpt>
      <trkpt lat="44.98255" lon="4.75957">
        <ele>466.86</ele>
        <time>2024-05-11T09:08:40Z</time>
      </trkpt>
      <trkpt lat="44.98255" lon="4.75955">
        <ele>466.86</ele>
        <time>2024-05-11T09:08:39Z</time>
      </trkpt>
      <trkpt lat="44.98254" lon="4.75953">
        <ele>466.38</ele>
        <time>2024-05-11T09:08:38Z</time>
      </trkpt>
      <trkpt lat="44.98254" lon="4.75952">
        <ele>466.38</ele>
        <time>2024-05-11T09:08:37Z</time>
      </trkpt>
      <trkpt lat="44.98253" lon="4.7595">
        <ele>466.38</ele>
        <time>2024-05-11T09:08:36Z</time>
      </trkpt>
      <trkpt lat="44.98253" lon="4.75949">
        <ele>466.38</ele>
        <time>2024-05-11T09:08:35Z</time>
      </trkpt>
      <trkpt lat="44.98246" lon="4.75953">
        <ele>464.45</ele>
        <time>2024-05-11T09:08:28Z</time>
      </trkpt>
      <trkpt lat="44.98229" lon="4.75983">
        <ele>462.05</ele>
        <time>2024-05-11T09:08:10Z</time>
      </trkpt>
      <trkpt lat="44.98212" lon="4.76005">
        <ele>463.01</ele>
        <time>2024-05-11T09:07:55Z</time>
      </trkpt>
      <trkpt lat="44.98203" lon="4.75973">
        <ele>463.97</ele>
        <time>2024-05-11T09:07:40Z</time>
      </trkpt>
      <trkpt lat="44.98191" lon="4.75945">
        <ele>466.86</ele>
        <time>2024-05-11T09:07:24Z</time>
      </trkpt>
      <trkpt lat="44.9819" lon="4.75944">
        <ele>467.34</ele>
        <time>2024-05-11T09:07:23Z</time>
      </trkpt>
      <trkpt lat="44.98189" lon="4.75942">
        <ele>467.34</ele>
        <time>2024-05-11T09:07:22Z</time>
      </trkpt>
      <trkpt lat="44.98187" lon="4.75939">
        <ele>467.82</ele>
        <time>2024-05-11T09:07:20Z</time>
      </trkpt>
      <trkpt lat="44.9816" lon="4.75919">
        <ele>471.66</ele>
        <time>2024-05-11T09:07:01Z</time>
      </trkpt>
      <trkpt lat="44.98136" lon="4.75924">
        <ele>473.59</ele>
        <time>2024-05-11T09:06:45Z</time>
      </trkpt>
      <trkpt lat="44.98112" lon="4.75937">
        <ele>473.11</ele>
        <time>2024-05-11T09:06:29Z</time>
      </trkpt>
      <trkpt lat="44.98088" lon="4.75948">
        <ele>473.11</ele>
        <time>2024-05-11T09:06:12Z</time>
      </trkpt>
      <trkpt lat="44.98069" lon="4.75936">
        <ele>474.55</ele>
        <time>2024-05-11T09:05:57Z</time>
      </trkpt>
      <trkpt lat="44.9805" lon="4.7592">
        <ele>477.43</ele>
        <time>2024-05-11T09:05:43Z</time>
      </trkpt>
      <trkpt lat="44.98028" lon="4.75912">
        <ele>479.35</ele>
        <time>2024-05-11T09:05:27Z</time>
      </trkpt>
      <trkpt lat="44.97993" lon="4.7591">
        <ele>481.76</ele>
        <time>2024-05-11T09:05:05Z</time>
      </trkpt>
      <trkpt lat="44.97992" lon="4.7591">
        <ele>481.76</ele>
        <time>2024-05-11T09:05:04Z</time>
      </trkpt>
      <trkpt lat="44.97991" lon="4.75911">
        <ele>482.24</ele>
        <time>2024-05-11T09:05:03Z</time>
      </trkpt>
      <trkpt lat="44.97985" lon="4.75912">
        <ele>483.68</ele>
        <time>2024-05-11T09:04:56Z</time>
      </trkpt>
      <trkpt lat="44.97984" lon="4.75914">
        <ele>484.16</ele>
        <time>2024-05-11T09:04:55Z</time>
      </trkpt>
      <trkpt lat="44.97988" lon="4.75936">
        <ele>485.6</ele>
        <time>2024-05-11T09:04:44Z</time>
      </trkpt>
      <trkpt lat="44.97989" lon="4.75946">
        <ele>487.05</ele>
        <time>2024-05-11T09:04:36Z</time>
      </trkpt>
      <trkpt lat="44.97983" lon="4.75977">
        <ele>491.37</ele>
        <time>2024-05-11T09:04:18Z</time>
      </trkpt>
      <trkpt lat="44.97971" lon="4.75995">
        <ele>492.33</ele>
        <time>2024-05-11T09:04:04Z</time>
      </trkpt>
      <trkpt lat="44.9794" lon="4.76">
        <ele>496.18</ele>
        <time>2024-05-11T09:03:41Z</time>
      </trkpt>
      <trkpt lat="44.9791" lon="4.75993">
        <ele>497.14</ele>
        <time>2024-05-11T09:03:23Z</time>
      </trkpt>
      <trkpt lat="44.97883" lon="4.75983">
        <ele>497.62</ele>
        <time>2024-05-11T09:03:05Z</time>
      </trkpt>
      <trkpt lat="44.97863" lon="4.75966">
        <ele>499.06</ele>
        <time>2024-05-11T09:02:49Z</time>
      </trkpt>
      <trkpt lat="44.97841" lon="4.75925">
        <ele>501.46</ele>
        <time>2024-05-11T09:02:27Z</time>
      </trkpt>
      <trkpt lat="44.97814" lon="4.75907">
        <ele>500.98</ele>
        <time>2024-05-11T09:02:08Z</time>
      </trkpt>
      <trkpt lat="44.97779" lon="4.75888">
        <ele>500.98</ele>
        <time>2024-05-11T09:01:47Z</time>
      </trkpt>
      <trkpt lat="44.97751" lon="4.75856">
        <ele>501.95</ele>
        <time>2024-05-11T09:01:27Z</time>
      </trkpt>
      <trkpt lat="44.97719" lon="4.75826">
        <ele>503.39</ele>
        <time>2024-05-11T09:01:05Z</time>
      </trkpt>
      <trkpt lat="44.97695" lon="4.75802">
        <ele>502.43</ele>
        <time>2024-05-11T09:00:47Z</time>
      </trkpt>
      <trkpt lat="44.97671" lon="4.75775">
        <ele>501.46</ele>
        <time>2024-05-11T09:00:30Z</time>
      </trkpt>
      <trkpt lat="44.97647" lon="4.75747">
        <ele>500.98</ele>
        <time>2024-05-11T09:00:12Z</time>
      </trkpt>
      <trkpt lat="44.9763" lon="4.75728">
        <ele>499.54</ele>
        <time>2024-05-11T08:59:57Z</time>
      </trkpt>
      <trkpt lat="44.97648" lon="4.75709">
        <ele>499.54</ele>
        <time>2024-05-11T08:59:42Z</time>
      </trkpt>
      <trkpt lat="44.97665" lon="4.75686">
        <ele>500.02</ele>
        <time>2024-05-11T08:59:27Z</time>
      </trkpt>
      <trkpt lat="44.97676" lon="4.7564">
        <ele>499.54</ele>
        <time>2024-05-11T08:59:06Z</time>
      </trkpt>
      <trkpt lat="44.97683" lon="4.75589">
        <ele>495.7</ele>
        <time>2024-05-11T08:58:43Z</time>
      </trkpt>
      <trkpt lat="44.977" lon="4.75543">
        <ele>490.41</ele>
        <time>2024-05-11T08:58:19Z</time>
      </trkpt>
      <trkpt lat="44.97718" lon="4.75509">
        <ele>481.76</ele>
        <time>2024-05-11T08:57:59Z</time>
      </trkpt>
      <trkpt lat="44.97734" lon="4.75465">
        <ele>476.47</ele>
        <time>2024-05-11T08:57:38Z</time>
      </trkpt>
      <trkpt lat="44.97741" lon="4.75424">
        <ele>472.14</ele>
        <time>2024-05-11T08:57:21Z</time>
      </trkpt>
      <trkpt lat="44.97746" lon="4.75388">
        <ele>469.74</ele>
        <time>2024-05-11T08:57:06Z</time>
      </trkpt>
      <trkpt lat="44.97762" lon="4.75357">
        <ele>472.63</ele>
        <time>2024-05-11T08:56:49Z</time>
      </trkpt>
      <trkpt lat="44.97782" lon="4.75327">
        <ele>474.07</ele>
        <time>2024-05-11T08:56:31Z</time>
      </trkpt>
      <trkpt lat="44.97806" lon="4.75298">
        <ele>473.59</ele>
        <time>2024-05-11T08:56:12Z</time>
      </trkpt>
      <trkpt lat="44.97825" lon="4.75272">
        <ele>471.18</ele>
        <time>2024-05-11T08:55:54Z</time>
      </trkpt>
      <trkpt lat="44.97846" lon="4.75252">
        <ele>468.3</ele>
        <time>2024-05-11T08:55:38Z</time>
      </trkpt>
      <trkpt lat="44.97864" lon="4.75228">
        <ele>463.49</ele>
        <time>2024-05-11T08:55:21Z</time>
      </trkpt>
      <trkpt lat="44.97879" lon="4.75217">
        <ele>461.57</ele>
        <time>2024-05-11T08:55:08Z</time>
      </trkpt>
      <trkpt lat="44.97879" lon="4.75217">
        <ele>460.61</ele>
        <time>2024-05-11T08:54:52Z</time>
      </trkpt>
      <trkpt lat="44.97881" lon="4.75217">
        <ele>462.53</ele>
        <time>2024-05-11T08:54:21Z</time>
      </trkpt>
      <trkpt lat="44.97864" lon="4.75225">
        <ele>465.42</ele>
        <time>2024-05-11T08:54:04Z</time>
      </trkpt>
      <trkpt lat="44.97862" lon="4.75229">
        <ele>466.38</ele>
        <time>2024-05-11T08:53:58Z</time>
      </trkpt>
      <trkpt lat="44.97848" lon="4.75248">
        <ele>468.78</ele>
        <time>2024-05-11T08:53:42Z</time>
      </trkpt>
      <trkpt lat="44.97846" lon="4.75252">
        <ele>468.78</ele>
        <time>2024-05-11T08:53:33Z</time>
      </trkpt>
      <trkpt lat="44.97853" lon="4.75243">
        <ele>466.38</ele>
        <time>2024-05-11T08:53:18Z</time>
      </trkpt>
      <trkpt lat="44.97869" lon="4.75223">
        <ele>458.69</ele>
        <time>2024-05-11T08:53:05Z</time>
      </trkpt>
      <trkpt lat="44.97891" lon="4.75197">
        <ele>453.88</ele>
        <time>2024-05-11T08:52:49Z</time>
      </trkpt>
      <trkpt lat="44.97892" lon="4.75195">
        <ele>453.88</ele>
        <time>2024-05-11T08:52:48Z</time>
      </trkpt>
      <trkpt lat="44.97892" lon="4.75193">
        <ele>453.88</ele>
        <time>2024-05-11T08:52:47Z</time>
      </trkpt>
      <trkpt lat="44.97893" lon="4.75191">
        <ele>453.88</ele>
        <time>2024-05-11T08:52:46Z</time>
      </trkpt>
      <trkpt lat="44.97894" lon="4.7519">
        <ele>453.4</ele>
        <time>2024-05-11T08:52:45Z</time>
      </trkpt>
      <trkpt lat="44.97905" lon="4.75183">
        <ele>453.4</ele>
        <time>2024-05-11T08:52:37Z</time>
      </trkpt>
      <trkpt lat="44.97935" lon="4.7518">
        <ele>456.76</ele>
        <time>2024-05-11T08:52:17Z</time>
      </trkpt>
      <trkpt lat="44.97963" lon="4.75165">
        <ele>458.21</ele>
        <time>2024-05-11T08:51:57Z</time>
      </trkpt>
      <trkpt lat="44.97972" lon="4.75157">
        <ele>456.76</ele>
        <time>2024-05-11T08:51:45Z</time>
      </trkpt>
      <trkpt lat="44.98" lon="4.75135">
        <ele>454.84</ele>
        <time>2024-05-11T08:51:24Z</time>
      </trkpt>
      <trkpt lat="44.98029" lon="4.75115">
        <ele>451.48</ele>
        <time>2024-05-11T08:51:04Z</time>
      </trkpt>
      <trkpt lat="44.98062" lon="4.75099">
        <ele>449.07</ele>
        <time>2024-05-11T08:50:43Z</time>
      </trkpt>
      <trkpt lat="44.98086" lon="4.75086">
        <ele>447.63</ele>
        <time>2024-05-11T08:50:27Z</time>
      </trkpt>
      <trkpt lat="44.98109" lon="4.75072">
        <ele>443.79</ele>
        <time>2024-05-11T08:50:11Z</time>
      </trkpt>
      <trkpt lat="44.98143" lon="4.75052">
        <ele>440.42</ele>
        <time>2024-05-11T08:49:49Z</time>
      </trkpt>
      <trkpt lat="44.98175" lon="4.75042">
        <ele>438.02</ele>
        <time>2024-05-11T08:49:29Z</time>
      </trkpt>
      <trkpt lat="44.98204" lon="4.75041">
        <ele>434.65</ele>
        <time>2024-05-11T08:49:10Z</time>
      </trkpt>
      <trkpt lat="44.98238" lon="4.75044">
        <ele>433.69</ele>
        <time>2024-05-11T08:48:50Z</time>
      </trkpt>
      <trkpt lat="44.98262" lon="4.75046">
        <ele>432.73</ele>
        <time>2024-05-11T08:48:35Z</time>
      </trkpt>
      <trkpt lat="44.98285" lon="4.75038">
        <ele>430.33</ele>
        <time>2024-05-11T08:48:19Z</time>
      </trkpt>
      <trkpt lat="44.98303" lon="4.75046">
        <ele>426</ele>
        <time>2024-05-11T08:48:05Z</time>
      </trkpt>
      <trkpt lat="44.98315" lon="4.75048">
        <ele>422.16</ele>
        <time>2024-05-11T08:47:57Z</time>
      </trkpt>
      <trkpt lat="44.98337" lon="4.75045">
        <ele>419.75</ele>
        <time>2024-05-11T08:47:42Z</time>
      </trkpt>
      <trkpt lat="44.98347" lon="4.75049">
        <ele>418.79</ele>
        <time>2024-05-11T08:47:34Z</time>
      </trkpt>
      <trkpt lat="44.98369" lon="4.75054">
        <ele>417.83</ele>
        <time>2024-05-11T08:47:19Z</time>
      </trkpt>
      <trkpt lat="44.98394" lon="4.75066">
        <ele>414.95</ele>
        <time>2024-05-11T08:47:02Z</time>
      </trkpt>
      <trkpt lat="44.98412" lon="4.75071">
        <ele>412.06</ele>
        <time>2024-05-11T08:46:50Z</time>
      </trkpt>
      <trkpt lat="44.98435" lon="4.75081">
        <ele>411.1</ele>
        <time>2024-05-11T08:46:34Z</time>
      </trkpt>
      <trkpt lat="44.98458" lon="4.75102">
        <ele>409.18</ele>
        <time>2024-05-11T08:46:16Z</time>
      </trkpt>
      <trkpt lat="44.98469" lon="4.7513">
        <ele>405.81</ele>
        <time>2024-05-11T08:46:00Z</time>
      </trkpt>
      <trkpt lat="44.98469" lon="4.75132">
        <ele>405.81</ele>
        <time>2024-05-11T08:45:59Z</time>
      </trkpt>
      <trkpt lat="44.98468" lon="4.75134">
        <ele>405.81</ele>
        <time>2024-05-11T08:45:58Z</time>
      </trkpt>
      <trkpt lat="44.98467" lon="4.75136">
        <ele>405.33</ele>
        <time>2024-05-11T08:45:57Z</time>
      </trkpt>
      <trkpt lat="44.98467" lon="4.75137">
        <ele>405.33</ele>
        <time>2024-05-11T08:45:56Z</time>
      </trkpt>
      <trkpt lat="44.98466" lon="4.75139">
        <ele>404.85</ele>
        <time>2024-05-11T08:45:55Z</time>
      </trkpt>
      <trkpt lat="44.98466" lon="4.75141">
        <ele>404.85</ele>
        <time>2024-05-11T08:45:54Z</time>
      </trkpt>
      <trkpt lat="44.98465" lon="4.75143">
        <ele>404.37</ele>
        <time>2024-05-11T08:45:53Z</time>
      </trkpt>
      <trkpt lat="44.98465" lon="4.75146">
        <ele>404.37</ele>
        <time>2024-05-11T08:45:52Z</time>
      </trkpt>
      <trkpt lat="44.98464" lon="4.75169">
        <ele>401.97</ele>
        <time>2024-05-11T08:45:42Z</time>
      </trkpt>
      <trkpt lat="44.98469" lon="4.75207">
        <ele>396.68</ele>
        <time>2024-05-11T08:45:23Z</time>
      </trkpt>
      <trkpt lat="44.98469" lon="4.75209">
        <ele>396.68</ele>
        <time>2024-05-11T08:45:22Z</time>
      </trkpt>
      <trkpt lat="44.98469" lon="4.75211">
        <ele>396.2</ele>
        <time>2024-05-11T08:45:21Z</time>
      </trkpt>
      <trkpt lat="44.9847" lon="4.75213">
        <ele>395.24</ele>
        <time>2024-05-11T08:45:20Z</time>
      </trkpt>
      <trkpt lat="44.9847" lon="4.75216">
        <ele>394.76</ele>
        <time>2024-05-11T08:45:19Z</time>
      </trkpt>
      <trkpt lat="44.98471" lon="4.75219">
        <ele>393.8</ele>
        <time>2024-05-11T08:45:18Z</time>
      </trkpt>
      <trkpt lat="44.98467" lon="4.75253">
        <ele>389.95</ele>
        <time>2024-05-11T08:45:01Z</time>
      </trkpt>
      <trkpt lat="44.98467" lon="4.75255">
        <ele>389.95</ele>
        <time>2024-05-11T08:45:00Z</time>
      </trkpt>
      <trkpt lat="44.98466" lon="4.75257">
        <ele>389.95</ele>
        <time>2024-05-11T08:44:59Z</time>
      </trkpt>
      <trkpt lat="44.98465" lon="4.75259">
        <ele>389.47</ele>
        <time>2024-05-11T08:44:58Z</time>
      </trkpt>
      <trkpt lat="44.98465" lon="4.75261">
        <ele>389.47</ele>
        <time>2024-05-11T08:44:57Z</time>
      </trkpt>
      <trkpt lat="44.98465" lon="4.75264">
        <ele>389.47</ele>
        <time>2024-05-11T08:44:56Z</time>
      </trkpt>
      <trkpt lat="44.98478" lon="4.75269">
        <ele>388.99</ele>
        <time>2024-05-11T08:44:44Z</time>
      </trkpt>
      <trkpt lat="44.98504" lon="4.75255">
        <ele>386.11</ele>
        <time>2024-05-11T08:44:26Z</time>
      </trkpt>
      <trkpt lat="44.98528" lon="4.75235">
        <ele>381.3</ele>
        <time>2024-05-11T08:44:07Z</time>
      </trkpt>
      <trkpt lat="44.98547" lon="4.75217">
        <ele>378.9</ele>
        <time>2024-05-11T08:43:51Z</time>
      </trkpt>
      <trkpt lat="44.98549" lon="4.75175">
        <ele>377.94</ele>
        <time>2024-05-11T08:43:34Z</time>
      </trkpt>
      <trkpt lat="44.98547" lon="4.75128">
        <ele>381.78</ele>
        <time>2024-05-11T08:43:15Z</time>
      </trkpt>
      <trkpt lat="44.98544" lon="4.75082">
        <ele>384.18</ele>
        <time>2024-05-11T08:42:56Z</time>
      </trkpt>
      <trkpt lat="44.98537" lon="4.75035">
        <ele>381.78</ele>
        <time>2024-05-11T08:42:36Z</time>
      </trkpt>
      <trkpt lat="44.98528" lon="4.74985">
        <ele>379.38</ele>
        <time>2024-05-11T08:42:12Z</time>
      </trkpt>
      <trkpt lat="44.98521" lon="4.74953">
        <ele>380.34</ele>
        <time>2024-05-11T08:41:57Z</time>
      </trkpt>
      <trkpt lat="44.9852" lon="4.74951">
        <ele>380.34</ele>
        <time>2024-05-11T08:41:56Z</time>
      </trkpt>
      <trkpt lat="44.98519" lon="4.74949">
        <ele>380.34</ele>
        <time>2024-05-11T08:41:55Z</time>
      </trkpt>
      <trkpt lat="44.98518" lon="4.74947">
        <ele>380.34</ele>
        <time>2024-05-11T08:41:54Z</time>
      </trkpt>
      <trkpt lat="44.98518" lon="4.74945">
        <ele>380.82</ele>
        <time>2024-05-11T08:41:53Z</time>
      </trkpt>
      <trkpt lat="44.98515" lon="4.74935">
        <ele>382.26</ele>
        <time>2024-05-11T08:41:49Z</time>
      </trkpt>
      <trkpt lat="44.98514" lon="4.74933">
        <ele>382.26</ele>
        <time>2024-05-11T08:41:48Z</time>
      </trkpt>
      <trkpt lat="44.98503" lon="4.74902">
        <ele>382.26</ele>
        <time>2024-05-11T08:41:32Z</time>
      </trkpt>
      <trkpt lat="44.98492" lon="4.74871">
        <ele>382.74</ele>
        <time>2024-05-11T08:41:16Z</time>
      </trkpt>
      <trkpt lat="44.98498" lon="4.74873">
        <ele>376.01</ele>
        <time>2024-05-11T08:31:22Z</time>
      </trkpt>
      <trkpt lat="44.985" lon="4.74875">
        <ele>376.01</ele>
        <time>2024-05-11T08:31:21Z</time>
        <extensions>
          <visugpx:TrkExtension xmlns:visugpx="https://www.visugpx.com/editgpx/">
            <visugpx:node>1</visugpx:node>
            </visugpx:TrkExtension>
        </extensions>
      </trkpt>
    </trkseg>
  </trk>
</gpx>